Check out our new PWSWeather beta!
PWSweather.com
Personal Weather Stations
Station Observations
PARKVIEWX
Lake Worth Lake Charleston Parkview, Lake Worth, FL 33467

Lake Worth Lake Charleston ParkviewLake Worth, FL 33467

Lat: 26.565627, Lon: -80.162068

Elevation: 33

Station Type: Davis Vantage Pro 2

Parkviewx.com

High Low Average
Temperature 92.5°F33.6°C 80.6°F27.0°C 84.5°F29.2°C
Dew Point 79.0°F26.1°C 72.3°F22.4°C 75.3°F24.1°C
Winds 11.0 mph 17.7 kmh 2.9 mph 4.7 kmh 7.0 mph ENE11.3 kmh ENE
Wind Gusts 22.0 mph35.4 kmh 2.9 mph4.7 kmh 12.0 mph19.3 kmh
Humidity 84% 59% 74%
Pressure 30.14 in1020.7 mb 30.02 in1016.6 mb -
Precipitation 0.01 in0.3 mm - -
Hour Temp Dew Point Humidity Winds Wind Gusts Pressure Precip Precip Rate Daily Precip Total
12:00 AM 81.3°F27.4°C 74.8°F23.8°C 81% 4.9 mph E7.9 kmh E 10.1 mph16.3 kmh 30.13 in1020.3 mb 0.00 in0.0 mm 0.00 in0.0 mm 0.00 in0.0 mm
12:01 AM 81.3°F27.4°C 74.8°F23.8°C 81% 6.0 mph E9.7 kmh E 8.9 mph14.3 kmh 30.13 in1020.3 mb 0.00 in0.0 mm 0.00 in0.0 mm 0.00 in0.0 mm
12:03 AM 81.3°F27.4°C 74.8°F23.8°C 81% 4.9 mph E7.9 kmh E 8.9 mph14.3 kmh 30.13 in1020.3 mb 0.00 in0.0 mm 0.00 in0.0 mm 0.00 in0.0 mm
12:04 AM 81.3°F27.4°C 74.8°F23.8°C 81% 4.9 mph E7.9 kmh E 8.9 mph14.3 kmh 30.13 in1020.3 mb 0.00 in0.0 mm 0.00 in0.0 mm 0.00 in0.0 mm
12:05 AM 81.3°F27.4°C 74.8°F23.8°C 81% 4.9 mph E7.9 kmh E 8.1 mph13.0 kmh 30.13 in1020.3 mb 0.00 in0.0 mm 0.00 in0.0 mm 0.00 in0.0 mm
12:06 AM 81.3°F27.4°C 74.8°F23.8°C 81% 4.9 mph ENE7.9 kmh ENE 8.9 mph14.3 kmh 30.13 in1020.3 mb 0.00 in0.0 mm 0.00 in0.0 mm 0.00 in0.0 mm
12:07 AM 81.3°F27.4°C 74.8°F23.8°C 81% 4.9 mph E7.9 kmh E 10.1 mph16.3 kmh 30.13 in1020.3 mb 0.00 in0.0 mm 0.00 in0.0 mm 0.00 in0.0 mm
12:08 AM 81.3°F27.4°C 74.8°F23.8°C 81% 4.9 mph ENE7.9 kmh ENE 10.1 mph16.3 kmh 30.13 in1020.3 mb 0.00 in0.0 mm 0.00 in0.0 mm 0.00 in0.0 mm
12:09 AM 81.5°F27.5°C 75.0°F23.9°C 81% 4.9 mph E7.9 kmh E 11.0 mph17.7 kmh 30.13 in1020.3 mb 0.00 in0.0 mm 0.00 in0.0 mm 0.00 in0.0 mm
12:10 AM 81.3°F27.4°C 74.8°F23.8°C 81% 4.0 mph E6.4 kmh E 11.0 mph17.7 kmh 30.13 in1020.3 mb 0.00 in0.0 mm 0.00 in0.0 mm 0.00 in0.0 mm
12:11 AM 81.5°F27.5°C 75.0°F23.9°C 81% 4.0 mph E6.4 kmh E 4.9 mph7.9 kmh 30.13 in1020.3 mb 0.00 in0.0 mm 0.00 in0.0 mm 0.00 in0.0 mm
12:12 AM 81.5°F27.5°C 75.0°F23.9°C 81% 4.0 mph NE6.4 kmh NE 12.1 mph19.5 kmh 30.13 in1020.3 mb 0.00 in0.0 mm 0.00 in0.0 mm 0.00 in0.0 mm
12:13 AM 81.3°F27.4°C 74.8°F23.8°C 81% 4.0 mph ENE6.4 kmh ENE 12.0 mph19.3 kmh 30.13 in1020.3 mb 0.00 in0.0 mm 0.00 in0.0 mm 0.00 in0.0 mm
12:14 AM 81.5°F27.5°C 75.0°F23.9°C 81% 4.0 mph E6.4 kmh E 12.1 mph19.5 kmh 30.13 in1020.3 mb 0.00 in0.0 mm 0.00 in0.0 mm 0.00 in0.0 mm
12:15 AM 81.3°F27.4°C 74.8°F23.8°C 81% 4.9 mph E7.9 kmh E 12.1 mph19.5 kmh 30.13 in1020.3 mb 0.00 in0.0 mm 0.00 in0.0 mm 0.00 in0.0 mm
12:16 AM 81.5°F27.5°C 75.0°F23.9°C 81% 4.9 mph E7.9 kmh E 11.0 mph17.7 kmh 30.13 in1020.3 mb 0.00 in0.0 mm 0.00 in0.0 mm 0.00 in0.0 mm
12:17 AM 81.5°F27.5°C 75.0°F23.9°C 81% 4.9 mph ENE7.9 kmh ENE 4.9 mph7.9 kmh 30.13 in1020.3 mb 0.00 in0.0 mm 0.00 in0.0 mm 0.00 in0.0 mm
12:18 AM 81.5°F27.5°C 75.0°F23.9°C 81% 4.9 mph ENE7.9 kmh ENE 11.0 mph17.7 kmh 30.13 in1020.3 mb 0.00 in0.0 mm 0.00 in0.0 mm 0.00 in0.0 mm
12:19 AM 81.5°F27.5°C 75.0°F23.9°C 81% 4.9 mph E7.9 kmh E 8.1 mph13.0 kmh 30.13 in1020.3 mb 0.00 in0.0 mm 0.00 in0.0 mm 0.00 in0.0 mm
12:20 AM 81.3°F27.4°C 74.8°F23.8°C 81% 4.9 mph E7.9 kmh E 10.1 mph16.3 kmh 30.13 in1020.3 mb 0.00 in0.0 mm 0.00 in0.0 mm 0.00 in0.0 mm
12:21 AM 81.5°F27.5°C 75.0°F23.9°C 81% 4.9 mph E7.9 kmh E 10.1 mph16.3 kmh 30.13 in1020.3 mb 0.00 in0.0 mm 0.00 in0.0 mm 0.00 in0.0 mm
12:22 AM 81.5°F27.5°C 75.0°F23.9°C 81% 4.9 mph E7.9 kmh E 8.1 mph13.0 kmh 30.13 in1020.3 mb 0.00 in0.0 mm 0.00 in0.0 mm 0.00 in0.0 mm
12:23 AM 81.3°F27.4°C 74.8°F23.8°C 81% 4.9 mph ESE7.9 kmh ESE 12.0 mph19.3 kmh 30.13 in1020.3 mb 0.00 in0.0 mm 0.00 in0.0 mm 0.00 in0.0 mm
12:24 AM 81.3°F27.4°C 74.5°F23.6°C 80% 4.9 mph ENE7.9 kmh ENE 12.0 mph19.3 kmh 30.13 in1020.3 mb 0.00 in0.0 mm 0.00 in0.0 mm 0.00 in0.0 mm
12:25 AM 81.3°F27.4°C 74.5°F23.6°C 80% 4.0 mph E6.4 kmh E 12.0 mph19.3 kmh 30.13 in1020.3 mb 0.00 in0.0 mm 0.00 in0.0 mm 0.00 in0.0 mm
12:26 AM 81.3°F27.4°C 74.5°F23.6°C 80% 4.0 mph E6.4 kmh E 8.1 mph13.0 kmh 30.13 in1020.3 mb 0.00 in0.0 mm 0.00 in0.0 mm 0.00 in0.0 mm
12:27 AM 81.3°F27.4°C 74.5°F23.6°C 80% 4.9 mph E7.9 kmh E 8.1 mph13.0 kmh 30.13 in1020.3 mb 0.00 in0.0 mm 0.00 in0.0 mm 0.00 in0.0 mm
12:28 AM 81.3°F27.4°C 74.5°F23.6°C 80% 4.9 mph E7.9 kmh E 6.9 mph11.1 kmh 30.13 in1020.3 mb 0.00 in0.0 mm 0.00 in0.0 mm 0.00 in0.0 mm
12:29 AM 81.3°F27.4°C 74.5°F23.6°C 80% 4.9 mph ESE7.9 kmh ESE 6.9 mph11.1 kmh 30.13 in1020.3 mb 0.00 in0.0 mm 0.00 in0.0 mm 0.00 in0.0 mm
12:30 AM 81.3°F27.4°C 74.5°F23.6°C 80% 4.0 mph E6.4 kmh E 11.0 mph17.7 kmh 30.13 in1020.3 mb 0.00 in0.0 mm 0.00 in0.0 mm 0.00 in0.0 mm
12:31 AM 81.3°F27.4°C 74.5°F23.6°C 80% 4.9 mph E7.9 kmh E 11.0 mph17.7 kmh 30.13 in1020.3 mb 0.00 in0.0 mm 0.00 in0.0 mm 0.00 in0.0 mm
12:32 AM 81.3°F27.4°C 74.5°F23.6°C 80% 4.9 mph NE7.9 kmh NE 8.9 mph14.3 kmh 30.13 in1020.3 mb 0.00 in0.0 mm 0.00 in0.0 mm 0.00 in0.0 mm
12:33 AM 81.3°F27.4°C 74.5°F23.6°C 80% 4.9 mph NE7.9 kmh NE 11.0 mph17.7 kmh 30.13 in1020.3 mb 0.00 in0.0 mm 0.00 in0.0 mm 0.00 in0.0 mm
12:34 AM 81.3°F27.4°C 74.5°F23.6°C 80% 4.9 mph E7.9 kmh E 6.0 mph9.7 kmh 30.14 in1020.7 mb 0.00 in0.0 mm 0.00 in0.0 mm 0.00 in0.0 mm
12:35 AM 81.3°F27.4°C 74.5°F23.6°C 80% 4.9 mph E7.9 kmh E 12.1 mph19.5 kmh 30.13 in1020.3 mb 0.00 in0.0 mm 0.00 in0.0 mm 0.00 in0.0 mm
12:36 AM 81.3°F27.4°C 74.5°F23.6°C 80% 6.0 mph E9.7 kmh E 13.0 mph20.9 kmh 30.13 in1020.3 mb 0.00 in0.0 mm 0.00 in0.0 mm 0.00 in0.0 mm
12:37 AM 81.3°F27.4°C 74.5°F23.6°C 80% 6.0 mph E9.7 kmh E 13.0 mph20.9 kmh 30.13 in1020.3 mb 0.00 in0.0 mm 0.00 in0.0 mm 0.00 in0.0 mm
12:38 AM 81.3°F27.4°C 74.1°F23.4°C 79% 4.9 mph ENE7.9 kmh ENE 8.1 mph13.0 kmh 30.13 in1020.3 mb 0.00 in0.0 mm 0.00 in0.0 mm 0.00 in0.0 mm
12:39 AM 81.1°F27.3°C 73.9°F23.3°C 79% 6.0 mph NE9.7 kmh NE 13.0 mph20.9 kmh 30.13 in1020.3 mb 0.00 in0.0 mm 0.00 in0.0 mm 0.00 in0.0 mm
12:40 AM 81.3°F27.4°C 74.1°F23.4°C 79% 6.0 mph NE9.7 kmh NE 12.1 mph19.5 kmh 30.13 in1020.3 mb 0.00 in0.0 mm 0.00 in0.0 mm 0.00 in0.0 mm
12:41 AM 81.3°F27.4°C 74.1°F23.4°C 79% 6.0 mph ESE9.7 kmh ESE 12.1 mph19.5 kmh 30.13 in1020.3 mb 0.00 in0.0 mm 0.00 in0.0 mm 0.00 in0.0 mm
12:42 AM 81.3°F27.4°C 74.1°F23.4°C 79% 6.0 mph E9.7 kmh E 11.0 mph17.7 kmh 30.13 in1020.3 mb 0.00 in0.0 mm 0.00 in0.0 mm 0.00 in0.0 mm
12:43 AM 81.3°F27.4°C 74.1°F23.4°C 79% 6.0 mph ESE9.7 kmh ESE 8.9 mph14.3 kmh 30.13 in1020.3 mb 0.00 in0.0 mm 0.00 in0.0 mm 0.00 in0.0 mm
12:44 AM 81.3°F27.4°C 74.1°F23.4°C 79% 6.0 mph E9.7 kmh E 8.1 mph13.0 kmh 30.13 in1020.3 mb 0.00 in0.0 mm 0.00 in0.0 mm 0.00 in0.0 mm
12:45 AM 81.3°F27.4°C 74.1°F23.4°C 79% 6.0 mph ESE9.7 kmh ESE 8.1 mph13.0 kmh 30.13 in1020.3 mb 0.00 in0.0 mm 0.00 in0.0 mm 0.00 in0.0 mm
12:46 AM 81.3°F27.4°C 74.1°F23.4°C 79% 4.9 mph SE7.9 kmh SE 6.0 mph9.7 kmh 30.13 in1020.3 mb 0.00 in0.0 mm 0.00 in0.0 mm 0.00 in0.0 mm
12:47 AM 81.3°F27.4°C 74.1°F23.4°C 79% 4.9 mph ESE7.9 kmh ESE 8.9 mph14.3 kmh 30.13 in1020.3 mb 0.00 in0.0 mm 0.00 in0.0 mm 0.00 in0.0 mm
12:48 AM 81.3°F27.4°C 74.1°F23.4°C 79% 4.9 mph ESE7.9 kmh ESE 13.0 mph20.9 kmh 30.13 in1020.3 mb 0.00 in0.0 mm 0.00 in0.0 mm 0.00 in0.0 mm
12:49 AM 81.3°F27.4°C 74.1°F23.4°C 79% 4.9 mph E7.9 kmh E 13.0 mph20.9 kmh 30.13 in1020.3 mb 0.00 in0.0 mm 0.00 in0.0 mm 0.00 in0.0 mm
12:50 AM 81.3°F27.4°C 74.1°F23.4°C 79% 4.9 mph ESE7.9 kmh ESE 13.0 mph20.9 kmh 30.13 in1020.3 mb 0.00 in0.0 mm 0.00 in0.0 mm 0.00 in0.0 mm
12:51 AM 81.3°F27.4°C 74.1°F23.4°C 79% 4.9 mph E7.9 kmh E 10.1 mph16.3 kmh 30.13 in1020.3 mb 0.00 in0.0 mm 0.00 in0.0 mm 0.00 in0.0 mm
12:52 AM 81.3°F27.4°C 74.1°F23.4°C 79% 4.9 mph E7.9 kmh E 8.1 mph13.0 kmh 30.13 in1020.3 mb 0.00 in0.0 mm 0.00 in0.0 mm 0.00 in0.0 mm
12:53 AM 81.3°F27.4°C 74.1°F23.4°C 79% 4.9 mph SE7.9 kmh SE 8.1 mph13.0 kmh 30.13 in1020.3 mb 0.00 in0.0 mm 0.00 in0.0 mm 0.00 in0.0 mm
12:54 AM 81.3°F27.4°C 74.1°F23.4°C 79% 4.9 mph E7.9 kmh E 6.9 mph11.1 kmh 30.13 in1020.3 mb 0.00 in0.0 mm 0.00 in0.0 mm 0.00 in0.0 mm
12:55 AM 81.3°F27.4°C 74.1°F23.4°C 79% 4.9 mph ENE7.9 kmh ENE 8.9 mph14.3 kmh 30.13 in1020.3 mb 0.00 in0.0 mm 0.00 in0.0 mm 0.00 in0.0 mm
12:56 AM 81.3°F27.4°C 74.1°F23.4°C 79% 4.9 mph ESE7.9 kmh ESE 4.0 mph6.4 kmh 30.12 in1020.0 mb 0.00 in0.0 mm 0.00 in0.0 mm 0.00 in0.0 mm
12:57 AM 81.3°F27.4°C 74.1°F23.4°C 79% 4.9 mph E7.9 kmh E 8.1 mph13.0 kmh 30.12 in1020.0 mb 0.00 in0.0 mm 0.00 in0.0 mm 0.00 in0.0 mm
12:58 AM 81.3°F27.4°C 74.1°F23.4°C 79% 4.9 mph E7.9 kmh E 8.9 mph14.3 kmh 30.13 in1020.3 mb 0.00 in0.0 mm 0.00 in0.0 mm 0.00 in0.0 mm
12:59 AM 81.1°F27.3°C 74.3°F23.5°C 80% 4.0 mph ESE6.4 kmh ESE 8.9 mph14.3 kmh 30.12 in1020.0 mb 0.00 in0.0 mm 0.00 in0.0 mm 0.00 in0.0 mm
01:00 AM 81.1°F27.3°C 73.9°F23.3°C 79% 4.0 mph E6.4 kmh E 10.1 mph16.3 kmh 30.12 in1020.0 mb 0.00 in0.0 mm 0.00 in0.0 mm 0.00 in0.0 mm
01:01 AM 81.1°F27.3°C 73.9°F23.3°C 79% 4.0 mph ESE6.4 kmh ESE 10.0 mph16.1 kmh 30.12 in1020.0 mb 0.00 in0.0 mm 0.00 in0.0 mm 0.00 in0.0 mm
01:02 AM 81.1°F27.3°C 74.3°F23.5°C 80% 4.0 mph SE6.4 kmh SE 4.0 mph6.4 kmh 30.12 in1020.0 mb 0.00 in0.0 mm 0.00 in0.0 mm 0.00 in0.0 mm
01:03 AM 81.1°F27.3°C 74.3°F23.5°C 80% 4.0 mph E6.4 kmh E 6.9 mph11.1 kmh 30.12 in1020.0 mb 0.00 in0.0 mm 0.00 in0.0 mm 0.00 in0.0 mm
01:04 AM 81.1°F27.3°C 74.3°F23.5°C 80% 4.0 mph E6.4 kmh E 6.9 mph11.1 kmh 30.12 in1020.0 mb 0.00 in0.0 mm 0.00 in0.0 mm 0.00 in0.0 mm
01:05 AM 81.1°F27.3°C 74.3°F23.5°C 80% 4.0 mph E6.4 kmh E 6.9 mph11.1 kmh 30.12 in1020.0 mb 0.00 in0.0 mm 0.00 in0.0 mm 0.00 in0.0 mm
01:06 AM 81.1°F27.3°C 74.3°F23.5°C 80% 4.0 mph NE6.4 kmh NE 6.9 mph11.1 kmh 30.12 in1020.0 mb 0.00 in0.0 mm 0.00 in0.0 mm 0.00 in0.0 mm
01:07 AM 81.1°F27.3°C 74.3°F23.5°C 80% 4.0 mph E6.4 kmh E 8.1 mph13.0 kmh 30.12 in1020.0 mb 0.00 in0.0 mm 0.00 in0.0 mm 0.00 in0.0 mm
01:08 AM 81.1°F27.3°C 74.3°F23.5°C 80% 4.0 mph ESE6.4 kmh ESE 8.9 mph14.3 kmh 30.12 in1020.0 mb 0.00 in0.0 mm 0.00 in0.0 mm 0.00 in0.0 mm
01:09 AM 81.1°F27.3°C 74.3°F23.5°C 80% 4.0 mph E6.4 kmh E 8.1 mph13.0 kmh 30.12 in1020.0 mb 0.00 in0.0 mm 0.00 in0.0 mm 0.00 in0.0 mm
01:10 AM 81.1°F27.3°C 74.3°F23.5°C 80% 4.0 mph E6.4 kmh E 10.0 mph16.1 kmh 30.12 in1020.0 mb 0.00 in0.0 mm 0.00 in0.0 mm 0.00 in0.0 mm
01:11 AM 81.1°F27.3°C 74.7°F23.7°C 81% 4.0 mph E6.4 kmh E 10.0 mph16.1 kmh 30.12 in1020.0 mb 0.00 in0.0 mm 0.00 in0.0 mm 0.00 in0.0 mm
01:12 AM 81.1°F27.3°C 74.7°F23.7°C 81% 4.0 mph ESE6.4 kmh ESE 8.1 mph13.0 kmh 30.12 in1020.0 mb 0.00 in0.0 mm 0.00 in0.0 mm 0.00 in0.0 mm
01:13 AM 81.1°F27.3°C 74.7°F23.7°C 81% 4.9 mph E7.9 kmh E 8.1 mph13.0 kmh 30.12 in1020.0 mb 0.00 in0.0 mm 0.00 in0.0 mm 0.00 in0.0 mm
01:14 AM 81.1°F27.3°C 74.7°F23.7°C 81% 4.9 mph SE7.9 kmh SE 8.1 mph13.0 kmh 30.12 in1020.0 mb 0.00 in0.0 mm 0.00 in0.0 mm 0.00 in0.0 mm
01:15 AM 81.1°F27.3°C 74.7°F23.7°C 81% 4.9 mph E7.9 kmh E 8.9 mph14.3 kmh 30.12 in1020.0 mb 0.00 in0.0 mm 0.00 in0.0 mm 0.00 in0.0 mm
01:16 AM 81.1°F27.3°C 74.7°F23.7°C 81% 4.9 mph ESE7.9 kmh ESE 6.9 mph11.1 kmh 30.12 in1020.0 mb 0.00 in0.0 mm 0.00 in0.0 mm 0.00 in0.0 mm
01:17 AM 81.1°F27.3°C 74.7°F23.7°C 81% 4.9 mph E7.9 kmh E 12.1 mph19.5 kmh 30.12 in1020.0 mb 0.00 in0.0 mm 0.00 in0.0 mm 0.00 in0.0 mm
01:18 AM 81.1°F27.3°C 74.7°F23.7°C 81% 4.9 mph E7.9 kmh E 12.1 mph19.5 kmh 30.12 in1020.0 mb 0.00 in0.0 mm 0.00 in0.0 mm 0.00 in0.0 mm
01:19 AM 81.3°F27.4°C 74.8°F23.8°C 81% 4.9 mph E7.9 kmh E 6.9 mph11.1 kmh 30.12 in1020.0 mb 0.00 in0.0 mm 0.00 in0.0 mm 0.00 in0.0 mm
01:20 AM 81.3°F27.4°C 74.8°F23.8°C 81% 4.9 mph E7.9 kmh E 11.0 mph17.7 kmh 30.12 in1020.0 mb 0.00 in0.0 mm 0.00 in0.0 mm 0.00 in0.0 mm
01:21 AM 81.3°F27.4°C 74.8°F23.8°C 81% 4.9 mph E7.9 kmh E 10.1 mph16.3 kmh 30.12 in1020.0 mb 0.00 in0.0 mm 0.00 in0.0 mm 0.00 in0.0 mm
01:22 AM 81.3°F27.4°C 74.8°F23.8°C 81% 4.9 mph ESE7.9 kmh ESE 8.1 mph13.0 kmh 30.12 in1020.0 mb 0.00 in0.0 mm 0.00 in0.0 mm 0.00 in0.0 mm
01:23 AM 81.3°F27.4°C 74.8°F23.8°C 81% 4.9 mph E7.9 kmh E 10.1 mph16.3 kmh 30.12 in1020.0 mb 0.00 in0.0 mm 0.00 in0.0 mm 0.00 in0.0 mm
01:24 AM 81.3°F27.4°C 74.8°F23.8°C 81% 4.9 mph ESE7.9 kmh ESE 8.9 mph14.3 kmh 30.11 in1019.6 mb 0.00 in0.0 mm 0.00 in0.0 mm 0.00 in0.0 mm
01:25 AM 81.3°F27.4°C 74.8°F23.8°C 81% 4.9 mph SE7.9 kmh SE 6.0 mph9.7 kmh 30.11 in1019.6 mb 0.00 in0.0 mm 0.00 in0.0 mm 0.00 in0.0 mm
01:26 AM 81.3°F27.4°C 74.8°F23.8°C 81% 4.9 mph E7.9 kmh E 8.1 mph13.0 kmh 30.11 in1019.6 mb 0.00 in0.0 mm 0.00 in0.0 mm 0.00 in0.0 mm
01:27 AM 81.3°F27.4°C 74.8°F23.8°C 81% 4.9 mph E7.9 kmh E 12.0 mph19.3 kmh 30.11 in1019.6 mb 0.00 in0.0 mm 0.00 in0.0 mm 0.00 in0.0 mm
01:28 AM 81.3°F27.4°C 74.8°F23.8°C 81% 4.9 mph NE7.9 kmh NE 12.0 mph19.3 kmh 30.11 in1019.6 mb 0.00 in0.0 mm 0.00 in0.0 mm 0.00 in0.0 mm
01:29 AM 81.3°F27.4°C 74.8°F23.8°C 81% 4.9 mph ESE7.9 kmh ESE 8.1 mph13.0 kmh 30.11 in1019.6 mb 0.00 in0.0 mm 0.00 in0.0 mm 0.00 in0.0 mm
01:30 AM 81.3°F27.4°C 74.8°F23.8°C 81% 4.0 mph E6.4 kmh E 8.1 mph13.0 kmh 30.11 in1019.6 mb 0.00 in0.0 mm 0.00 in0.0 mm 0.00 in0.0 mm
01:31 AM 81.3°F27.4°C 75.4°F24.1°C 82% 4.0 mph E6.4 kmh E 4.0 mph6.4 kmh 30.11 in1019.6 mb 0.00 in0.0 mm 0.00 in0.0 mm 0.00 in0.0 mm
01:32 AM 81.3°F27.4°C 75.4°F24.1°C 82% 4.0 mph SE6.4 kmh SE 4.9 mph7.9 kmh 30.11 in1019.6 mb 0.00 in0.0 mm 0.00 in0.0 mm 0.00 in0.0 mm
01:33 AM 81.3°F27.4°C 75.4°F24.1°C 82% 4.0 mph E6.4 kmh E 6.0 mph9.7 kmh 30.11 in1019.6 mb 0.00 in0.0 mm 0.00 in0.0 mm 0.00 in0.0 mm
01:34 AM 81.3°F27.4°C 75.4°F24.1°C 82% 2.9 mph ENE4.7 kmh ENE 8.9 mph14.3 kmh 30.11 in1019.6 mb 0.00 in0.0 mm 0.00 in0.0 mm 0.00 in0.0 mm
01:35 AM 81.3°F27.4°C 75.4°F24.1°C 82% 4.0 mph E6.4 kmh E 8.9 mph14.3 kmh 30.11 in1019.6 mb 0.00 in0.0 mm 0.00 in0.0 mm 0.00 in0.0 mm
01:36 AM 81.3°F27.4°C 75.4°F24.1°C 82% 2.9 mph E4.7 kmh E 4.0 mph6.4 kmh 30.11 in1019.6 mb 0.00 in0.0 mm 0.00 in0.0 mm 0.00 in0.0 mm
01:37 AM 81.3°F27.4°C 75.4°F24.1°C 82% 2.9 mph E4.7 kmh E 8.1 mph13.0 kmh 30.11 in1019.6 mb 0.00 in0.0 mm 0.00 in0.0 mm 0.00 in0.0 mm
01:38 AM 81.3°F27.4°C 75.4°F24.1°C 82% 4.0 mph E6.4 kmh E 8.1 mph13.0 kmh 30.11 in1019.6 mb 0.00 in0.0 mm 0.00 in0.0 mm 0.00 in0.0 mm
01:39 AM 81.3°F27.4°C 75.4°F24.1°C 82% 4.0 mph ESE6.4 kmh ESE 10.1 mph16.3 kmh 30.11 in1019.6 mb 0.00 in0.0 mm 0.00 in0.0 mm 0.00 in0.0 mm
01:40 AM 81.3°F27.4°C 75.4°F24.1°C 82% 4.0 mph E6.4 kmh E 10.0 mph16.1 kmh 30.11 in1019.6 mb 0.00 in0.0 mm 0.00 in0.0 mm 0.00 in0.0 mm
01:41 AM 81.3°F27.4°C 75.4°F24.1°C 82% 4.0 mph E6.4 kmh E 8.1 mph13.0 kmh 30.11 in1019.6 mb 0.00 in0.0 mm 0.00 in0.0 mm 0.00 in0.0 mm
01:42 AM 81.3°F27.4°C 75.4°F24.1°C 82% 4.0 mph E6.4 kmh E 4.0 mph6.4 kmh 30.11 in1019.6 mb 0.00 in0.0 mm 0.00 in0.0 mm 0.00 in0.0 mm
01:43 AM 81.3°F27.4°C 75.4°F24.1°C 82% 4.0 mph E6.4 kmh E 6.0 mph9.7 kmh 30.11 in1019.6 mb 0.00 in0.0 mm 0.00 in0.0 mm 0.00 in0.0 mm
01:44 AM 81.3°F27.4°C 75.4°F24.1°C 82% 4.0 mph E6.4 kmh E 8.9 mph14.3 kmh 30.11 in1019.6 mb 0.00 in0.0 mm 0.00 in0.0 mm 0.00 in0.0 mm
01:45 AM 81.3°F27.4°C 75.4°F24.1°C 82% 4.0 mph E6.4 kmh E 8.1 mph13.0 kmh 30.11 in1019.6 mb 0.00 in0.0 mm 0.00 in0.0 mm 0.00 in0.0 mm
01:46 AM 81.3°F27.4°C 75.4°F24.1°C 82% 4.0 mph ENE6.4 kmh ENE 8.1 mph13.0 kmh 30.11 in1019.6 mb 0.00 in0.0 mm 0.00 in0.0 mm 0.00 in0.0 mm
01:47 AM 81.3°F27.4°C 75.4°F24.1°C 82% 4.0 mph E6.4 kmh E 6.9 mph11.1 kmh 30.11 in1019.6 mb 0.00 in0.0 mm 0.00 in0.0 mm 0.00 in0.0 mm
01:48 AM 81.5°F27.5°C 75.4°F24.1°C 82% 4.0 mph ENE6.4 kmh ENE 8.1 mph13.0 kmh 30.11 in1019.6 mb 0.00 in0.0 mm 0.00 in0.0 mm 0.00 in0.0 mm
01:49 AM 81.3°F27.4°C 75.4°F24.1°C 82% 4.0 mph ENE6.4 kmh ENE 10.0 mph16.1 kmh 30.11 in1019.6 mb 0.00 in0.0 mm 0.00 in0.0 mm 0.00 in0.0 mm
01:50 AM 81.5°F27.5°C 75.4°F24.1°C 82% 4.0 mph E6.4 kmh E 10.0 mph16.1 kmh 30.11 in1019.6 mb 0.00 in0.0 mm 0.00 in0.0 mm 0.00 in0.0 mm
01:51 AM 81.5°F27.5°C 75.4°F24.1°C 82% 2.9 mph ESE4.7 kmh ESE 6.9 mph11.1 kmh 30.11 in1019.6 mb 0.00 in0.0 mm 0.00 in0.0 mm 0.00 in0.0 mm
01:52 AM 81.5°F27.5°C 75.4°F24.1°C 82% 2.9 mph E4.7 kmh E 6.9 mph11.1 kmh 30.11 in1019.6 mb 0.00 in0.0 mm 0.00 in0.0 mm 0.00 in0.0 mm
01:53 AM 81.5°F27.5°C 75.4°F24.1°C 82% 2.9 mph NE4.7 kmh NE 6.0 mph9.7 kmh 30.11 in1019.6 mb 0.00 in0.0 mm 0.00 in0.0 mm 0.00 in0.0 mm
01:54 AM 81.3°F27.4°C 75.4°F24.1°C 82% 2.9 mph E4.7 kmh E 6.9 mph11.1 kmh 30.11 in1019.6 mb 0.00 in0.0 mm 0.00 in0.0 mm 0.00 in0.0 mm
01:55 AM 81.3°F27.4°C 75.4°F24.1°C 82% 2.9 mph ENE4.7 kmh ENE 4.0 mph6.4 kmh 30.11 in1019.6 mb 0.00 in0.0 mm 0.00 in0.0 mm 0.00 in0.0 mm
01:56 AM 81.3°F27.4°C 75.4°F24.1°C 82% 2.9 mph ENE4.7 kmh ENE 2.9 mph4.7 kmh 30.11 in1019.6 mb 0.00 in0.0 mm 0.00 in0.0 mm 0.00 in0.0 mm
01:57 AM 81.3°F27.4°C 75.4°F24.1°C 82% 2.9 mph ESE4.7 kmh ESE 4.0 mph6.4 kmh 30.11 in1019.6 mb 0.00 in0.0 mm 0.00 in0.0 mm 0.00 in0.0 mm
01:58 AM 81.3°F27.4°C 75.4°F24.1°C 82% 2.9 mph ENE4.7 kmh ENE 4.9 mph7.9 kmh 30.11 in1019.6 mb 0.00 in0.0 mm 0.00 in0.0 mm 0.00 in0.0 mm
01:59 AM 81.3°F27.4°C 75.4°F24.1°C 82% 2.9 mph E4.7 kmh E 4.0 mph6.4 kmh 30.11 in1019.6 mb 0.00 in0.0 mm 0.00 in0.0 mm 0.00 in0.0 mm
02:00 AM 81.3°F27.4°C 75.7°F24.3°C 83% 2.9 mph NE4.7 kmh NE 4.0 mph6.4 kmh 30.11 in1019.6 mb 0.00 in0.0 mm 0.00 in0.0 mm 0.00 in0.0 mm
02:01 AM 81.3°F27.4°C 75.7°F24.3°C 83% 2.9 mph ENE4.7 kmh ENE 8.1 mph13.0 kmh 30.11 in1019.6 mb 0.00 in0.0 mm 0.00 in0.0 mm 0.00 in0.0 mm
02:02 AM 81.3°F27.4°C 75.7°F24.3°C 83% 2.9 mph ENE4.7 kmh ENE 12.1 mph19.5 kmh 30.11 in1019.6 mb 0.00 in0.0 mm 0.00 in0.0 mm 0.00 in0.0 mm
02:03 AM 81.3°F27.4°C 75.4°F24.1°C 82% 2.9 mph E4.7 kmh E 12.0 mph19.3 kmh 30.11 in1019.6 mb 0.00 in0.0 mm 0.00 in0.0 mm 0.00 in0.0 mm
02:04 AM 81.3°F27.4°C 75.7°F24.3°C 83% 2.9 mph E4.7 kmh E 6.0 mph9.7 kmh 30.11 in1019.6 mb 0.00 in0.0 mm 0.00 in0.0 mm 0.00 in0.0 mm
02:05 AM 81.3°F27.4°C 75.7°F24.3°C 83% 2.9 mph ENE4.7 kmh ENE 8.1 mph13.0 kmh 30.11 in1019.6 mb 0.00 in0.0 mm 0.00 in0.0 mm 0.00 in0.0 mm
02:06 AM 81.3°F27.4°C 75.4°F24.1°C 82% 4.0 mph E6.4 kmh E 8.1 mph13.0 kmh 30.11 in1019.6 mb 0.00 in0.0 mm 0.00 in0.0 mm 0.00 in0.0 mm
02:07 AM 81.3°F27.4°C 75.4°F24.1°C 82% 4.0 mph ESE6.4 kmh ESE 6.9 mph11.1 kmh 30.11 in1019.6 mb 0.00 in0.0 mm 0.00 in0.0 mm 0.00 in0.0 mm
02:08 AM 81.3°F27.4°C 75.4°F24.1°C 82% 4.0 mph ENE6.4 kmh ENE 8.1 mph13.0 kmh 30.11 in1019.6 mb 0.00 in0.0 mm 0.00 in0.0 mm 0.00 in0.0 mm
02:09 AM 81.3°F27.4°C 75.4°F24.1°C 82% 4.0 mph E6.4 kmh E 8.1 mph13.0 kmh 30.11 in1019.6 mb 0.00 in0.0 mm 0.00 in0.0 mm 0.00 in0.0 mm
02:10 AM 81.3°F27.4°C 75.4°F24.1°C 82% 4.0 mph ENE6.4 kmh ENE 8.9 mph14.3 kmh 30.11 in1019.6 mb 0.00 in0.0 mm 0.00 in0.0 mm 0.00 in0.0 mm
02:11 AM 81.3°F27.4°C 75.4°F24.1°C 82% 4.9 mph E7.9 kmh E 10.1 mph16.3 kmh 30.11 in1019.6 mb 0.00 in0.0 mm 0.00 in0.0 mm 0.00 in0.0 mm
02:12 AM 81.3°F27.4°C 75.4°F24.1°C 82% 4.9 mph E7.9 kmh E 12.0 mph19.3 kmh 30.11 in1019.6 mb 0.00 in0.0 mm 0.00 in0.0 mm 0.00 in0.0 mm
02:13 AM 81.3°F27.4°C 75.4°F24.1°C 82% 4.9 mph ENE7.9 kmh ENE 12.0 mph19.3 kmh 30.11 in1019.6 mb 0.00 in0.0 mm 0.00 in0.0 mm 0.00 in0.0 mm
02:14 AM 81.3°F27.4°C 75.4°F24.1°C 82% 4.9 mph ENE7.9 kmh ENE 6.9 mph11.1 kmh 30.11 in1019.6 mb 0.00 in0.0 mm 0.00 in0.0 mm 0.00 in0.0 mm
02:15 AM 81.5°F27.5°C 75.4°F24.1°C 82% 4.9 mph E7.9 kmh E 6.9 mph11.1 kmh 30.11 in1019.6 mb 0.00 in0.0 mm 0.00 in0.0 mm 0.00 in0.0 mm
02:16 AM 81.5°F27.5°C 75.4°F24.1°C 82% 4.9 mph E7.9 kmh E 4.0 mph6.4 kmh 30.11 in1019.6 mb 0.00 in0.0 mm 0.00 in0.0 mm 0.00 in0.0 mm
02:17 AM 81.3°F27.4°C 75.4°F24.1°C 82% 4.9 mph ENE7.9 kmh ENE 8.1 mph13.0 kmh 30.11 in1019.6 mb 0.00 in0.0 mm 0.00 in0.0 mm 0.00 in0.0 mm
02:18 AM 81.3°F27.4°C 75.4°F24.1°C 82% 4.0 mph E6.4 kmh E 6.0 mph9.7 kmh 30.10 in1019.3 mb 0.00 in0.0 mm 0.00 in0.0 mm 0.00 in0.0 mm
02:19 AM 81.3°F27.4°C 75.4°F24.1°C 82% 4.0 mph E6.4 kmh E 6.9 mph11.1 kmh 30.10 in1019.3 mb 0.00 in0.0 mm 0.00 in0.0 mm 0.00 in0.0 mm
02:20 AM 81.3°F27.4°C 75.4°F24.1°C 82% 4.0 mph E6.4 kmh E 8.1 mph13.0 kmh 30.10 in1019.3 mb 0.00 in0.0 mm 0.00 in0.0 mm 0.00 in0.0 mm
02:21 AM 81.3°F27.4°C 75.4°F24.1°C 82% 4.0 mph ENE6.4 kmh ENE 8.1 mph13.0 kmh 30.10 in1019.3 mb 0.00 in0.0 mm 0.00 in0.0 mm 0.00 in0.0 mm
02:22 AM 81.3°F27.4°C 75.4°F24.1°C 82% 4.0 mph ESE6.4 kmh ESE 6.9 mph11.1 kmh 30.10 in1019.3 mb 0.00 in0.0 mm 0.00 in0.0 mm 0.00 in0.0 mm
02:23 AM 81.5°F27.5°C 75.4°F24.1°C 82% 4.0 mph E6.4 kmh E 6.0 mph9.7 kmh 30.10 in1019.3 mb 0.00 in0.0 mm 0.00 in0.0 mm 0.00 in0.0 mm
02:24 AM 81.5°F27.5°C 75.4°F24.1°C 82% 4.0 mph ESE6.4 kmh ESE 8.1 mph13.0 kmh 30.10 in1019.3 mb 0.00 in0.0 mm 0.00 in0.0 mm 0.00 in0.0 mm
02:25 AM 81.3°F27.4°C 75.4°F24.1°C 82% 4.0 mph ESE6.4 kmh ESE 10.1 mph16.3 kmh 30.10 in1019.3 mb 0.00 in0.0 mm 0.00 in0.0 mm 0.00 in0.0 mm
02:26 AM 81.5°F27.5°C 75.4°F24.1°C 82% 4.9 mph E7.9 kmh E 11.0 mph17.7 kmh 30.10 in1019.3 mb 0.00 in0.0 mm 0.00 in0.0 mm 0.00 in0.0 mm
02:27 AM 81.5°F27.5°C 75.4°F24.1°C 82% 4.9 mph ESE7.9 kmh ESE 11.0 mph17.7 kmh 30.10 in1019.3 mb 0.00 in0.0 mm 0.00 in0.0 mm 0.00 in0.0 mm
02:28 AM 81.5°F27.5°C 75.4°F24.1°C 82% 4.9 mph ESE7.9 kmh ESE 6.0 mph9.7 kmh 30.10 in1019.3 mb 0.00 in0.0 mm 0.00 in0.0 mm 0.00 in0.0 mm
02:29 AM 81.5°F27.5°C 75.4°F24.1°C 82% 4.9 mph E7.9 kmh E 4.0 mph6.4 kmh 30.10 in1019.3 mb 0.00 in0.0 mm 0.00 in0.0 mm 0.00 in0.0 mm
02:30 AM 81.5°F27.5°C 75.4°F24.1°C 82% 4.9 mph E7.9 kmh E 6.0 mph9.7 kmh 30.10 in1019.3 mb 0.00 in0.0 mm 0.00 in0.0 mm 0.00 in0.0 mm
02:31 AM 81.5°F27.5°C 75.4°F24.1°C 82% 4.9 mph E7.9 kmh E 10.1 mph16.3 kmh 30.10 in1019.3 mb 0.00 in0.0 mm 0.00 in0.0 mm 0.00 in0.0 mm
02:32 AM 81.5°F27.5°C 75.4°F24.1°C 82% 4.9 mph E7.9 kmh E 10.1 mph16.3 kmh 30.10 in1019.3 mb 0.00 in0.0 mm 0.00 in0.0 mm 0.00 in0.0 mm
02:33 AM 81.5°F27.5°C 75.4°F24.1°C 82% 4.9 mph E7.9 kmh E 8.1 mph13.0 kmh 30.10 in1019.3 mb 0.00 in0.0 mm 0.00 in0.0 mm 0.00 in0.0 mm
02:34 AM 81.5°F27.5°C 75.4°F24.1°C 82% 4.9 mph E7.9 kmh E 6.9 mph11.1 kmh 30.10 in1019.3 mb 0.00 in0.0 mm 0.00 in0.0 mm 0.00 in0.0 mm
02:35 AM 81.5°F27.5°C 75.4°F24.1°C 82% 4.9 mph ENE7.9 kmh ENE 8.1 mph13.0 kmh 30.10 in1019.3 mb 0.00 in0.0 mm 0.00 in0.0 mm 0.00 in0.0 mm
02:36 AM 81.5°F27.5°C 75.4°F24.1°C 82% 4.0 mph SE6.4 kmh SE 11.0 mph17.7 kmh 30.10 in1019.3 mb 0.00 in0.0 mm 0.00 in0.0 mm 0.00 in0.0 mm
02:37 AM 81.3°F27.4°C 75.4°F24.1°C 82% 4.0 mph NE6.4 kmh NE 11.0 mph17.7 kmh 30.10 in1019.3 mb 0.00 in0.0 mm 0.00 in0.0 mm 0.00 in0.0 mm
02:38 AM 81.3°F27.4°C 75.4°F24.1°C 82% 4.0 mph E6.4 kmh E 10.1 mph16.3 kmh 30.10 in1019.3 mb 0.00 in0.0 mm 0.00 in0.0 mm 0.00 in0.0 mm
02:39 AM 81.3°F27.4°C 75.4°F24.1°C 82% 4.0 mph E6.4 kmh E 8.1 mph13.0 kmh 30.09 in1019.0 mb 0.00 in0.0 mm 0.00 in0.0 mm 0.00 in0.0 mm
02:40 AM 81.3°F27.4°C 75.4°F24.1°C 82% 4.0 mph NE6.4 kmh NE 11.0 mph17.7 kmh 30.09 in1019.0 mb 0.00 in0.0 mm 0.00 in0.0 mm 0.00 in0.0 mm
02:41 AM 81.3°F27.4°C 75.4°F24.1°C 82% 4.9 mph E7.9 kmh E 12.1 mph19.5 kmh 30.09 in1019.0 mb 0.00 in0.0 mm 0.00 in0.0 mm 0.00 in0.0 mm
02:42 AM 81.3°F27.4°C 75.4°F24.1°C 82% 4.9 mph NE7.9 kmh NE 12.1 mph19.5 kmh 30.09 in1019.0 mb 0.00 in0.0 mm 0.00 in0.0 mm 0.00 in0.0 mm
02:43 AM 81.5°F27.5°C 75.4°F24.1°C 82% 4.9 mph E7.9 kmh E 10.1 mph16.3 kmh 30.09 in1019.0 mb 0.00 in0.0 mm 0.00 in0.0 mm 0.00 in0.0 mm
02:44 AM 81.5°F27.5°C 75.4°F24.1°C 82% 4.0 mph ESE6.4 kmh ESE 8.9 mph14.3 kmh 30.09 in1019.0 mb 0.00 in0.0 mm 0.00 in0.0 mm 0.00 in0.0 mm
02:45 AM 81.5°F27.5°C 75.4°F24.1°C 82% 4.9 mph NE7.9 kmh NE 10.1 mph16.3 kmh 30.09 in1019.0 mb 0.00 in0.0 mm 0.00 in0.0 mm 0.00 in0.0 mm
02:46 AM 81.5°F27.5°C 75.4°F24.1°C 82% 4.9 mph ENE7.9 kmh ENE 8.1 mph13.0 kmh 30.10 in1019.3 mb 0.00 in0.0 mm 0.00 in0.0 mm 0.00 in0.0 mm
02:47 AM 81.5°F27.5°C 75.4°F24.1°C 82% 4.9 mph ENE7.9 kmh ENE 6.9 mph11.1 kmh 30.09 in1019.0 mb 0.00 in0.0 mm 0.00 in0.0 mm 0.00 in0.0 mm
02:48 AM 81.5°F27.5°C 75.4°F24.1°C 82% 4.9 mph E7.9 kmh E 8.1 mph13.0 kmh 30.09 in1019.0 mb 0.00 in0.0 mm 0.00 in0.0 mm 0.00 in0.0 mm
02:49 AM 81.5°F27.5°C 75.4°F24.1°C 82% 4.9 mph E7.9 kmh E 11.0 mph17.7 kmh 30.10 in1019.3 mb 0.00 in0.0 mm 0.00 in0.0 mm 0.00 in0.0 mm
02:50 AM 81.5°F27.5°C 75.4°F24.1°C 82% 4.9 mph ENE7.9 kmh ENE 11.0 mph17.7 kmh 30.09 in1019.0 mb 0.00 in0.0 mm 0.00 in0.0 mm 0.00 in0.0 mm
02:51 AM 81.5°F27.5°C 75.4°F24.1°C 82% 4.9 mph ESE7.9 kmh ESE 6.9 mph11.1 kmh 30.09 in1019.0 mb 0.00 in0.0 mm 0.00 in0.0 mm 0.00 in0.0 mm
02:52 AM 81.7°F27.6°C 75.6°F24.2°C 82% 4.9 mph E7.9 kmh E 6.9 mph11.1 kmh 30.10 in1019.3 mb 0.00 in0.0 mm 0.00 in0.0 mm 0.00 in0.0 mm
02:53 AM 81.7°F27.6°C 75.2°F24.0°C 81% 4.9 mph NE7.9 kmh NE 11.0 mph17.7 kmh 30.09 in1019.0 mb 0.00 in0.0 mm 0.00 in0.0 mm 0.00 in0.0 mm
02:54 AM 81.7°F27.6°C 75.2°F24.0°C 81% 4.9 mph SSE7.9 kmh SSE 8.9 mph14.3 kmh 30.09 in1019.0 mb 0.00 in0.0 mm 0.00 in0.0 mm 0.00 in0.0 mm
02:55 AM 81.7°F27.6°C 75.2°F24.0°C 81% 4.9 mph E7.9 kmh E 4.0 mph6.4 kmh 30.09 in1019.0 mb 0.00 in0.0 mm 0.00 in0.0 mm 0.00 in0.0 mm
02:56 AM 81.7°F27.6°C 75.2°F24.0°C 81% 4.0 mph E6.4 kmh E 8.1 mph13.0 kmh 30.10 in1019.3 mb 0.00 in0.0 mm 0.00 in0.0 mm 0.00 in0.0 mm
02:57 AM 81.7°F27.6°C 75.2°F24.0°C 81% 4.9 mph ENE7.9 kmh ENE 8.9 mph14.3 kmh 30.09 in1019.0 mb 0.00 in0.0 mm 0.00 in0.0 mm 0.00 in0.0 mm
02:58 AM 81.7°F27.6°C 75.2°F24.0°C 81% 4.9 mph E7.9 kmh E 8.9 mph14.3 kmh 30.09 in1019.0 mb 0.00 in0.0 mm 0.00 in0.0 mm 0.00 in0.0 mm
02:59 AM 81.7°F27.6°C 75.2°F24.0°C 81% 4.9 mph NE7.9 kmh NE 10.1 mph16.3 kmh 30.10 in1019.3 mb 0.00 in0.0 mm 0.00 in0.0 mm 0.00 in0.0 mm
03:00 AM 81.7°F27.6°C 75.2°F24.0°C 81% 4.9 mph E7.9 kmh E 6.9 mph11.1 kmh 30.09 in1019.0 mb 0.00 in0.0 mm 0.00 in0.0 mm 0.00 in0.0 mm
03:01 AM 81.7°F27.6°C 75.2°F24.0°C 81% 4.9 mph E7.9 kmh E 8.1 mph13.0 kmh 30.09 in1019.0 mb 0.00 in0.0 mm 0.00 in0.0 mm 0.00 in0.0 mm
03:02 AM 81.7°F27.6°C 75.2°F24.0°C 81% 4.9 mph E7.9 kmh E 8.1 mph13.0 kmh 30.09 in1019.0 mb 0.00 in0.0 mm 0.00 in0.0 mm 0.00 in0.0 mm
03:03 AM 81.5°F27.5°C 75.0°F23.9°C 81% 4.0 mph E6.4 kmh E 11.0 mph17.7 kmh 30.10 in1019.3 mb 0.00 in0.0 mm 0.00 in0.0 mm 0.00 in0.0 mm
03:04 AM 81.5°F27.5°C 75.0°F23.9°C 81% 4.9 mph E7.9 kmh E 11.0 mph17.7 kmh 30.09 in1019.0 mb 0.00 in0.0 mm 0.00 in0.0 mm 0.00 in0.0 mm
03:05 AM 81.5°F27.5°C 75.0°F23.9°C 81% 4.9 mph E7.9 kmh E 10.1 mph16.3 kmh 30.09 in1019.0 mb 0.00 in0.0 mm 0.00 in0.0 mm 0.00 in0.0 mm
03:06 AM 81.3°F27.4°C 74.8°F23.8°C 81% 4.9 mph E7.9 kmh E 6.9 mph11.1 kmh 30.09 in1019.0 mb 0.00 in0.0 mm 0.00 in0.0 mm 0.00 in0.0 mm
03:07 AM 81.5°F27.5°C 75.0°F23.9°C 81% 4.9 mph E7.9 kmh E 11.0 mph17.7 kmh 30.09 in1019.0 mb 0.00 in0.0 mm 0.00 in0.0 mm 0.00 in0.0 mm
03:08 AM 81.3°F27.4°C 74.8°F23.8°C 81% 4.9 mph ENE7.9 kmh ENE 11.0 mph17.7 kmh 30.09 in1019.0 mb 0.00 in0.0 mm 0.00 in0.0 mm 0.00 in0.0 mm
03:09 AM 81.3°F27.4°C 74.8°F23.8°C 81% 4.0 mph E6.4 kmh E 8.1 mph13.0 kmh 30.09 in1019.0 mb 0.00 in0.0 mm 0.00 in0.0 mm 0.00 in0.0 mm
03:10 AM 81.3°F27.4°C 74.8°F23.8°C 81% 4.9 mph E7.9 kmh E 8.9 mph14.3 kmh 30.09 in1019.0 mb 0.00 in0.0 mm 0.00 in0.0 mm 0.00 in0.0 mm
03:11 AM 81.3°F27.4°C 74.8°F23.8°C 81% 4.9 mph ENE7.9 kmh ENE 10.1 mph16.3 kmh 30.09 in1019.0 mb 0.00 in0.0 mm 0.00 in0.0 mm 0.00 in0.0 mm
03:12 AM 81.3°F27.4°C 74.8°F23.8°C 81% 4.9 mph ESE7.9 kmh ESE 11.0 mph17.7 kmh 30.09 in1019.0 mb 0.00 in0.0 mm 0.00 in0.0 mm 0.00 in0.0 mm
03:13 AM 81.3°F27.4°C 74.8°F23.8°C 81% 4.9 mph E7.9 kmh E 8.9 mph14.3 kmh 30.09 in1019.0 mb 0.00 in0.0 mm 0.00 in0.0 mm 0.00 in0.0 mm
03:14 AM 81.3°F27.4°C 74.8°F23.8°C 81% 4.9 mph ENE7.9 kmh ENE 6.0 mph9.7 kmh 30.09 in1019.0 mb 0.00 in0.0 mm 0.00 in0.0 mm 0.00 in0.0 mm
03:15 AM 81.3°F27.4°C 74.8°F23.8°C 81% 4.9 mph E7.9 kmh E 8.9 mph14.3 kmh 30.09 in1019.0 mb 0.00 in0.0 mm 0.00 in0.0 mm 0.00 in0.0 mm
03:16 AM 81.3°F27.4°C 74.8°F23.8°C 81% 4.9 mph E7.9 kmh E 8.9 mph14.3 kmh 30.09 in1019.0 mb 0.00 in0.0 mm 0.00 in0.0 mm 0.00 in0.0 mm
03:17 AM 81.3°F27.4°C 74.8°F23.8°C 81% 4.9 mph E7.9 kmh E 6.0 mph9.7 kmh 30.09 in1019.0 mb 0.00 in0.0 mm 0.00 in0.0 mm 0.00 in0.0 mm
03:18 AM 81.3°F27.4°C 74.8°F23.8°C 81% 4.9 mph NE7.9 kmh NE 6.9 mph11.1 kmh 30.09 in1019.0 mb 0.00 in0.0 mm 0.00 in0.0 mm 0.00 in0.0 mm
03:19 AM 81.3°F27.4°C 74.8°F23.8°C 81% 4.9 mph ESE7.9 kmh ESE 6.0 mph9.7 kmh 30.09 in1019.0 mb 0.00 in0.0 mm 0.00 in0.0 mm 0.00 in0.0 mm
03:20 AM 81.3°F27.4°C 74.8°F23.8°C 81% 4.9 mph E7.9 kmh E 6.9 mph11.1 kmh 30.09 in1019.0 mb 0.00 in0.0 mm 0.00 in0.0 mm 0.00 in0.0 mm
03:21 AM 81.3°F27.4°C 74.8°F23.8°C 81% 4.0 mph E6.4 kmh E 6.9 mph11.1 kmh 30.09 in1019.0 mb 0.00 in0.0 mm 0.00 in0.0 mm 0.00 in0.0 mm
03:22 AM 81.3°F27.4°C 74.8°F23.8°C 81% 4.0 mph ENE6.4 kmh ENE 11.0 mph17.7 kmh 30.09 in1019.0 mb 0.00 in0.0 mm 0.00 in0.0 mm 0.00 in0.0 mm
03:23 AM 81.3°F27.4°C 74.8°F23.8°C 81% 4.0 mph ENE6.4 kmh ENE 11.0 mph17.7 kmh 30.09 in1019.0 mb 0.00 in0.0 mm 0.00 in0.0 mm 0.00 in0.0 mm
03:24 AM 81.3°F27.4°C 74.8°F23.8°C 81% 4.0 mph E6.4 kmh E 6.0 mph9.7 kmh 30.09 in1019.0 mb 0.00 in0.0 mm 0.00 in0.0 mm 0.00 in0.0 mm
03:25 AM 81.3°F27.4°C 74.8°F23.8°C 81% 4.0 mph E6.4 kmh E 4.9 mph7.9 kmh 30.09 in1019.0 mb 0.00 in0.0 mm 0.00 in0.0 mm 0.00 in0.0 mm
03:26 AM 81.3°F27.4°C 74.8°F23.8°C 81% 4.0 mph E6.4 kmh E 6.9 mph11.1 kmh 30.09 in1019.0 mb 0.00 in0.0 mm 0.00 in0.0 mm 0.00 in0.0 mm
03:27 AM 81.1°F27.3°C 74.7°F23.7°C 81% 4.0 mph E6.4 kmh E 6.0 mph9.7 kmh 30.09 in1019.0 mb 0.00 in0.0 mm 0.00 in0.0 mm 0.00 in0.0 mm
03:28 AM 81.3°F27.4°C 74.8°F23.8°C 81% 4.0 mph E6.4 kmh E 8.1 mph13.0 kmh 30.09 in1019.0 mb 0.00 in0.0 mm 0.00 in0.0 mm 0.00 in0.0 mm
03:29 AM 81.1°F27.3°C 74.7°F23.7°C 81% 4.0 mph E6.4 kmh E 8.1 mph13.0 kmh 30.09 in1019.0 mb 0.00 in0.0 mm 0.00 in0.0 mm 0.00 in0.0 mm
03:30 AM 81.1°F27.3°C 74.7°F23.7°C 81% 4.0 mph ESE6.4 kmh ESE 8.1 mph13.0 kmh 30.09 in1019.0 mb 0.00 in0.0 mm 0.00 in0.0 mm 0.00 in0.0 mm
03:31 AM 81.1°F27.3°C 74.7°F23.7°C 81% 4.0 mph ESE6.4 kmh ESE 6.9 mph11.1 kmh 30.09 in1019.0 mb 0.00 in0.0 mm 0.00 in0.0 mm 0.00 in0.0 mm
03:32 AM 81.1°F27.3°C 75.2°F24.0°C 82% 4.0 mph E6.4 kmh E 9.0 mph14.5 kmh 30.09 in1019.0 mb 0.00 in0.0 mm 0.00 in0.0 mm 0.00 in0.0 mm
03:33 AM 81.1°F27.3°C 75.2°F24.0°C 82% 4.0 mph E6.4 kmh E 9.0 mph14.5 kmh 30.09 in1019.0 mb 0.00 in0.0 mm 0.00 in0.0 mm 0.00 in0.0 mm
03:34 AM 81.1°F27.3°C 74.7°F23.7°C 81% 4.0 mph ESE6.4 kmh ESE 8.1 mph13.0 kmh 30.09 in1019.0 mb 0.00 in0.0 mm 0.00 in0.0 mm 0.00 in0.0 mm
03:35 AM 81.1°F27.3°C 74.7°F23.7°C 81% 4.0 mph E6.4 kmh E 6.9 mph11.1 kmh 30.09 in1019.0 mb 0.00 in0.0 mm 0.00 in0.0 mm 0.00 in0.0 mm
03:36 AM 81.1°F27.3°C 74.7°F23.7°C 81% 4.0 mph E6.4 kmh E 2.9 mph4.7 kmh 30.09 in1019.0 mb 0.00 in0.0 mm 0.00 in0.0 mm 0.00 in0.0 mm
03:37 AM 81.1°F27.3°C 75.2°F24.0°C 82% 4.0 mph E6.4 kmh E 6.0 mph9.7 kmh 30.09 in1019.0 mb 0.00 in0.0 mm 0.00 in0.0 mm 0.00 in0.0 mm
03:38 AM 81.1°F27.3°C 75.2°F24.0°C 82% 4.0 mph E6.4 kmh E 8.1 mph13.0 kmh 30.09 in1019.0 mb 0.00 in0.0 mm 0.00 in0.0 mm 0.00 in0.0 mm
03:39 AM 81.1°F27.3°C 75.2°F24.0°C 82% 4.0 mph ENE6.4 kmh ENE 8.9 mph14.3 kmh 30.09 in1019.0 mb 0.00 in0.0 mm 0.00 in0.0 mm 0.00 in0.0 mm
03:40 AM 81.1°F27.3°C 75.2°F24.0°C 82% 4.0 mph E6.4 kmh E 6.0 mph9.7 kmh 30.09 in1019.0 mb 0.00 in0.0 mm 0.00 in0.0 mm 0.00 in0.0 mm
03:41 AM 81.1°F27.3°C 75.2°F24.0°C 82% 4.0 mph E6.4 kmh E 4.0 mph6.4 kmh 30.09 in1019.0 mb 0.00 in0.0 mm 0.00 in0.0 mm 0.00 in0.0 mm
03:42 AM 81.1°F27.3°C 75.2°F24.0°C 82% 4.0 mph ENE6.4 kmh ENE 8.9 mph14.3 kmh 30.09 in1019.0 mb 0.00 in0.0 mm 0.00 in0.0 mm 0.00 in0.0 mm
03:43 AM 81.1°F27.3°C 75.2°F24.0°C 82% 4.0 mph ENE6.4 kmh ENE 8.9 mph14.3 kmh 30.09 in1019.0 mb 0.00 in0.0 mm 0.00 in0.0 mm 0.00 in0.0 mm
03:44 AM 81.1°F27.3°C 75.2°F24.0°C 82% 4.0 mph E6.4 kmh E 6.9 mph11.1 kmh 30.09 in1019.0 mb 0.00 in0.0 mm 0.00 in0.0 mm 0.00 in0.0 mm
03:45 AM 81.1°F27.3°C 75.2°F24.0°C 82% 2.9 mph E4.7 kmh E 4.0 mph6.4 kmh 30.09 in1019.0 mb 0.00 in0.0 mm 0.00 in0.0 mm 0.00 in0.0 mm
03:46 AM 81.1°F27.3°C 75.2°F24.0°C 82% 2.9 mph E4.7 kmh E 8.1 mph13.0 kmh 30.09 in1019.0 mb 0.00 in0.0 mm 0.00 in0.0 mm 0.00 in0.0 mm
03:47 AM 81.1°F27.3°C 75.2°F24.0°C 82% 4.0 mph E6.4 kmh E 8.9 mph14.3 kmh 30.09 in1019.0 mb 0.00 in0.0 mm 0.00 in0.0 mm 0.00 in0.0 mm
03:48 AM 81.1°F27.3°C 75.2°F24.0°C 82% 4.0 mph E6.4 kmh E 11.0 mph17.7 kmh 30.09 in1019.0 mb 0.00 in0.0 mm 0.00 in0.0 mm 0.00 in0.0 mm
03:49 AM 81.0°F27.2°C 75.0°F23.9°C 82% 4.0 mph ENE6.4 kmh ENE 6.9 mph11.1 kmh 30.09 in1019.0 mb 0.00 in0.0 mm 0.00 in0.0 mm 0.00 in0.0 mm
03:50 AM 81.1°F27.3°C 75.2°F24.0°C 82% 4.0 mph ESE6.4 kmh ESE 6.9 mph11.1 kmh 30.09 in1019.0 mb 0.00 in0.0 mm 0.00 in0.0 mm 0.00 in0.0 mm
03:51 AM 81.1°F27.3°C 75.2°F24.0°C 82% 4.0 mph ENE6.4 kmh ENE 6.9 mph11.1 kmh 30.09 in1019.0 mb 0.00 in0.0 mm 0.00 in0.0 mm 0.00 in0.0 mm
03:52 AM 81.1°F27.3°C 75.2°F24.0°C 82% 4.0 mph E6.4 kmh E 10.1 mph16.3 kmh 30.09 in1019.0 mb 0.00 in0.0 mm 0.00 in0.0 mm 0.00 in0.0 mm
03:53 AM 81.1°F27.3°C 75.2°F24.0°C 82% 4.0 mph E6.4 kmh E 8.1 mph13.0 kmh 30.09 in1019.0 mb 0.00 in0.0 mm 0.00 in0.0 mm 0.00 in0.0 mm
03:54 AM 81.1°F27.3°C 75.2°F24.0°C 82% 4.0 mph E6.4 kmh E 6.9 mph11.1 kmh 30.09 in1019.0 mb 0.00 in0.0 mm 0.00 in0.0 mm 0.00 in0.0 mm
03:55 AM 81.1°F27.3°C 75.2°F24.0°C 82% 4.0 mph ENE6.4 kmh ENE 6.9 mph11.1 kmh 30.09 in1019.0 mb 0.00 in0.0 mm 0.00 in0.0 mm 0.00 in0.0 mm
03:56 AM 81.1°F27.3°C 75.2°F24.0°C 82% 4.0 mph ENE6.4 kmh ENE 4.9 mph7.9 kmh 30.09 in1019.0 mb 0.00 in0.0 mm 0.00 in0.0 mm 0.00 in0.0 mm
03:57 AM 81.1°F27.3°C 75.2°F24.0°C 82% 4.0 mph NE6.4 kmh NE 11.0 mph17.7 kmh 30.09 in1019.0 mb 0.00 in0.0 mm 0.00 in0.0 mm 0.00 in0.0 mm
03:58 AM 81.1°F27.3°C 75.2°F24.0°C 82% 4.0 mph E6.4 kmh E 11.0 mph17.7 kmh 30.09 in1019.0 mb 0.00 in0.0 mm 0.00 in0.0 mm 0.00 in0.0 mm
03:59 AM 81.1°F27.3°C 75.2°F24.0°C 82% 4.0 mph E6.4 kmh E 4.9 mph7.9 kmh 30.09 in1019.0 mb 0.00 in0.0 mm 0.00 in0.0 mm 0.00 in0.0 mm
04:00 AM 81.1°F27.3°C 75.2°F24.0°C 82% 4.0 mph E6.4 kmh E 6.9 mph11.1 kmh 30.09 in1019.0 mb 0.00 in0.0 mm 0.00 in0.0 mm 0.00 in0.0 mm
04:01 AM 81.1°F27.3°C 75.2°F24.0°C 82% 2.9 mph E4.7 kmh E 4.9 mph7.9 kmh 30.09 in1019.0 mb 0.00 in0.0 mm 0.00 in0.0 mm 0.00 in0.0 mm
04:02 AM 81.1°F27.3°C 75.2°F24.0°C 82% 2.9 mph ENE4.7 kmh ENE 6.9 mph11.1 kmh 30.09 in1019.0 mb 0.00 in0.0 mm 0.00 in0.0 mm 0.00 in0.0 mm
04:03 AM 81.1°F27.3°C 75.2°F24.0°C 82% 2.9 mph ENE4.7 kmh ENE 6.9 mph11.1 kmh 30.09 in1019.0 mb 0.00 in0.0 mm 0.00 in0.0 mm 0.00 in0.0 mm
04:04 AM 81.1°F27.3°C 75.2°F24.0°C 82% 2.9 mph E4.7 kmh E 4.9 mph7.9 kmh 30.09 in1019.0 mb 0.00 in0.0 mm 0.00 in0.0 mm 0.00 in0.0 mm
04:05 AM 81.1°F27.3°C 75.2°F24.0°C 82% 2.9 mph ESE4.7 kmh ESE 6.9 mph11.1 kmh 30.09 in1019.0 mb 0.00 in0.0 mm 0.00 in0.0 mm 0.00 in0.0 mm
04:06 AM 81.1°F27.3°C 75.2°F24.0°C 82% 2.9 mph E4.7 kmh E 6.0 mph9.7 kmh 30.09 in1019.0 mb 0.00 in0.0 mm 0.00 in0.0 mm 0.00 in0.0 mm
04:07 AM 81.1°F27.3°C 75.2°F24.0°C 82% 2.9 mph E4.7 kmh E 4.0 mph6.4 kmh 30.09 in1019.0 mb 0.00 in0.0 mm 0.00 in0.0 mm 0.00 in0.0 mm
04:08 AM 81.1°F27.3°C 75.2°F24.0°C 82% 2.9 mph E4.7 kmh E 4.0 mph6.4 kmh 30.09 in1019.0 mb 0.00 in0.0 mm 0.00 in0.0 mm 0.00 in0.0 mm
04:09 AM 81.1°F27.3°C 75.2°F24.0°C 82% 2.9 mph ESE4.7 kmh ESE 6.9 mph11.1 kmh 30.09 in1019.0 mb 0.00 in0.0 mm 0.00 in0.0 mm 0.00 in0.0 mm
04:10 AM 81.1°F27.3°C 75.2°F24.0°C 82% 2.9 mph E4.7 kmh E 6.0 mph9.7 kmh 30.09 in1019.0 mb 0.00 in0.0 mm 0.00 in0.0 mm 0.00 in0.0 mm
04:11 AM 81.1°F27.3°C 75.2°F24.0°C 82% 2.9 mph ENE4.7 kmh ENE 6.9 mph11.1 kmh 30.09 in1019.0 mb 0.00 in0.0 mm 0.00 in0.0 mm 0.00 in0.0 mm
04:12 AM 81.1°F27.3°C 75.2°F24.0°C 82% 2.9 mph E4.7 kmh E 6.0 mph9.7 kmh 30.09 in1019.0 mb 0.00 in0.0 mm 0.00 in0.0 mm 0.00 in0.0 mm
04:13 AM 81.1°F27.3°C 75.2°F24.0°C 82% 2.9 mph ENE4.7 kmh ENE 6.9 mph11.1 kmh 30.09 in1019.0 mb 0.00 in0.0 mm 0.00 in0.0 mm 0.00 in0.0 mm
04:14 AM 81.1°F27.3°C 75.2°F24.0°C 82% 2.9 mph E4.7 kmh E 6.9 mph11.1 kmh 30.09 in1019.0 mb 0.00 in0.0 mm 0.00 in0.0 mm 0.00 in0.0 mm
04:15 AM 81.1°F27.3°C 75.2°F24.0°C 82% 2.9 mph E4.7 kmh E 4.9 mph7.9 kmh 30.09 in1019.0 mb 0.00 in0.0 mm 0.00 in0.0 mm 0.00 in0.0 mm
04:16 AM 81.1°F27.3°C 75.2°F24.0°C 82% 2.9 mph ESE4.7 kmh ESE 4.0 mph6.4 kmh 30.09 in1019.0 mb 0.00 in0.0 mm 0.00 in0.0 mm 0.00 in0.0 mm
04:17 AM 81.1°F27.3°C 75.2°F24.0°C 82% 2.9 mph E4.7 kmh E 8.1 mph13.0 kmh 30.09 in1019.0 mb 0.00 in0.0 mm 0.00 in0.0 mm 0.00 in0.0 mm
04:18 AM 81.1°F27.3°C 75.2°F24.0°C 82% 2.9 mph ENE4.7 kmh ENE 4.0 mph6.4 kmh 30.09 in1019.0 mb 0.00 in0.0 mm 0.00 in0.0 mm 0.00 in0.0 mm
04:19 AM 81.1°F27.3°C 75.2°F24.0°C 82% 2.9 mph NE4.7 kmh NE 4.9 mph7.9 kmh 30.09 in1019.0 mb 0.00 in0.0 mm 0.00 in0.0 mm 0.00 in0.0 mm
04:20 AM 81.1°F27.3°C 75.2°F24.0°C 82% 2.9 mph ENE4.7 kmh ENE 9.0 mph14.5 kmh 30.09 in1019.0 mb 0.00 in0.0 mm 0.00 in0.0 mm 0.00 in0.0 mm
04:21 AM 81.1°F27.3°C 75.2°F24.0°C 82% 2.9 mph E4.7 kmh E 9.0 mph14.5 kmh 30.09 in1019.0 mb 0.00 in0.0 mm 0.00 in0.0 mm 0.00 in0.0 mm
04:22 AM 81.1°F27.3°C 75.2°F24.0°C 82% 2.9 mph ENE4.7 kmh ENE 8.1 mph13.0 kmh 30.09 in1019.0 mb 0.00 in0.0 mm 0.00 in0.0 mm 0.00 in0.0 mm
04:23 AM 81.1°F27.3°C 75.2°F24.0°C 82% 2.9 mph ENE4.7 kmh ENE 4.0 mph6.4 kmh 30.09 in1019.0 mb 0.00 in0.0 mm 0.00 in0.0 mm 0.00 in0.0 mm
04:24 AM 81.1°F27.3°C 75.2°F24.0°C 82% 2.9 mph ENE4.7 kmh ENE 6.9 mph11.1 kmh 30.09 in1019.0 mb 0.00 in0.0 mm 0.00 in0.0 mm 0.00 in0.0 mm
04:25 AM 81.1°F27.3°C 75.6°F24.2°C 83% 2.9 mph NE4.7 kmh NE 6.0 mph9.7 kmh 30.09 in1019.0 mb 0.00 in0.0 mm 0.00 in0.0 mm 0.00 in0.0 mm
04:26 AM 81.1°F27.3°C 75.6°F24.2°C 83% 2.9 mph E4.7 kmh E 6.0 mph9.7 kmh 30.09 in1019.0 mb 0.00 in0.0 mm 0.00 in0.0 mm 0.00 in0.0 mm
04:27 AM 81.1°F27.3°C 75.6°F24.2°C 83% 2.9 mph E4.7 kmh E 4.9 mph7.9 kmh 30.09 in1019.0 mb 0.00 in0.0 mm 0.00 in0.0 mm 0.00 in0.0 mm
04:28 AM 81.1°F27.3°C 75.6°F24.2°C 83% 2.9 mph E4.7 kmh E 8.9 mph14.3 kmh 30.09 in1019.0 mb 0.00 in0.0 mm 0.00 in0.0 mm 0.00 in0.0 mm
04:29 AM 81.1°F27.3°C 75.6°F24.2°C 83% 4.0 mph NE6.4 kmh NE 8.9 mph14.3 kmh 30.09 in1019.0 mb 0.00 in0.0 mm 0.00 in0.0 mm 0.00 in0.0 mm
04:30 AM 81.1°F27.3°C 75.6°F24.2°C 83% 4.0 mph E6.4 kmh E 8.9 mph14.3 kmh 30.09 in1019.0 mb 0.00 in0.0 mm 0.00 in0.0 mm 0.00 in0.0 mm
04:31 AM 81.1°F27.3°C 75.6°F24.2°C 83% 4.0 mph ENE6.4 kmh ENE 8.9 mph14.3 kmh 30.09 in1019.0 mb 0.00 in0.0 mm 0.00 in0.0 mm 0.00 in0.0 mm
04:32 AM 81.1°F27.3°C 75.6°F24.2°C 83% 4.0 mph NE6.4 kmh NE 4.0 mph6.4 kmh 30.09 in1019.0 mb 0.00 in0.0 mm 0.00 in0.0 mm 0.00 in0.0 mm
04:33 AM 81.1°F27.3°C 75.6°F24.2°C 83% 4.0 mph NE6.4 kmh NE 4.9 mph7.9 kmh 30.09 in1019.0 mb 0.00 in0.0 mm 0.00 in0.0 mm 0.00 in0.0 mm
04:34 AM 81.1°F27.3°C 75.6°F24.2°C 83% 4.0 mph NNE6.4 kmh NNE 4.9 mph7.9 kmh 30.09 in1019.0 mb 0.00 in0.0 mm 0.00 in0.0 mm 0.00 in0.0 mm
04:35 AM 81.1°F27.3°C 75.6°F24.2°C 83% 4.0 mph ENE6.4 kmh ENE 4.0 mph6.4 kmh 30.09 in1019.0 mb 0.00 in0.0 mm 0.00 in0.0 mm 0.00 in0.0 mm
04:36 AM 81.1°F27.3°C 75.6°F24.2°C 83% 4.0 mph NE6.4 kmh NE 4.0 mph6.4 kmh 30.09 in1019.0 mb 0.00 in0.0 mm 0.00 in0.0 mm 0.00 in0.0 mm
04:37 AM 81.1°F27.3°C 75.6°F24.2°C 83% 4.0 mph ENE6.4 kmh ENE 4.9 mph7.9 kmh 30.09 in1019.0 mb 0.00 in0.0 mm 0.00 in0.0 mm 0.00 in0.0 mm
04:38 AM 81.1°F27.3°C 75.6°F24.2°C 83% 4.0 mph ENE6.4 kmh ENE 4.9 mph7.9 kmh 30.09 in1019.0 mb 0.00 in0.0 mm 0.00 in0.0 mm 0.00 in0.0 mm
04:39 AM 81.1°F27.3°C 75.6°F24.2°C 83% 2.9 mph E4.7 kmh E 8.1 mph13.0 kmh 30.09 in1019.0 mb 0.00 in0.0 mm 0.00 in0.0 mm 0.00 in0.0 mm
04:40 AM 81.1°F27.3°C 75.6°F24.2°C 83% 2.9 mph E4.7 kmh E 9.0 mph14.5 kmh 30.09 in1019.0 mb 0.00 in0.0 mm 0.00 in0.0 mm 0.00 in0.0 mm
04:41 AM 81.1°F27.3°C 75.6°F24.2°C 83% 2.9 mph E4.7 kmh E 9.0 mph14.5 kmh 30.09 in1019.0 mb 0.00 in0.0 mm 0.00 in0.0 mm 0.00 in0.0 mm
04:42 AM 81.1°F27.3°C 75.9°F24.4°C 84% 2.9 mph E4.7 kmh E 6.9 mph11.1 kmh 30.09 in1019.0 mb 0.00 in0.0 mm 0.00 in0.0 mm 0.00 in0.0 mm
04:43 AM 81.3°F27.4°C 76.1°F24.5°C 84% 4.0 mph E6.4 kmh E 12.0 mph19.3 kmh 30.09 in1019.0 mb 0.00 in0.0 mm 0.00 in0.0 mm 0.00 in0.0 mm
04:44 AM 81.1°F27.3°C 75.6°F24.2°C 83% 4.0 mph NE6.4 kmh NE 12.0 mph19.3 kmh 30.09 in1019.0 mb 0.00 in0.0 mm 0.00 in0.0 mm 0.00 in0.0 mm
04:45 AM 81.1°F27.3°C 75.6°F24.2°C 83% 4.0 mph NE6.4 kmh NE 10.1 mph16.3 kmh 30.09 in1019.0 mb 0.00 in0.0 mm 0.00 in0.0 mm 0.00 in0.0 mm
04:46 AM 81.1°F27.3°C 75.6°F24.2°C 83% 4.9 mph NE7.9 kmh NE 12.1 mph19.5 kmh 30.09 in1019.0 mb 0.00 in0.0 mm 0.00 in0.0 mm 0.00 in0.0 mm
04:47 AM 81.3°F27.4°C 75.7°F24.3°C 83% 4.9 mph NE7.9 kmh NE 8.1 mph13.0 kmh 30.09 in1019.0 mb 0.00 in0.0 mm 0.00 in0.0 mm 0.00 in0.0 mm
04:48 AM 81.1°F27.3°C 75.6°F24.2°C 83% 4.9 mph E7.9 kmh E 6.0 mph9.7 kmh 30.09 in1019.0 mb 0.00 in0.0 mm 0.00 in0.0 mm 0.00 in0.0 mm
04:49 AM 81.1°F27.3°C 75.6°F24.2°C 83% 4.9 mph ENE7.9 kmh ENE 11.0 mph17.7 kmh 30.09 in1019.0 mb 0.00 in0.0 mm 0.00 in0.0 mm 0.00 in0.0 mm
04:50 AM 81.1°F27.3°C 75.6°F24.2°C 83% 4.9 mph ENE7.9 kmh ENE 11.0 mph17.7 kmh 30.09 in1019.0 mb 0.00 in0.0 mm 0.00 in0.0 mm 0.00 in0.0 mm
04:51 AM 81.1°F27.3°C 75.2°F24.0°C 82% 4.9 mph E7.9 kmh E 4.9 mph7.9 kmh 30.09 in1019.0 mb 0.00 in0.0 mm 0.00 in0.0 mm 0.00 in0.0 mm
04:52 AM 81.1°F27.3°C 75.2°F24.0°C 82% 4.9 mph NE7.9 kmh NE 8.1 mph13.0 kmh 30.09 in1019.0 mb 0.00 in0.0 mm 0.00 in0.0 mm 0.00 in0.0 mm
04:53 AM 81.1°F27.3°C 75.2°F24.0°C 82% 4.9 mph ESE7.9 kmh ESE 10.1 mph16.3 kmh 30.09 in1019.0 mb 0.00 in0.0 mm 0.00 in0.0 mm 0.00 in0.0 mm
04:54 AM 81.1°F27.3°C 74.7°F23.7°C 81% 4.9 mph E7.9 kmh E 11.0 mph17.7 kmh 30.09 in1019.0 mb 0.00 in0.0 mm 0.00 in0.0 mm 0.00 in0.0 mm
04:55 AM 81.1°F27.3°C 74.7°F23.7°C 81% 4.9 mph E7.9 kmh E 12.1 mph19.5 kmh 30.09 in1019.0 mb 0.00 in0.0 mm 0.00 in0.0 mm 0.00 in0.0 mm
04:56 AM 81.1°F27.3°C 74.7°F23.7°C 81% 4.9 mph ESE7.9 kmh ESE 12.0 mph19.3 kmh 30.09 in1019.0 mb 0.00 in0.0 mm 0.00 in0.0 mm 0.00 in0.0 mm
04:57 AM 81.3°F27.4°C 74.8°F23.8°C 81% 4.9 mph ESE7.9 kmh ESE 6.0 mph9.7 kmh 30.09 in1019.0 mb 0.00 in0.0 mm 0.00 in0.0 mm 0.00 in0.0 mm
04:58 AM 81.1°F27.3°C 74.3°F23.5°C 80% 4.9 mph E7.9 kmh E 8.9 mph14.3 kmh 30.09 in1019.0 mb 0.00 in0.0 mm 0.00 in0.0 mm 0.00 in0.0 mm
04:59 AM 81.3°F27.4°C 74.5°F23.6°C 80% 4.9 mph E7.9 kmh E 10.1 mph16.3 kmh 30.09 in1019.0 mb 0.00 in0.0 mm 0.00 in0.0 mm 0.00 in0.0 mm
05:00 AM 81.3°F27.4°C 74.5°F23.6°C 80% 4.9 mph E7.9 kmh E 10.1 mph16.3 kmh 30.09 in1019.0 mb 0.00 in0.0 mm 0.00 in0.0 mm 0.00 in0.0 mm
05:01 AM 81.3°F27.4°C 74.5°F23.6°C 80% 4.9 mph E7.9 kmh E 8.9 mph14.3 kmh 30.09 in1019.0 mb 0.00 in0.0 mm 0.00 in0.0 mm 0.00 in0.0 mm
05:02 AM 81.3°F27.4°C 74.5°F23.6°C 80% 4.9 mph E7.9 kmh E 8.9 mph14.3 kmh 30.09 in1019.0 mb 0.00 in0.0 mm 0.00 in0.0 mm 0.00 in0.0 mm
05:03 AM 81.3°F27.4°C 74.5°F23.6°C 80% 4.9 mph E7.9 kmh E 6.9 mph11.1 kmh 30.09 in1019.0 mb 0.00 in0.0 mm 0.00 in0.0 mm 0.00 in0.0 mm
05:04 AM 81.3°F27.4°C 74.5°F23.6°C 80% 4.9 mph ENE7.9 kmh ENE 4.9 mph7.9 kmh 30.09 in1019.0 mb 0.00 in0.0 mm 0.00 in0.0 mm 0.00 in0.0 mm
05:05 AM 81.3°F27.4°C 74.5°F23.6°C 80% 4.9 mph ESE7.9 kmh ESE 8.9 mph14.3 kmh 30.09 in1019.0 mb 0.00 in0.0 mm 0.00 in0.0 mm 0.00 in0.0 mm
05:07 AM 81.3°F27.4°C 74.5°F23.6°C 80% 4.9 mph NE7.9 kmh NE 8.9 mph14.3 kmh 30.10 in1019.3 mb 0.00 in0.0 mm 0.00 in0.0 mm 0.00 in0.0 mm
05:08 AM 81.3°F27.4°C 74.5°F23.6°C 80% 4.9 mph ENE7.9 kmh ENE 8.1 mph13.0 kmh 30.09 in1019.0 mb 0.00 in0.0 mm 0.00 in0.0 mm 0.00 in0.0 mm
05:09 AM 81.3°F27.4°C 74.5°F23.6°C 80% 4.9 mph ENE7.9 kmh ENE 10.0 mph16.1 kmh 30.10 in1019.3 mb 0.00 in0.0 mm 0.00 in0.0 mm 0.00 in0.0 mm
05:10 AM 81.5°F27.5°C 74.3°F23.5°C 79% 4.9 mph ESE7.9 kmh ESE 10.0 mph16.1 kmh 30.09 in1019.0 mb 0.00 in0.0 mm 0.00 in0.0 mm 0.00 in0.0 mm
05:11 AM 81.3°F27.4°C 74.1°F23.4°C 79% 4.0 mph ENE6.4 kmh ENE 10.0 mph16.1 kmh 30.09 in1019.0 mb 0.00 in0.0 mm 0.00 in0.0 mm 0.00 in0.0 mm
05:12 AM 81.3°F27.4°C 74.5°F23.6°C 80% 4.0 mph E6.4 kmh E 8.1 mph13.0 kmh 30.09 in1019.0 mb 0.00 in0.0 mm 0.00 in0.0 mm 0.00 in0.0 mm
05:13 AM 81.3°F27.4°C 74.5°F23.6°C 80% 4.0 mph E6.4 kmh E 8.9 mph14.3 kmh 30.09 in1019.0 mb 0.00 in0.0 mm 0.00 in0.0 mm 0.00 in0.0 mm
05:14 AM 81.3°F27.4°C 74.1°F23.4°C 79% 4.0 mph ENE6.4 kmh ENE 8.1 mph13.0 kmh 30.09 in1019.0 mb 0.00 in0.0 mm 0.00 in0.0 mm 0.00 in0.0 mm
05:15 AM 81.3°F27.4°C 74.1°F23.4°C 79% 4.0 mph ENE6.4 kmh ENE 8.1 mph13.0 kmh 30.10 in1019.3 mb 0.00 in0.0 mm 0.00 in0.0 mm 0.00 in0.0 mm
05:16 AM 81.3°F27.4°C 74.1°F23.4°C 79% 4.0 mph NE6.4 kmh NE 8.1 mph13.0 kmh 30.10 in1019.3 mb 0.00 in0.0 mm 0.00 in0.0 mm 0.00 in0.0 mm
05:17 AM 81.3°F27.4°C 74.1°F23.4°C 79% 4.0 mph E6.4 kmh E 6.9 mph11.1 kmh 30.10 in1019.3 mb 0.00 in0.0 mm 0.00 in0.0 mm 0.00 in0.0 mm
05:18 AM 81.3°F27.4°C 74.1°F23.4°C 79% 4.0 mph E6.4 kmh E 6.9 mph11.1 kmh 30.10 in1019.3 mb 0.00 in0.0 mm 0.00 in0.0 mm 0.00 in0.0 mm
05:19 AM 81.3°F27.4°C 74.1°F23.4°C 79% 4.0 mph NE6.4 kmh NE 4.9 mph7.9 kmh 30.10 in1019.3 mb 0.00 in0.0 mm 0.00 in0.0 mm 0.00 in0.0 mm
05:20 AM 81.3°F27.4°C 74.1°F23.4°C 79% 4.0 mph E6.4 kmh E 11.0 mph17.7 kmh 30.09 in1019.0 mb 0.00 in0.0 mm 0.00 in0.0 mm 0.00 in0.0 mm
05:21 AM 81.3°F27.4°C 74.1°F23.4°C 79% 4.0 mph E6.4 kmh E 11.0 mph17.7 kmh 30.10 in1019.3 mb 0.00 in0.0 mm 0.00 in0.0 mm 0.00 in0.0 mm
05:22 AM 81.3°F27.4°C 74.1°F23.4°C 79% 4.0 mph NE6.4 kmh NE 6.9 mph11.1 kmh 30.10 in1019.3 mb 0.00 in0.0 mm 0.00 in0.0 mm 0.00 in0.0 mm
05:23 AM 81.3°F27.4°C 74.5°F23.6°C 80% 4.0 mph ENE6.4 kmh ENE 8.1 mph13.0 kmh 30.10 in1019.3 mb 0.00 in0.0 mm 0.00 in0.0 mm 0.00 in0.0 mm
05:24 AM 81.3°F27.4°C 74.1°F23.4°C 79% 4.0 mph ENE6.4 kmh ENE 8.1 mph13.0 kmh 30.10 in1019.3 mb 0.00 in0.0 mm 0.00 in0.0 mm 0.00 in0.0 mm
05:25 AM 81.3°F27.4°C 74.1°F23.4°C 79% 4.0 mph E6.4 kmh E 6.0 mph9.7 kmh 30.10 in1019.3 mb 0.00 in0.0 mm 0.00 in0.0 mm 0.00 in0.0 mm
05:26 AM 81.3°F27.4°C 74.1°F23.4°C 79% 4.0 mph ENE6.4 kmh ENE 6.9 mph11.1 kmh 30.10 in1019.3 mb 0.00 in0.0 mm 0.00 in0.0 mm 0.00 in0.0 mm
05:27 AM 81.3°F27.4°C 74.1°F23.4°C 79% 4.0 mph ENE6.4 kmh ENE 6.9 mph11.1 kmh 30.10 in1019.3 mb 0.00 in0.0 mm 0.00 in0.0 mm 0.00 in0.0 mm
05:28 AM 81.3°F27.4°C 74.5°F23.6°C 80% 4.0 mph ENE6.4 kmh ENE 8.1 mph13.0 kmh 30.10 in1019.3 mb 0.00 in0.0 mm 0.00 in0.0 mm 0.00 in0.0 mm
05:29 AM 81.3°F27.4°C 74.1°F23.4°C 79% 4.0 mph E6.4 kmh E 11.0 mph17.7 kmh 30.10 in1019.3 mb 0.00 in0.0 mm 0.00 in0.0 mm 0.00 in0.0 mm
05:30 AM 81.1°F27.3°C 73.9°F23.3°C 79% 4.0 mph E6.4 kmh E 11.0 mph17.7 kmh 30.10 in1019.3 mb 0.00 in0.0 mm 0.00 in0.0 mm 0.00 in0.0 mm
05:31 AM 81.1°F27.3°C 73.9°F23.3°C 79% 4.9 mph E7.9 kmh E 11.0 mph17.7 kmh 30.10 in1019.3 mb 0.00 in0.0 mm 0.00 in0.0 mm 0.00 in0.0 mm
05:32 AM 81.1°F27.3°C 73.9°F23.3°C 79% 4.9 mph ENE7.9 kmh ENE 11.0 mph17.7 kmh 30.10 in1019.3 mb 0.00 in0.0 mm 0.00 in0.0 mm 0.00 in0.0 mm
05:33 AM 81.1°F27.3°C 73.9°F23.3°C 79% 4.9 mph E7.9 kmh E 6.9 mph11.1 kmh 30.10 in1019.3 mb 0.00 in0.0 mm 0.00 in0.0 mm 0.00 in0.0 mm
05:34 AM 81.3°F27.4°C 74.1°F23.4°C 79% 4.9 mph ENE7.9 kmh ENE 6.9 mph11.1 kmh 30.10 in1019.3 mb 0.00 in0.0 mm 0.00 in0.0 mm 0.00 in0.0 mm
05:35 AM 81.3°F27.4°C 74.1°F23.4°C 79% 4.9 mph ENE7.9 kmh ENE 6.9 mph11.1 kmh 30.10 in1019.3 mb 0.00 in0.0 mm 0.00 in0.0 mm 0.00 in0.0 mm
05:36 AM 81.1°F27.3°C 73.9°F23.3°C 79% 4.9 mph E7.9 kmh E 6.9 mph11.1 kmh 30.10 in1019.3 mb 0.00 in0.0 mm 0.00 in0.0 mm 0.00 in0.0 mm
05:37 AM 81.1°F27.3°C 73.9°F23.3°C 79% 4.9 mph ENE7.9 kmh ENE 8.1 mph13.0 kmh 30.10 in1019.3 mb 0.00 in0.0 mm 0.00 in0.0 mm 0.00 in0.0 mm
05:38 AM 81.1°F27.3°C 73.9°F23.3°C 79% 4.9 mph ESE7.9 kmh ESE 8.1 mph13.0 kmh 30.10 in1019.3 mb 0.00 in0.0 mm 0.00 in0.0 mm 0.00 in0.0 mm
05:39 AM 81.1°F27.3°C 73.9°F23.3°C 79% 4.9 mph SE7.9 kmh SE 12.1 mph19.5 kmh 30.10 in1019.3 mb 0.00 in0.0 mm 0.00 in0.0 mm 0.00 in0.0 mm
05:40 AM 81.1°F27.3°C 73.6°F23.1°C 78% 4.0 mph E6.4 kmh E 12.0 mph19.3 kmh 30.10 in1019.3 mb 0.00 in0.0 mm 0.00 in0.0 mm 0.00 in0.0 mm
05:41 AM 81.3°F27.4°C 73.8°F23.2°C 78% 4.0 mph E6.4 kmh E 4.0 mph6.4 kmh 30.10 in1019.3 mb 0.00 in0.0 mm 0.00 in0.0 mm 0.00 in0.0 mm
05:42 AM 81.1°F27.3°C 73.6°F23.1°C 78% 4.0 mph ESE6.4 kmh ESE 6.9 mph11.1 kmh 30.10 in1019.3 mb 0.00 in0.0 mm 0.00 in0.0 mm 0.00 in0.0 mm
05:43 AM 81.3°F27.4°C 74.1°F23.4°C 79% 4.0 mph E6.4 kmh E 6.9 mph11.1 kmh 30.10 in1019.3 mb 0.00 in0.0 mm 0.00 in0.0 mm 0.00 in0.0 mm
05:44 AM 81.1°F27.3°C 73.9°F23.3°C 79% 4.0 mph E6.4 kmh E 6.9 mph11.1 kmh 30.10 in1019.3 mb 0.00 in0.0 mm 0.00 in0.0 mm 0.00 in0.0 mm
05:45 AM 81.1°F27.3°C 73.6°F23.1°C 78% 4.0 mph ENE6.4 kmh ENE 10.1 mph16.3 kmh 30.10 in1019.3 mb 0.00 in0.0 mm 0.00 in0.0 mm 0.00 in0.0 mm
05:46 AM 81.1°F27.3°C 73.6°F23.1°C 78% 4.0 mph ENE6.4 kmh ENE 8.1 mph13.0 kmh 30.10 in1019.3 mb 0.00 in0.0 mm 0.00 in0.0 mm 0.00 in0.0 mm
05:47 AM 81.1°F27.3°C 73.6°F23.1°C 78% 4.0 mph E6.4 kmh E 8.9 mph14.3 kmh 30.10 in1019.3 mb 0.00 in0.0 mm 0.00 in0.0 mm 0.00 in0.0 mm
05:48 AM 81.1°F27.3°C 73.6°F23.1°C 78% 4.0 mph ENE6.4 kmh ENE 12.0 mph19.3 kmh 30.10 in1019.3 mb 0.00 in0.0 mm 0.00 in0.0 mm 0.00 in0.0 mm
05:49 AM 81.1°F27.3°C 73.6°F23.1°C 78% 4.0 mph E6.4 kmh E 12.0 mph19.3 kmh 30.10 in1019.3 mb 0.00 in0.0 mm 0.00 in0.0 mm 0.00 in0.0 mm
05:50 AM 81.1°F27.3°C 73.6°F23.1°C 78% 4.0 mph ESE6.4 kmh ESE 12.0 mph19.3 kmh 30.10 in1019.3 mb 0.00 in0.0 mm 0.00 in0.0 mm 0.00 in0.0 mm
05:51 AM 81.1°F27.3°C 73.6°F23.1°C 78% 4.0 mph E6.4 kmh E 6.0 mph9.7 kmh 30.10 in1019.3 mb 0.00 in0.0 mm 0.00 in0.0 mm 0.00 in0.0 mm
05:52 AM 81.0°F27.2°C 73.4°F23.0°C 78% 4.0 mph E6.4 kmh E 4.0 mph6.4 kmh 30.10 in1019.3 mb 0.00 in0.0 mm 0.00 in0.0 mm 0.00 in0.0 mm
05:53 AM 81.0°F27.2°C 73.4°F23.0°C 78% 4.0 mph NE6.4 kmh NE 6.9 mph11.1 kmh 30.10 in1019.3 mb 0.00 in0.0 mm 0.00 in0.0 mm 0.00 in0.0 mm
05:54 AM 81.0°F27.2°C 73.4°F23.0°C 78% 4.0 mph E6.4 kmh E 6.9 mph11.1 kmh 30.10 in1019.3 mb 0.00 in0.0 mm 0.00 in0.0 mm 0.00 in0.0 mm
05:55 AM 81.0°F27.2°C 73.8°F23.2°C 79% 2.9 mph E4.7 kmh E 2.9 mph4.7 kmh 30.10 in1019.3 mb 0.00 in0.0 mm 0.00 in0.0 mm 0.00 in0.0 mm
05:56 AM 81.0°F27.2°C 73.8°F23.2°C 79% 2.9 mph ENE4.7 kmh ENE 8.1 mph13.0 kmh 30.10 in1019.3 mb 0.00 in0.0 mm 0.00 in0.0 mm 0.00 in0.0 mm
05:57 AM 81.0°F27.2°C 73.8°F23.2°C 79% 2.9 mph E4.7 kmh E 8.1 mph13.0 kmh 30.10 in1019.3 mb 0.00 in0.0 mm 0.00 in0.0 mm 0.00 in0.0 mm
05:58 AM 81.0°F27.2°C 73.8°F23.2°C 79% 2.9 mph ENE4.7 kmh ENE 8.1 mph13.0 kmh 30.10 in1019.3 mb 0.00 in0.0 mm 0.00 in0.0 mm 0.00 in0.0 mm
05:59 AM 81.0°F27.2°C 73.8°F23.2°C 79% 4.0 mph ENE6.4 kmh ENE 11.0 mph17.7 kmh 30.10 in1019.3 mb 0.00 in0.0 mm 0.00 in0.0 mm 0.00 in0.0 mm
06:00 AM 81.0°F27.2°C 73.8°F23.2°C 79% 2.9 mph ENE4.7 kmh ENE 11.0 mph17.7 kmh 30.10 in1019.3 mb 0.00 in0.0 mm 0.00 in0.0 mm 0.00 in0.0 mm
06:01 AM 81.0°F27.2°C 73.8°F23.2°C 79% 4.0 mph E6.4 kmh E 8.1 mph13.0 kmh 30.10 in1019.3 mb 0.00 in0.0 mm 0.00 in0.0 mm 0.00 in0.0 mm
06:02 AM 81.0°F27.2°C 73.8°F23.2°C 79% 4.0 mph NE6.4 kmh NE 8.1 mph13.0 kmh 30.10 in1019.3 mb 0.00 in0.0 mm 0.00 in0.0 mm 0.00 in0.0 mm
06:03 AM 81.0°F27.2°C 74.1°F23.4°C 80% 4.0 mph ENE6.4 kmh ENE 4.9 mph7.9 kmh 30.10 in1019.3 mb 0.00 in0.0 mm 0.00 in0.0 mm 0.00 in0.0 mm
06:04 AM 81.0°F27.2°C 74.1°F23.4°C 80% 2.9 mph NE4.7 kmh NE 6.9 mph11.1 kmh 30.10 in1019.3 mb 0.00 in0.0 mm 0.00 in0.0 mm 0.00 in0.0 mm
06:05 AM 81.0°F27.2°C 74.1°F23.4°C 80% 4.0 mph ENE6.4 kmh ENE 4.9 mph7.9 kmh 30.10 in1019.3 mb 0.00 in0.0 mm 0.00 in0.0 mm 0.00 in0.0 mm
06:06 AM 81.0°F27.2°C 74.1°F23.4°C 80% 4.0 mph E6.4 kmh E 4.0 mph6.4 kmh 30.10 in1019.3 mb 0.00 in0.0 mm 0.00 in0.0 mm 0.00 in0.0 mm
06:07 AM 81.0°F27.2°C 74.1°F23.4°C 80% 2.9 mph E4.7 kmh E 4.0 mph6.4 kmh 30.10 in1019.3 mb 0.00 in0.0 mm 0.00 in0.0 mm 0.00 in0.0 mm
06:08 AM 81.0°F27.2°C 74.7°F23.7°C 81% 2.9 mph NE4.7 kmh NE 4.9 mph7.9 kmh 30.11 in1019.6 mb 0.00 in0.0 mm 0.00 in0.0 mm 0.00 in0.0 mm
06:09 AM 81.0°F27.2°C 74.7°F23.7°C 81% 2.9 mph ENE4.7 kmh ENE 11.0 mph17.7 kmh 30.11 in1019.6 mb 0.00 in0.0 mm 0.00 in0.0 mm 0.00 in0.0 mm
06:10 AM 81.0°F27.2°C 74.7°F23.7°C 81% 2.9 mph ENE4.7 kmh ENE 11.0 mph17.7 kmh 30.11 in1019.6 mb 0.00 in0.0 mm 0.00 in0.0 mm 0.00 in0.0 mm
06:11 AM 81.0°F27.2°C 74.7°F23.7°C 81% 2.9 mph ENE4.7 kmh ENE 6.0 mph9.7 kmh 30.10 in1019.3 mb 0.00 in0.0 mm 0.00 in0.0 mm 0.00 in0.0 mm
06:12 AM 81.0°F27.2°C 74.7°F23.7°C 81% 2.9 mph ENE4.7 kmh ENE 4.9 mph7.9 kmh 30.10 in1019.3 mb 0.00 in0.0 mm 0.00 in0.0 mm 0.00 in0.0 mm
06:13 AM 81.0°F27.2°C 74.7°F23.7°C 81% 2.9 mph SE4.7 kmh SE 4.0 mph6.4 kmh 30.11 in1019.6 mb 0.00 in0.0 mm 0.00 in0.0 mm 0.00 in0.0 mm
06:14 AM 81.0°F27.2°C 74.7°F23.7°C 81% 2.9 mph E4.7 kmh E 4.0 mph6.4 kmh 30.11 in1019.6 mb 0.00 in0.0 mm 0.00 in0.0 mm 0.00 in0.0 mm
06:15 AM 81.0°F27.2°C 75.0°F23.9°C 82% 2.9 mph E4.7 kmh E 4.9 mph7.9 kmh 30.11 in1019.6 mb 0.00 in0.0 mm 0.00 in0.0 mm 0.00 in0.0 mm
06:16 AM 81.0°F27.2°C 75.0°F23.9°C 82% 2.9 mph E4.7 kmh E 4.9 mph7.9 kmh 30.11 in1019.6 mb 0.00 in0.0 mm 0.00 in0.0 mm 0.00 in0.0 mm
06:17 AM 81.0°F27.2°C 75.0°F23.9°C 82% 2.9 mph ENE4.7 kmh ENE 6.9 mph11.1 kmh 30.10 in1019.3 mb 0.00 in0.0 mm 0.00 in0.0 mm 0.00 in0.0 mm
06:18 AM 81.0°F27.2°C 74.7°F23.7°C 81% 2.9 mph NE4.7 kmh NE 6.9 mph11.1 kmh 30.11 in1019.6 mb 0.00 in0.0 mm 0.00 in0.0 mm 0.00 in0.0 mm
06:19 AM 81.0°F27.2°C 75.0°F23.9°C 82% 2.9 mph E4.7 kmh E 4.0 mph6.4 kmh 30.11 in1019.6 mb 0.00 in0.0 mm 0.00 in0.0 mm 0.00 in0.0 mm
06:20 AM 81.0°F27.2°C 75.0°F23.9°C 82% 2.9 mph NE4.7 kmh NE 2.9 mph4.7 kmh 30.11 in1019.6 mb 0.00 in0.0 mm 0.00 in0.0 mm 0.00 in0.0 mm
06:21 AM 81.0°F27.2°C 75.0°F23.9°C 82% 2.9 mph E4.7 kmh E 4.0 mph6.4 kmh 30.11 in1019.6 mb 0.00 in0.0 mm 0.00 in0.0 mm 0.00 in0.0 mm
06:22 AM 81.0°F27.2°C 75.0°F23.9°C 82% 2.9 mph E4.7 kmh E 4.0 mph6.4 kmh 30.11 in1019.6 mb 0.00 in0.0 mm 0.00 in0.0 mm 0.00 in0.0 mm
06:23 AM 81.0°F27.2°C 74.7°F23.7°C 81% 2.9 mph E4.7 kmh E 6.9 mph11.1 kmh 30.11 in1019.6 mb 0.00 in0.0 mm 0.00 in0.0 mm 0.00 in0.0 mm
06:24 AM 81.0°F27.2°C 74.7°F23.7°C 81% 2.9 mph E4.7 kmh E 6.9 mph11.1 kmh 30.11 in1019.6 mb 0.00 in0.0 mm 0.00 in0.0 mm 0.00 in0.0 mm
06:25 AM 81.0°F27.2°C 74.7°F23.7°C 81% 2.9 mph E4.7 kmh E 11.0 mph17.7 kmh 30.11 in1019.6 mb 0.00 in0.0 mm 0.00 in0.0 mm 0.00 in0.0 mm
06:26 AM 81.0°F27.2°C 74.7°F23.7°C 81% 2.9 mph ENE4.7 kmh ENE 8.1 mph13.0 kmh 30.11 in1019.6 mb 0.00 in0.0 mm 0.00 in0.0 mm 0.00 in0.0 mm
06:27 AM 81.0°F27.2°C 74.7°F23.7°C 81% 4.0 mph E6.4 kmh E 8.9 mph14.3 kmh 30.11 in1019.6 mb 0.00 in0.0 mm 0.00 in0.0 mm 0.00 in0.0 mm
06:28 AM 81.0°F27.2°C 74.7°F23.7°C 81% 2.9 mph E4.7 kmh E 4.9 mph7.9 kmh 30.11 in1019.6 mb 0.00 in0.0 mm 0.00 in0.0 mm 0.00 in0.0 mm
06:29 AM 81.0°F27.2°C 74.7°F23.7°C 81% 4.0 mph E6.4 kmh E 8.1 mph13.0 kmh 30.11 in1019.6 mb 0.00 in0.0 mm 0.00 in0.0 mm 0.00 in0.0 mm
06:30 AM 81.0°F27.2°C 74.7°F23.7°C 81% 4.0 mph E6.4 kmh E 4.9 mph7.9 kmh 30.11 in1019.6 mb 0.00 in0.0 mm 0.00 in0.0 mm 0.00 in0.0 mm
06:31 AM 81.0°F27.2°C 74.7°F23.7°C 81% 4.0 mph NE6.4 kmh NE 4.9 mph7.9 kmh 30.11 in1019.6 mb 0.00 in0.0 mm 0.00 in0.0 mm 0.00 in0.0 mm
06:32 AM 81.0°F27.2°C 74.7°F23.7°C 81% 4.0 mph ENE6.4 kmh ENE 4.0 mph6.4 kmh 30.11 in1019.6 mb 0.00 in0.0 mm 0.00 in0.0 mm 0.00 in0.0 mm
06:33 AM 81.1°F27.3°C 74.7°F23.7°C 81% 4.0 mph E6.4 kmh E 2.9 mph4.7 kmh 30.11 in1019.6 mb 0.00 in0.0 mm 0.00 in0.0 mm 0.00 in0.0 mm
06:34 AM 81.1°F27.3°C 74.7°F23.7°C 81% 4.0 mph E6.4 kmh E 11.0 mph17.7 kmh 30.11 in1019.6 mb 0.00 in0.0 mm 0.00 in0.0 mm 0.00 in0.0 mm
06:35 AM 81.0°F27.2°C 74.7°F23.7°C 81% 4.0 mph E6.4 kmh E 12.1 mph19.5 kmh 30.11 in1019.6 mb 0.00 in0.0 mm 0.00 in0.0 mm 0.00 in0.0 mm
06:36 AM 81.1°F27.3°C 74.7°F23.7°C 81% 4.0 mph E6.4 kmh E 8.1 mph13.0 kmh 30.11 in1019.6 mb 0.00 in0.0 mm 0.00 in0.0 mm 0.00 in0.0 mm
06:37 AM 81.1°F27.3°C 74.7°F23.7°C 81% 4.0 mph ENE6.4 kmh ENE 8.1 mph13.0 kmh 30.11 in1019.6 mb 0.00 in0.0 mm 0.00 in0.0 mm 0.00 in0.0 mm
06:38 AM 81.1°F27.3°C 74.7°F23.7°C 81% 4.0 mph NE6.4 kmh NE 6.0 mph9.7 kmh 30.11 in1019.6 mb 0.00 in0.0 mm 0.00 in0.0 mm 0.00 in0.0 mm
06:39 AM 81.1°F27.3°C 74.7°F23.7°C 81% 4.0 mph N6.4 kmh N 4.0 mph6.4 kmh 30.11 in1019.6 mb 0.00 in0.0 mm 0.00 in0.0 mm 0.00 in0.0 mm
06:40 AM 81.1°F27.3°C 74.7°F23.7°C 81% 4.0 mph NE6.4 kmh NE 6.9 mph11.1 kmh 30.11 in1019.6 mb 0.00 in0.0 mm 0.00 in0.0 mm 0.00 in0.0 mm
06:41 AM 81.1°F27.3°C 74.7°F23.7°C 81% 4.0 mph NE6.4 kmh NE 6.0 mph9.7 kmh 30.11 in1019.6 mb 0.00 in0.0 mm 0.00 in0.0 mm 0.00 in0.0 mm
06:42 AM 81.1°F27.3°C 74.7°F23.7°C 81% 4.0 mph ENE6.4 kmh ENE 10.1 mph16.3 kmh 30.11 in1019.6 mb 0.00 in0.0 mm 0.00 in0.0 mm 0.00 in0.0 mm
06:43 AM 81.1°F27.3°C 74.7°F23.7°C 81% 4.0 mph E6.4 kmh E 8.9 mph14.3 kmh 30.11 in1019.6 mb 0.00 in0.0 mm 0.00 in0.0 mm 0.00 in0.0 mm
06:44 AM 81.1°F27.3°C 74.7°F23.7°C 81% 4.0 mph NE6.4 kmh NE 12.0 mph19.3 kmh 30.11 in1019.6 mb 0.00 in0.0 mm 0.00 in0.0 mm 0.00 in0.0 mm
06:45 AM 81.3°F27.4°C 74.8°F23.8°C 81% 4.0 mph NE6.4 kmh NE 12.0 mph19.3 kmh 30.11 in1019.6 mb 0.00 in0.0 mm 0.00 in0.0 mm 0.00 in0.0 mm
06:46 AM 81.3°F27.4°C 74.8°F23.8°C 81% 4.0 mph NE6.4 kmh NE 6.0 mph9.7 kmh 30.11 in1019.6 mb 0.00 in0.0 mm 0.00 in0.0 mm 0.00 in0.0 mm
06:47 AM 81.3°F27.4°C 74.8°F23.8°C 81% 4.0 mph E6.4 kmh E 8.1 mph13.0 kmh 30.11 in1019.6 mb 0.00 in0.0 mm 0.00 in0.0 mm 0.00 in0.0 mm
06:48 AM 81.3°F27.4°C 74.8°F23.8°C 81% 4.0 mph E6.4 kmh E 6.9 mph11.1 kmh 30.11 in1019.6 mb 0.00 in0.0 mm 0.00 in0.0 mm 0.00 in0.0 mm
06:49 AM 81.3°F27.4°C 74.8°F23.8°C 81% 4.0 mph ENE6.4 kmh ENE 8.1 mph13.0 kmh 30.11 in1019.6 mb 0.00 in0.0 mm 0.00 in0.0 mm 0.00 in0.0 mm
06:50 AM 81.5°F27.5°C 75.4°F24.1°C 82% 4.9 mph E7.9 kmh E 8.1 mph13.0 kmh 30.11 in1019.6 mb 0.00 in0.0 mm 0.00 in0.0 mm 0.00 in0.0 mm
06:51 AM 81.5°F27.5°C 75.0°F23.9°C 81% 4.9 mph E7.9 kmh E 10.1 mph16.3 kmh 30.11 in1019.6 mb 0.00 in0.0 mm 0.00 in0.0 mm 0.00 in0.0 mm
06:52 AM 81.7°F27.6°C 75.6°F24.2°C 82% 4.9 mph ENE7.9 kmh ENE 10.1 mph16.3 kmh 30.11 in1019.6 mb 0.00 in0.0 mm 0.00 in0.0 mm 0.00 in0.0 mm
06:53 AM 81.7°F27.6°C 75.6°F24.2°C 82% 4.0 mph ENE6.4 kmh ENE 8.1 mph13.0 kmh 30.11 in1019.6 mb 0.00 in0.0 mm 0.00 in0.0 mm 0.00 in0.0 mm
06:54 AM 81.9°F27.7°C 75.7°F24.3°C 82% 4.0 mph ESE6.4 kmh ESE 8.9 mph14.3 kmh 30.11 in1019.6 mb 0.00 in0.0 mm 0.00 in0.0 mm 0.00 in0.0 mm
06:55 AM 81.9°F27.7°C 75.7°F24.3°C 82% 4.0 mph ENE6.4 kmh ENE 8.1 mph13.0 kmh 30.11 in1019.6 mb 0.00 in0.0 mm 0.00 in0.0 mm 0.00 in0.0 mm
06:56 AM 81.9°F27.7°C 75.7°F24.3°C 82% 4.0 mph E6.4 kmh E 8.9 mph14.3 kmh 30.11 in1019.6 mb 0.00 in0.0 mm 0.00 in0.0 mm 0.00 in0.0 mm
06:57 AM 81.9°F27.7°C 75.4°F24.1°C 81% 4.9 mph NE7.9 kmh NE 8.9 mph14.3 kmh 30.11 in1019.6 mb 0.00 in0.0 mm 0.00 in0.0 mm 0.00 in0.0 mm
06:58 AM 81.9°F27.7°C 75.4°F24.1°C 81% 4.9 mph NE7.9 kmh NE 10.1 mph16.3 kmh 30.11 in1019.6 mb 0.00 in0.0 mm 0.00 in0.0 mm 0.00 in0.0 mm
06:59 AM 81.9°F27.7°C 75.4°F24.1°C 81% 4.9 mph ENE7.9 kmh ENE 8.9 mph14.3 kmh 30.11 in1019.6 mb 0.00 in0.0 mm 0.00 in0.0 mm 0.00 in0.0 mm
07:00 AM 82.0°F27.8°C 75.6°F24.2°C 81% 4.9 mph E7.9 kmh E 8.9 mph14.3 kmh 30.11 in1019.6 mb 0.00 in0.0 mm 0.00 in0.0 mm 0.00 in0.0 mm
07:01 AM 82.0°F27.8°C 75.6°F24.2°C 81% 4.9 mph ENE7.9 kmh ENE 11.0 mph17.7 kmh 30.11 in1019.6 mb 0.00 in0.0 mm 0.00 in0.0 mm 0.00 in0.0 mm
07:02 AM 82.0°F27.8°C 75.6°F24.2°C 81% 4.9 mph NE7.9 kmh NE 10.1 mph16.3 kmh 30.11 in1019.6 mb 0.00 in0.0 mm 0.00 in0.0 mm 0.00 in0.0 mm
07:03 AM 82.2°F27.9°C 75.4°F24.1°C 80% 4.9 mph E7.9 kmh E 13.0 mph20.9 kmh 30.11 in1019.6 mb 0.00 in0.0 mm 0.00 in0.0 mm 0.00 in0.0 mm
07:04 AM 82.2°F27.9°C 75.4°F24.1°C 80% 6.0 mph NE9.7 kmh NE 18.0 mph29.0 kmh 30.11 in1019.6 mb 0.00 in0.0 mm 0.00 in0.0 mm 0.00 in0.0 mm
07:05 AM 82.2°F27.9°C 75.0°F23.9°C 79% 6.0 mph E9.7 kmh E 18.0 mph29.0 kmh 30.11 in1019.6 mb 0.00 in0.0 mm 0.00 in0.0 mm 0.00 in0.0 mm
07:06 AM 82.4°F28.0°C 75.2°F24.0°C 79% 6.0 mph ENE9.7 kmh ENE 14.1 mph22.7 kmh 30.11 in1019.6 mb 0.00 in0.0 mm 0.00 in0.0 mm 0.00 in0.0 mm
07:07 AM 82.4°F28.0°C 75.2°F24.0°C 79% 6.0 mph E9.7 kmh E 10.1 mph16.3 kmh 30.12 in1020.0 mb 0.00 in0.0 mm 0.00 in0.0 mm 0.00 in0.0 mm
07:08 AM 82.6°F28.1°C 75.4°F24.1°C 79% 6.9 mph E11.1 kmh E 12.1 mph19.5 kmh 30.12 in1020.0 mb 0.00 in0.0 mm 0.00 in0.0 mm 0.00 in0.0 mm
07:09 AM 82.6°F28.1°C 75.0°F23.9°C 78% 6.9 mph E11.1 kmh E 12.1 mph19.5 kmh 30.12 in1020.0 mb 0.00 in0.0 mm 0.00 in0.0 mm 0.00 in0.0 mm
07:10 AM 82.6°F28.1°C 75.0°F23.9°C 78% 6.9 mph E11.1 kmh E 8.1 mph13.0 kmh 30.12 in1020.0 mb 0.00 in0.0 mm 0.00 in0.0 mm 0.00 in0.0 mm
07:11 AM 82.6°F28.1°C 75.0°F23.9°C 78% 6.9 mph ENE11.1 kmh ENE 12.1 mph19.5 kmh 30.12 in1020.0 mb 0.00 in0.0 mm 0.00 in0.0 mm 0.00 in0.0 mm
07:12 AM 82.6°F28.1°C 75.0°F23.9°C 78% 8.1 mph E13.0 kmh E 14.1 mph22.7 kmh 30.12 in1020.0 mb 0.00 in0.0 mm 0.00 in0.0 mm 0.00 in0.0 mm
07:13 AM 82.8°F28.2°C 75.2°F24.0°C 78% 8.1 mph ENE13.0 kmh ENE 14.1 mph22.7 kmh 30.12 in1020.0 mb 0.00 in0.0 mm 0.00 in0.0 mm 0.00 in0.0 mm
07:14 AM 82.8°F28.2°C 74.8°F23.8°C 77% 8.1 mph E13.0 kmh E 11.0 mph17.7 kmh 30.12 in1020.0 mb 0.00 in0.0 mm 0.00 in0.0 mm 0.00 in0.0 mm
07:15 AM 82.8°F28.2°C 75.2°F24.0°C 78% 8.1 mph E13.0 kmh E 13.0 mph20.9 kmh 30.12 in1020.0 mb 0.00 in0.0 mm 0.00 in0.0 mm 0.00 in0.0 mm
07:16 AM 82.8°F28.2°C 74.8°F23.8°C 77% 8.1 mph NE13.0 kmh NE 13.0 mph20.9 kmh 30.12 in1020.0 mb 0.00 in0.0 mm 0.00 in0.0 mm 0.00 in0.0 mm
07:17 AM 82.8°F28.2°C 74.8°F23.8°C 77% 8.1 mph NE13.0 kmh NE 13.0 mph20.9 kmh 30.12 in1020.0 mb 0.00 in0.0 mm 0.00 in0.0 mm 0.00 in0.0 mm
07:18 AM 82.8°F28.2°C 74.8°F23.8°C 77% 8.1 mph E13.0 kmh E 8.9 mph14.3 kmh 30.12 in1020.0 mb 0.00 in0.0 mm 0.00 in0.0 mm 0.00 in0.0 mm
07:19 AM 82.8°F28.2°C 75.2°F24.0°C 78% 6.9 mph NE11.1 kmh NE 10.1 mph16.3 kmh 30.12 in1020.0 mb 0.00 in0.0 mm 0.00 in0.0 mm 0.00 in0.0 mm
07:20 AM 82.8°F28.2°C 75.2°F24.0°C 78% 6.9 mph E11.1 kmh E 10.1 mph16.3 kmh 30.12 in1020.0 mb 0.00 in0.0 mm 0.00 in0.0 mm 0.00 in0.0 mm
07:21 AM 82.8°F28.2°C 75.2°F24.0°C 78% 6.9 mph NE11.1 kmh NE 10.1 mph16.3 kmh 30.12 in1020.0 mb 0.00 in0.0 mm 0.00 in0.0 mm 0.00 in0.0 mm
07:22 AM 82.9°F28.3°C 75.4°F24.1°C 78% 6.9 mph ENE11.1 kmh ENE 6.0 mph9.7 kmh 30.12 in1020.0 mb 0.00 in0.0 mm 0.00 in0.0 mm 0.00 in0.0 mm
07:23 AM 82.9°F28.3°C 75.4°F24.1°C 78% 6.0 mph ENE9.7 kmh ENE 14.0 mph22.5 kmh 30.12 in1020.0 mb 0.00 in0.0 mm 0.00 in0.0 mm 0.00 in0.0 mm
07:24 AM 82.9°F28.3°C 75.4°F24.1°C 78% 6.0 mph ENE9.7 kmh ENE 13.0 mph20.9 kmh 30.12 in1020.0 mb 0.00 in0.0 mm 0.00 in0.0 mm 0.00 in0.0 mm
07:25 AM 82.9°F28.3°C 75.4°F24.1°C 78% 6.0 mph E9.7 kmh E 13.0 mph20.9 kmh 30.12 in1020.0 mb 0.00 in0.0 mm 0.00 in0.0 mm 0.00 in0.0 mm
07:26 AM 82.9°F28.3°C 75.4°F24.1°C 78% 6.0 mph NE9.7 kmh NE 8.1 mph13.0 kmh 30.12 in1020.0 mb 0.00 in0.0 mm 0.00 in0.0 mm 0.00 in0.0 mm
07:27 AM 83.1°F28.4°C 75.6°F24.2°C 78% 6.0 mph NE9.7 kmh NE 11.0 mph17.7 kmh 30.12 in1020.0 mb 0.00 in0.0 mm 0.00 in0.0 mm 0.00 in0.0 mm
07:28 AM 83.1°F28.4°C 75.6°F24.2°C 78% 6.0 mph ENE9.7 kmh ENE 15.0 mph24.1 kmh 30.12 in1020.0 mb 0.00 in0.0 mm 0.00 in0.0 mm 0.00 in0.0 mm
07:29 AM 82.9°F28.3°C 75.0°F23.9°C 77% 6.0 mph NE9.7 kmh NE 17.0 mph27.4 kmh 30.12 in1020.0 mb 0.00 in0.0 mm 0.00 in0.0 mm 0.00 in0.0 mm
07:30 AM 82.9°F28.3°C 75.4°F24.1°C 78% 6.9 mph ENE11.1 kmh ENE 17.0 mph27.4 kmh 30.11 in1019.6 mb 0.00 in0.0 mm 0.00 in0.0 mm 0.00 in0.0 mm
07:31 AM 82.9°F28.3°C 75.4°F24.1°C 78% 6.9 mph E11.1 kmh E 12.1 mph19.5 kmh 30.11 in1019.6 mb 0.00 in0.0 mm 0.00 in0.0 mm 0.00 in0.0 mm
07:32 AM 82.9°F28.3°C 75.4°F24.1°C 78% 6.9 mph E11.1 kmh E 10.1 mph16.3 kmh 30.11 in1019.6 mb 0.00 in0.0 mm 0.00 in0.0 mm 0.00 in0.0 mm
07:33 AM 82.9°F28.3°C 75.4°F24.1°C 78% 6.9 mph E11.1 kmh E 13.0 mph20.9 kmh 30.11 in1019.6 mb 0.00 in0.0 mm 0.00 in0.0 mm 0.00 in0.0 mm
07:34 AM 82.9°F28.3°C 75.7°F24.3°C 79% 6.9 mph ESE11.1 kmh ESE 8.9 mph14.3 kmh 30.11 in1019.6 mb 0.00 in0.0 mm 0.00 in0.0 mm 0.00 in0.0 mm
07:35 AM 82.9°F28.3°C 75.7°F24.3°C 79% 6.0 mph ENE9.7 kmh ENE 8.1 mph13.0 kmh 30.11 in1019.6 mb 0.00 in0.0 mm 0.00 in0.0 mm 0.00 in0.0 mm
07:36 AM 82.9°F28.3°C 75.7°F24.3°C 79% 6.0 mph NE9.7 kmh NE 14.1 mph22.7 kmh 30.11 in1019.6 mb 0.00 in0.0 mm 0.00 in0.0 mm 0.00 in0.0 mm
07:37 AM 82.9°F28.3°C 75.7°F24.3°C 79% 6.9 mph ENE11.1 kmh ENE 14.1 mph22.7 kmh 30.11 in1019.6 mb 0.00 in0.0 mm 0.00 in0.0 mm 0.00 in0.0 mm
07:38 AM 82.9°F28.3°C 75.7°F24.3°C 79% 6.9 mph ESE11.1 kmh ESE 14.1 mph22.7 kmh 30.12 in1020.0 mb 0.00 in0.0 mm 0.00 in0.0 mm 0.00 in0.0 mm
07:39 AM 82.9°F28.3°C 75.7°F24.3°C 79% 6.0 mph E9.7 kmh E 17.0 mph27.4 kmh 30.12 in1020.0 mb 0.00 in0.0 mm 0.00 in0.0 mm 0.00 in0.0 mm
07:40 AM 82.9°F28.3°C 75.7°F24.3°C 79% 6.0 mph ENE9.7 kmh ENE 17.0 mph27.4 kmh 30.11 in1019.6 mb 0.00 in0.0 mm 0.00 in0.0 mm 0.00 in0.0 mm
07:41 AM 83.1°F28.4°C 75.9°F24.4°C 79% 6.0 mph NE9.7 kmh NE 14.1 mph22.7 kmh 30.12 in1020.0 mb 0.00 in0.0 mm 0.00 in0.0 mm 0.00 in0.0 mm
07:42 AM 83.1°F28.4°C 75.6°F24.2°C 78% 6.0 mph ENE9.7 kmh ENE 16.1 mph25.9 kmh 30.11 in1019.6 mb 0.00 in0.0 mm 0.00 in0.0 mm 0.00 in0.0 mm
07:43 AM 83.1°F28.4°C 75.6°F24.2°C 78% 6.0 mph E9.7 kmh E 14.1 mph22.7 kmh 30.11 in1019.6 mb 0.00 in0.0 mm 0.00 in0.0 mm 0.00 in0.0 mm
07:44 AM 83.3°F28.5°C 75.7°F24.3°C 78% 6.9 mph E11.1 kmh E 13.0 mph20.9 kmh 30.11 in1019.6 mb 0.00 in0.0 mm 0.00 in0.0 mm 0.00 in0.0 mm
07:45 AM 83.5°F28.6°C 75.9°F24.4°C 78% 6.9 mph NE11.1 kmh NE 12.1 mph19.5 kmh 30.11 in1019.6 mb 0.00 in0.0 mm 0.00 in0.0 mm 0.00 in0.0 mm
07:46 AM 83.7°F28.7°C 76.1°F24.5°C 78% 8.1 mph ENE13.0 kmh ENE 14.1 mph22.7 kmh 30.11 in1019.6 mb 0.00 in0.0 mm 0.00 in0.0 mm 0.00 in0.0 mm
07:48 AM 83.8°F28.8°C 76.3°F24.6°C 78% 8.1 mph ENE13.0 kmh ENE 14.1 mph22.7 kmh 30.11 in1019.6 mb 0.00 in0.0 mm 0.00 in0.0 mm 0.00 in0.0 mm
07:49 AM 83.8°F28.8°C 75.9°F24.4°C 77% 6.9 mph NE11.1 kmh NE 14.1 mph22.7 kmh 30.11 in1019.6 mb 0.00 in0.0 mm 0.00 in0.0 mm 0.00 in0.0 mm
07:50 AM 84.0°F28.9°C 76.1°F24.5°C 77% 8.1 mph E13.0 kmh E 13.0 mph20.9 kmh 30.11 in1019.6 mb 0.00 in0.0 mm 0.00 in0.0 mm 0.00 in0.0 mm
07:51 AM 84.2°F29.0°C 76.3°F24.6°C 77% 8.1 mph E13.0 kmh E 14.1 mph22.7 kmh 30.11 in1019.6 mb 0.00 in0.0 mm 0.00 in0.0 mm 0.00 in0.0 mm
07:52 AM 84.4°F29.1°C 75.9°F24.4°C 76% 8.1 mph NE13.0 kmh NE 16.1 mph25.9 kmh 30.12 in1020.0 mb 0.00 in0.0 mm 0.00 in0.0 mm 0.00 in0.0 mm
07:53 AM 84.4°F29.1°C 75.9°F24.4°C 76% 8.1 mph NNE13.0 kmh NNE 16.0 mph25.7 kmh 30.11 in1019.6 mb 0.00 in0.0 mm 0.00 in0.0 mm 0.00 in0.0 mm
07:54 AM 84.4°F29.1°C 75.9°F24.4°C 76% 8.1 mph ENE13.0 kmh ENE 8.9 mph14.3 kmh 30.11 in1019.6 mb 0.00 in0.0 mm 0.00 in0.0 mm 0.00 in0.0 mm
07:55 AM 84.6°F29.2°C 76.1°F24.5°C 76% 8.1 mph ENE13.0 kmh ENE 8.9 mph14.3 kmh 30.11 in1019.6 mb 0.00 in0.0 mm 0.00 in0.0 mm 0.00 in0.0 mm
07:56 AM 84.6°F29.2°C 76.1°F24.5°C 76% 6.9 mph E11.1 kmh E 6.0 mph9.7 kmh 30.11 in1019.6 mb 0.00 in0.0 mm 0.00 in0.0 mm 0.00 in0.0 mm
07:57 AM 84.7°F29.3°C 76.3°F24.6°C 76% 6.9 mph NE11.1 kmh NE 13.0 mph20.9 kmh 30.11 in1019.6 mb 0.00 in0.0 mm 0.00 in0.0 mm 0.00 in0.0 mm
07:58 AM 84.7°F29.3°C 76.3°F24.6°C 76% 6.9 mph ENE11.1 kmh ENE 8.9 mph14.3 kmh 30.11 in1019.6 mb 0.00 in0.0 mm 0.00 in0.0 mm 0.00 in0.0 mm
07:59 AM 84.9°F29.4°C 76.8°F24.9°C 77% 6.9 mph NE11.1 kmh NE 8.9 mph14.3 kmh 30.11 in1019.6 mb 0.00 in0.0 mm 0.00 in0.0 mm 0.00 in0.0 mm
08:00 AM 84.9°F29.4°C 76.5°F24.7°C 76% 6.0 mph E9.7 kmh E 6.9 mph11.1 kmh 30.12 in1020.0 mb 0.00 in0.0 mm 0.00 in0.0 mm 0.00 in0.0 mm
08:01 AM 85.1°F29.5°C 76.6°F24.8°C 76% 6.0 mph ENE9.7 kmh ENE 8.9 mph14.3 kmh 30.11 in1019.6 mb 0.00 in0.0 mm 0.00 in0.0 mm 0.00 in0.0 mm
08:02 AM 85.3°F29.6°C 77.2°F25.1°C 77% 4.9 mph E7.9 kmh E 13.0 mph20.9 kmh 30.11 in1019.6 mb 0.00 in0.0 mm 0.00 in0.0 mm 0.00 in0.0 mm
08:03 AM 85.3°F29.6°C 76.8°F24.9°C 76% 4.9 mph E7.9 kmh E 16.0 mph25.7 kmh 30.12 in1020.0 mb 0.00 in0.0 mm 0.00 in0.0 mm 0.00 in0.0 mm
08:04 AM 85.5°F29.7°C 76.6°F24.8°C 75% 4.9 mph ESE7.9 kmh ESE 12.1 mph19.5 kmh 30.12 in1020.0 mb 0.00 in0.0 mm 0.00 in0.0 mm 0.00 in0.0 mm
08:05 AM 85.5°F29.7°C 76.6°F24.8°C 75% 6.0 mph E9.7 kmh E 12.1 mph19.5 kmh 30.12 in1020.0 mb 0.00 in0.0 mm 0.00 in0.0 mm 0.00 in0.0 mm
08:06 AM 85.5°F29.7°C 76.6°F24.8°C 75% 6.0 mph NE9.7 kmh NE 13.0 mph20.9 kmh 30.12 in1020.0 mb 0.00 in0.0 mm 0.00 in0.0 mm 0.00 in0.0 mm
08:07 AM 85.6°F29.8°C 76.8°F24.9°C 75% 6.0 mph ENE9.7 kmh ENE 14.1 mph22.7 kmh 30.12 in1020.0 mb 0.00 in0.0 mm 0.00 in0.0 mm 0.00 in0.0 mm
08:08 AM 85.6°F29.8°C 76.5°F24.7°C 74% 6.9 mph ESE11.1 kmh ESE 15.0 mph24.1 kmh 30.12 in1020.0 mb 0.00 in0.0 mm 0.00 in0.0 mm 0.00 in0.0 mm
08:09 AM 85.6°F29.8°C 76.5°F24.7°C 74% 6.9 mph NE11.1 kmh NE 15.0 mph24.1 kmh 30.12 in1020.0 mb 0.00 in0.0 mm 0.00 in0.0 mm 0.00 in0.0 mm
08:10 AM 85.6°F29.8°C 76.5°F24.7°C 74% 6.9 mph NNE11.1 kmh NNE 11.0 mph17.7 kmh 30.12 in1020.0 mb 0.00 in0.0 mm 0.00 in0.0 mm 0.00 in0.0 mm
08:11 AM 85.6°F29.8°C 76.8°F24.9°C 75% 8.1 mph NE13.0 kmh NE 14.1 mph22.7 kmh 30.12 in1020.0 mb 0.00 in0.0 mm 0.00 in0.0 mm 0.00 in0.0 mm
08:12 AM 85.6°F29.8°C 76.8°F24.9°C 75% 8.1 mph NE13.0 kmh NE 16.1 mph25.9 kmh 30.12 in1020.0 mb 0.00 in0.0 mm 0.00 in0.0 mm 0.00 in0.0 mm
08:13 AM 85.6°F29.8°C 76.5°F24.7°C 74% 8.9 mph ENE14.3 kmh ENE 14.1 mph22.7 kmh 30.12 in1020.0 mb 0.00 in0.0 mm 0.00 in0.0 mm 0.00 in0.0 mm
08:14 AM 85.5°F29.7°C 76.3°F24.6°C 74% 8.9 mph E14.3 kmh E 14.1 mph22.7 kmh 30.12 in1020.0 mb 0.00 in0.0 mm 0.00 in0.0 mm 0.00 in0.0 mm
08:15 AM 85.5°F29.7°C 76.6°F24.8°C 75% 8.9 mph NE14.3 kmh NE 16.1 mph25.9 kmh 30.12 in1020.0 mb 0.00 in0.0 mm 0.00 in0.0 mm 0.00 in0.0 mm
08:16 AM 85.5°F29.7°C 75.7°F24.3°C 73% 8.9 mph ENE14.3 kmh ENE 15.0 mph24.1 kmh 30.12 in1020.0 mb 0.00 in0.0 mm 0.00 in0.0 mm 0.00 in0.0 mm
08:17 AM 85.5°F29.7°C 75.7°F24.3°C 73% 8.9 mph E14.3 kmh E 12.1 mph19.5 kmh 30.12 in1020.0 mb 0.00 in0.0 mm 0.00 in0.0 mm 0.00 in0.0 mm
08:18 AM 85.5°F29.7°C 76.3°F24.6°C 74% 8.9 mph E14.3 kmh E 12.1 mph19.5 kmh 30.11 in1019.6 mb 0.00 in0.0 mm 0.00 in0.0 mm 0.00 in0.0 mm
08:19 AM 85.5°F29.7°C 76.3°F24.6°C 74% 8.9 mph E14.3 kmh E 10.1 mph16.3 kmh 30.11 in1019.6 mb 0.00 in0.0 mm 0.00 in0.0 mm 0.00 in0.0 mm
08:20 AM 85.6°F29.8°C 76.5°F24.7°C 74% 8.1 mph E13.0 kmh E 15.0 mph24.1 kmh 30.12 in1020.0 mb 0.00 in0.0 mm 0.00 in0.0 mm 0.00 in0.0 mm
08:21 AM 85.6°F29.8°C 76.8°F24.9°C 75% 8.1 mph E13.0 kmh E 15.0 mph24.1 kmh 30.11 in1019.6 mb 0.00 in0.0 mm 0.00 in0.0 mm 0.00 in0.0 mm
08:22 AM 85.8°F29.9°C 76.1°F24.5°C 73% 8.1 mph ENE13.0 kmh ENE 15.0 mph24.1 kmh 30.11 in1019.6 mb 0.00 in0.0 mm 0.00 in0.0 mm 0.00 in0.0 mm
08:23 AM 85.8°F29.9°C 76.1°F24.5°C 73% 8.1 mph E13.0 kmh E 15.0 mph24.1 kmh 30.11 in1019.6 mb 0.00 in0.0 mm 0.00 in0.0 mm 0.00 in0.0 mm
08:24 AM 85.8°F29.9°C 76.1°F24.5°C 73% 8.1 mph ENE13.0 kmh ENE 16.1 mph25.9 kmh 30.12 in1020.0 mb 0.00 in0.0 mm 0.00 in0.0 mm 0.00 in0.0 mm
08:25 AM 85.8°F29.9°C 76.1°F24.5°C 73% 8.1 mph NNE13.0 kmh NNE 16.1 mph25.9 kmh 30.12 in1020.0 mb 0.00 in0.0 mm 0.00 in0.0 mm 0.00 in0.0 mm
08:26 AM 86.0°F30.0°C 76.3°F24.6°C 73% 8.1 mph E13.0 kmh E 15.0 mph24.1 kmh 30.12 in1020.0 mb 0.00 in0.0 mm 0.00 in0.0 mm 0.00 in0.0 mm
08:27 AM 86.0°F30.0°C 76.3°F24.6°C 73% 8.1 mph ESE13.0 kmh ESE 14.1 mph22.7 kmh 30.11 in1019.6 mb 0.00 in0.0 mm 0.00 in0.0 mm 0.00 in0.0 mm
08:28 AM 86.0°F30.0°C 75.9°F24.4°C 72% 8.1 mph NE13.0 kmh NE 13.0 mph20.9 kmh 30.11 in1019.6 mb 0.00 in0.0 mm 0.00 in0.0 mm 0.00 in0.0 mm
08:29 AM 86.2°F30.1°C 76.5°F24.7°C 73% 8.1 mph SE13.0 kmh SE 8.1 mph13.0 kmh 30.11 in1019.6 mb 0.00 in0.0 mm 0.00 in0.0 mm 0.00 in0.0 mm
08:30 AM 86.2°F30.1°C 76.5°F24.7°C 73% 8.1 mph ENE13.0 kmh ENE 8.9 mph14.3 kmh 30.11 in1019.6 mb 0.00 in0.0 mm 0.00 in0.0 mm 0.00 in0.0 mm
08:31 AM 86.2°F30.1°C 76.5°F24.7°C 73% 8.1 mph ENE13.0 kmh ENE 15.0 mph24.1 kmh 30.11 in1019.6 mb 0.00 in0.0 mm 0.00 in0.0 mm 0.00 in0.0 mm
08:32 AM 86.2°F30.1°C 76.5°F24.7°C 73% 8.1 mph E13.0 kmh E 15.0 mph24.1 kmh 30.12 in1020.0 mb 0.00 in0.0 mm 0.00 in0.0 mm 0.00 in0.0 mm
08:33 AM 86.0°F30.0°C 76.3°F24.6°C 73% 8.1 mph N13.0 kmh N 14.1 mph22.7 kmh 30.12 in1020.0 mb 0.00 in0.0 mm 0.00 in0.0 mm 0.00 in0.0 mm
08:34 AM 86.0°F30.0°C 76.3°F24.6°C 73% 8.1 mph E13.0 kmh E 16.0 mph25.7 kmh 30.12 in1020.0 mb 0.00 in0.0 mm 0.00 in0.0 mm 0.00 in0.0 mm
08:35 AM 85.8°F29.9°C 76.1°F24.5°C 73% 6.9 mph E11.1 kmh E 16.0 mph25.7 kmh 30.12 in1020.0 mb 0.00 in0.0 mm 0.00 in0.0 mm 0.00 in0.0 mm
08:36 AM 85.8°F29.9°C 76.1°F24.5°C 73% 6.9 mph NE11.1 kmh NE 13.0 mph20.9 kmh 30.12 in1020.0 mb 0.00 in0.0 mm 0.00 in0.0 mm 0.00 in0.0 mm
08:37 AM 85.6°F29.8°C 75.9°F24.4°C 73% 6.9 mph SE11.1 kmh SE 14.1 mph22.7 kmh 30.12 in1020.0 mb 0.00 in0.0 mm 0.00 in0.0 mm 0.00 in0.0 mm
08:38 AM 85.5°F29.7°C 76.3°F24.6°C 74% 6.9 mph NE11.1 kmh NE 13.0 mph20.9 kmh 30.12 in1020.0 mb 0.00 in0.0 mm 0.00 in0.0 mm 0.00 in0.0 mm
08:39 AM 85.5°F29.7°C 75.4°F24.1°C 72% 8.1 mph E13.0 kmh E 16.1 mph25.9 kmh 30.12 in1020.0 mb 0.00 in0.0 mm 0.00 in0.0 mm 0.00 in0.0 mm
08:40 AM 85.5°F29.7°C 75.4°F24.1°C 72% 8.1 mph ENE13.0 kmh ENE 17.0 mph27.4 kmh 30.12 in1020.0 mb 0.00 in0.0 mm 0.00 in0.0 mm 0.00 in0.0 mm
08:41 AM 85.5°F29.7°C 75.4°F24.1°C 72% 8.1 mph NE13.0 kmh NE 17.0 mph27.4 kmh 30.12 in1020.0 mb 0.00 in0.0 mm 0.00 in0.0 mm 0.00 in0.0 mm
08:42 AM 85.5°F29.7°C 75.4°F24.1°C 72% 8.1 mph E13.0 kmh E 15.0 mph24.1 kmh 30.12 in1020.0 mb 0.00 in0.0 mm 0.00 in0.0 mm 0.00 in0.0 mm
08:43 AM 85.5°F29.7°C 75.7°F24.3°C 73% 8.1 mph NE13.0 kmh NE 10.1 mph16.3 kmh 30.12 in1020.0 mb 0.00 in0.0 mm 0.00 in0.0 mm 0.00 in0.0 mm
08:44 AM 85.5°F29.7°C 75.7°F24.3°C 73% 8.1 mph NE13.0 kmh NE 11.0 mph17.7 kmh 30.12 in1020.0 mb 0.00 in0.0 mm 0.00 in0.0 mm 0.00 in0.0 mm
08:45 AM 85.5°F29.7°C 75.7°F24.3°C 73% 8.1 mph E13.0 kmh E 14.1 mph22.7 kmh 30.12 in1020.0 mb 0.00 in0.0 mm 0.00 in0.0 mm 0.00 in0.0 mm
08:46 AM 85.5°F29.7°C 75.7°F24.3°C 73% 8.1 mph NE13.0 kmh NE 14.1 mph22.7 kmh 30.12 in1020.0 mb 0.00 in0.0 mm 0.00 in0.0 mm 0.00 in0.0 mm
08:47 AM 85.5°F29.7°C 75.7°F24.3°C 73% 8.1 mph ENE13.0 kmh ENE 15.0 mph24.1 kmh 30.12 in1020.0 mb 0.00 in0.0 mm 0.00 in0.0 mm 0.00 in0.0 mm
08:48 AM 85.5°F29.7°C 75.7°F24.3°C 73% 8.9 mph NE14.3 kmh NE 12.1 mph19.5 kmh 30.12 in1020.0 mb 0.00 in0.0 mm 0.00 in0.0 mm 0.00 in0.0 mm
08:49 AM 85.5°F29.7°C 76.3°F24.6°C 74% 8.1 mph ENE13.0 kmh ENE 13.0 mph20.9 kmh 30.12 in1020.0 mb 0.00 in0.0 mm 0.00 in0.0 mm 0.00 in0.0 mm
08:50 AM 85.5°F29.7°C 76.3°F24.6°C 74% 8.1 mph E13.0 kmh E 13.0 mph20.9 kmh 30.12 in1020.0 mb 0.00 in0.0 mm 0.00 in0.0 mm 0.00 in0.0 mm
08:51 AM 85.5°F29.7°C 76.3°F24.6°C 74% 8.1 mph E13.0 kmh E 12.1 mph19.5 kmh 30.12 in1020.0 mb 0.00 in0.0 mm 0.00 in0.0 mm 0.00 in0.0 mm
08:52 AM 85.5°F29.7°C 75.7°F24.3°C 73% 8.1 mph NE13.0 kmh NE 15.0 mph24.1 kmh 30.12 in1020.0 mb 0.00 in0.0 mm 0.00 in0.0 mm 0.00 in0.0 mm
08:53 AM 85.5°F29.7°C 75.7°F24.3°C 73% 8.9 mph ENE14.3 kmh ENE 12.1 mph19.5 kmh 30.12 in1020.0 mb 0.00 in0.0 mm 0.00 in0.0 mm 0.00 in0.0 mm
08:54 AM 85.5°F29.7°C 75.7°F24.3°C 73% 8.1 mph ESE13.0 kmh ESE 12.1 mph19.5 kmh 30.12 in1020.0 mb 0.00 in0.0 mm 0.00 in0.0 mm 0.00 in0.0 mm
08:55 AM 85.5°F29.7°C 76.3°F24.6°C 74% 8.1 mph NE13.0 kmh NE 15.0 mph24.1 kmh 30.12 in1020.0 mb 0.00 in0.0 mm 0.00 in0.0 mm 0.00 in0.0 mm
08:56 AM 85.5°F29.7°C 76.3°F24.6°C 74% 8.1 mph E13.0 kmh E 17.0 mph27.4 kmh 30.12 in1020.0 mb 0.00 in0.0 mm 0.00 in0.0 mm 0.00 in0.0 mm
08:57 AM 85.6°F29.8°C 76.5°F24.7°C 74% 8.9 mph NE14.3 kmh NE 17.0 mph27.4 kmh 30.12 in1020.0 mb 0.00 in0.0 mm 0.00 in0.0 mm 0.00 in0.0 mm
08:58 AM 85.5°F29.7°C 76.3°F24.6°C 74% 8.9 mph ESE14.3 kmh ESE 18.0 mph29.0 kmh 30.12 in1020.0 mb 0.00 in0.0 mm 0.00 in0.0 mm 0.00 in0.0 mm
08:59 AM 85.6°F29.8°C 76.8°F24.9°C 75% 8.9 mph ENE14.3 kmh ENE 18.0 mph29.0 kmh 30.12 in1020.0 mb 0.00 in0.0 mm 0.00 in0.0 mm 0.00 in0.0 mm
09:00 AM 85.5°F29.7°C 76.3°F24.6°C 74% 8.9 mph NE14.3 kmh NE 11.0 mph17.7 kmh 30.12 in1020.0 mb 0.00 in0.0 mm 0.00 in0.0 mm 0.00 in0.0 mm
09:01 AM 85.5°F29.7°C 76.3°F24.6°C 74% 8.1 mph E13.0 kmh E 16.1 mph25.9 kmh 30.12 in1020.0 mb 0.00 in0.0 mm 0.00 in0.0 mm 0.00 in0.0 mm
09:02 AM 85.5°F29.7°C 76.3°F24.6°C 74% 8.9 mph ENE14.3 kmh ENE 16.1 mph25.9 kmh 30.12 in1020.0 mb 0.00 in0.0 mm 0.00 in0.0 mm 0.00 in0.0 mm
09:03 AM 85.5°F29.7°C 76.3°F24.6°C 74% 8.9 mph ENE14.3 kmh ENE 16.1 mph25.9 kmh 30.12 in1020.0 mb 0.00 in0.0 mm 0.00 in0.0 mm 0.00 in0.0 mm
09:04 AM 85.5°F29.7°C 76.6°F24.8°C 75% 8.9 mph E14.3 kmh E 16.1 mph25.9 kmh 30.12 in1020.0 mb 0.00 in0.0 mm 0.00 in0.0 mm 0.00 in0.0 mm
09:05 AM 85.5°F29.7°C 77.0°F25.0°C 76% 8.9 mph E14.3 kmh E 15.0 mph24.1 kmh 30.12 in1020.0 mb 0.00 in0.0 mm 0.00 in0.0 mm 0.00 in0.0 mm
09:06 AM 85.5°F29.7°C 77.0°F25.0°C 76% 8.9 mph NE14.3 kmh NE 15.0 mph24.1 kmh 30.12 in1020.0 mb 0.00 in0.0 mm 0.00 in0.0 mm 0.00 in0.0 mm
09:07 AM 85.5°F29.7°C 77.4°F25.2°C 77% 8.9 mph E14.3 kmh E 18.0 mph29.0 kmh 30.12 in1020.0 mb 0.00 in0.0 mm 0.00 in0.0 mm 0.00 in0.0 mm
09:08 AM 85.6°F29.8°C 77.5°F25.3°C 77% 8.9 mph ENE14.3 kmh ENE 18.0 mph29.0 kmh 30.12 in1020.0 mb 0.00 in0.0 mm 0.00 in0.0 mm 0.00 in0.0 mm
09:09 AM 85.6°F29.8°C 77.2°F25.1°C 76% 8.9 mph ENE14.3 kmh ENE 18.0 mph29.0 kmh 30.12 in1020.0 mb 0.00 in0.0 mm 0.00 in0.0 mm 0.00 in0.0 mm
09:10 AM 85.6°F29.8°C 77.5°F25.3°C 77% 8.9 mph NE14.3 kmh NE 11.0 mph17.7 kmh 30.12 in1020.0 mb 0.00 in0.0 mm 0.00 in0.0 mm 0.00 in0.0 mm
09:11 AM 85.8°F29.9°C 77.7°F25.4°C 77% 8.9 mph ENE14.3 kmh ENE 10.1 mph16.3 kmh 30.12 in1020.0 mb 0.00 in0.0 mm 0.00 in0.0 mm 0.00 in0.0 mm
09:12 AM 85.8°F29.9°C 77.4°F25.2°C 76% 8.1 mph E13.0 kmh E 10.1 mph16.3 kmh 30.12 in1020.0 mb 0.00 in0.0 mm 0.00 in0.0 mm 0.00 in0.0 mm
09:13 AM 86.0°F30.0°C 77.9°F25.5°C 77% 8.1 mph NE13.0 kmh NE 13.0 mph20.9 kmh 30.13 in1020.3 mb 0.00 in0.0 mm 0.00 in0.0 mm 0.00 in0.0 mm
09:14 AM 86.0°F30.0°C 76.3°F24.6°C 73% 8.1 mph NNE13.0 kmh NNE 17.0 mph27.4 kmh 30.13 in1020.3 mb 0.00 in0.0 mm 0.00 in0.0 mm 0.00 in0.0 mm
09:15 AM 86.2°F30.1°C 76.1°F24.5°C 72% 8.1 mph E13.0 kmh E 16.1 mph25.9 kmh 30.13 in1020.3 mb 0.00 in0.0 mm 0.00 in0.0 mm 0.00 in0.0 mm
09:16 AM 86.2°F30.1°C 76.1°F24.5°C 72% 8.1 mph 13.0 kmh 16.1 mph25.9 kmh 30.13 in1020.3 mb 0.00 in0.0 mm 0.00 in0.0 mm 0.00 in0.0 mm
09:17 AM 86.2°F30.1°C 76.1°F24.5°C 72% 8.1 mph NE13.0 kmh NE 18.0 mph29.0 kmh 30.13 in1020.3 mb 0.00 in0.0 mm 0.00 in0.0 mm 0.00 in0.0 mm
09:18 AM 86.2°F30.1°C 76.5°F24.7°C 73% 8.9 mph NNE14.3 kmh NNE 18.0 mph29.0 kmh 30.12 in1020.0 mb 0.00 in0.0 mm 0.00 in0.0 mm 0.00 in0.0 mm
09:19 AM 86.0°F30.0°C 76.3°F24.6°C 73% 8.9 mph E14.3 kmh E 17.9 mph28.8 kmh 30.13 in1020.3 mb 0.00 in0.0 mm 0.00 in0.0 mm 0.00 in0.0 mm
09:20 AM 85.8°F29.9°C 76.1°F24.5°C 73% 10.1 mph ENE16.3 kmh ENE 17.9 mph28.8 kmh 30.13 in1020.3 mb 0.00 in0.0 mm 0.00 in0.0 mm 0.00 in0.0 mm
09:21 AM 85.8°F29.9°C 76.1°F24.5°C 73% 10.1 mph ENE16.3 kmh ENE 12.1 mph19.5 kmh 30.13 in1020.3 mb 0.00 in0.0 mm 0.00 in0.0 mm 0.00 in0.0 mm
09:22 AM 85.8°F29.9°C 76.6°F24.8°C 74% 11.0 mph E17.7 kmh E 15.0 mph24.1 kmh 30.13 in1020.3 mb 0.00 in0.0 mm 0.00 in0.0 mm 0.00 in0.0 mm
09:23 AM 85.8°F29.9°C 76.6°F24.8°C 74% 11.0 mph E17.7 kmh E 17.9 mph28.8 kmh 30.13 in1020.3 mb 0.00 in0.0 mm 0.00 in0.0 mm 0.00 in0.0 mm
09:24 AM 85.8°F29.9°C 76.6°F24.8°C 74% 10.1 mph E16.3 kmh E 15.0 mph24.1 kmh 30.13 in1020.3 mb 0.00 in0.0 mm 0.00 in0.0 mm 0.00 in0.0 mm
09:25 AM 85.8°F29.9°C 77.0°F25.0°C 75% 10.1 mph E16.3 kmh E 11.0 mph17.7 kmh 30.13 in1020.3 mb 0.00 in0.0 mm 0.00 in0.0 mm 0.00 in0.0 mm
09:26 AM 85.8°F29.9°C 77.0°F25.0°C 75% 8.9 mph ENE14.3 kmh ENE 10.1 mph16.3 kmh 30.13 in1020.3 mb 0.00 in0.0 mm 0.00 in0.0 mm 0.00 in0.0 mm
09:27 AM 85.8°F29.9°C 77.0°F25.0°C 75% 8.9 mph ESE14.3 kmh ESE 13.0 mph20.9 kmh 30.13 in1020.3 mb 0.00 in0.0 mm 0.00 in0.0 mm 0.00 in0.0 mm
09:28 AM 85.8°F29.9°C 77.0°F25.0°C 75% 8.9 mph ENE14.3 kmh ENE 12.1 mph19.5 kmh 30.13 in1020.3 mb 0.00 in0.0 mm 0.00 in0.0 mm 0.00 in0.0 mm
09:29 AM 85.8°F29.9°C 77.0°F25.0°C 75% 8.9 mph NE14.3 kmh NE 13.0 mph20.9 kmh 30.13 in1020.3 mb 0.00 in0.0 mm 0.00 in0.0 mm 0.00 in0.0 mm
09:30 AM 86.0°F30.0°C 77.2°F25.1°C 75% 8.1 mph NE13.0 kmh NE 13.0 mph20.9 kmh 30.13 in1020.3 mb 0.00 in0.0 mm 0.00 in0.0 mm 0.00 in0.0 mm
09:31 AM 86.0°F30.0°C 77.5°F25.3°C 76% 8.1 mph NE13.0 kmh NE 11.0 mph17.7 kmh 30.13 in1020.3 mb 0.00 in0.0 mm 0.00 in0.0 mm 0.00 in0.0 mm
09:32 AM 86.0°F30.0°C 77.5°F25.3°C 76% 6.9 mph NE11.1 kmh NE 18.0 mph29.0 kmh 30.13 in1020.3 mb 0.00 in0.0 mm 0.00 in0.0 mm 0.00 in0.0 mm
09:33 AM 86.2°F30.1°C 77.7°F25.4°C 76% 6.9 mph ESE11.1 kmh ESE 18.0 mph29.0 kmh 30.13 in1020.3 mb 0.00 in0.0 mm 0.00 in0.0 mm 0.00 in0.0 mm
09:34 AM 86.2°F30.1°C 78.1°F25.6°C 77% 6.9 mph E11.1 kmh E 18.0 mph29.0 kmh 30.13 in1020.3 mb 0.00 in0.0 mm 0.00 in0.0 mm 0.00 in0.0 mm
09:35 AM 86.2°F30.1°C 78.4°F25.8°C 78% 6.9 mph SE11.1 kmh SE 10.1 mph16.3 kmh 30.13 in1020.3 mb 0.00 in0.0 mm 0.00 in0.0 mm 0.00 in0.0 mm
09:36 AM 86.4°F30.2°C 78.3°F25.7°C 77% 6.9 mph ENE11.1 kmh ENE 12.1 mph19.5 kmh 30.13 in1020.3 mb 0.00 in0.0 mm 0.00 in0.0 mm 0.00 in0.0 mm
09:37 AM 86.5°F30.3°C 78.4°F25.8°C 77% 6.9 mph N11.1 kmh N 8.9 mph14.3 kmh 30.13 in1020.3 mb 0.00 in0.0 mm 0.00 in0.0 mm 0.00 in0.0 mm
09:38 AM 86.5°F30.3°C 78.1°F25.6°C 76% 6.9 mph NE11.1 kmh NE 14.1 mph22.7 kmh 30.13 in1020.3 mb 0.00 in0.0 mm 0.00 in0.0 mm 0.00 in0.0 mm
09:39 AM 86.5°F30.3°C 78.1°F25.6°C 76% 6.9 mph E11.1 kmh E 12.1 mph19.5 kmh 30.13 in1020.3 mb 0.00 in0.0 mm 0.00 in0.0 mm 0.00 in0.0 mm
09:40 AM 86.5°F30.3°C 78.1°F25.6°C 76% 6.9 mph NE11.1 kmh NE 12.1 mph19.5 kmh 30.13 in1020.3 mb 0.00 in0.0 mm 0.00 in0.0 mm 0.00 in0.0 mm
09:41 AM 86.5°F30.3°C 78.1°F25.6°C 76% 6.9 mph NE11.1 kmh NE 13.0 mph20.9 kmh 30.13 in1020.3 mb 0.00 in0.0 mm 0.00 in0.0 mm 0.00 in0.0 mm
09:42 AM 86.5°F30.3°C 77.7°F25.4°C 75% 6.9 mph NE11.1 kmh NE 16.1 mph25.9 kmh 30.13 in1020.3 mb 0.00 in0.0 mm 0.00 in0.0 mm 0.00 in0.0 mm
09:43 AM 86.5°F30.3°C 77.7°F25.4°C 75% 6.9 mph ENE11.1 kmh ENE 13.0 mph20.9 kmh 30.13 in1020.3 mb 0.00 in0.0 mm 0.00 in0.0 mm 0.00 in0.0 mm
09:44 AM 86.5°F30.3°C 77.2°F25.1°C 74% 6.9 mph E11.1 kmh E 13.0 mph20.9 kmh 30.13 in1020.3 mb 0.00 in0.0 mm 0.00 in0.0 mm 0.00 in0.0 mm
09:45 AM 86.5°F30.3°C 77.7°F25.4°C 75% 6.9 mph NE11.1 kmh NE 14.1 mph22.7 kmh 30.13 in1020.3 mb 0.00 in0.0 mm 0.00 in0.0 mm 0.00 in0.0 mm
09:46 AM 86.7°F30.4°C 77.4°F25.2°C 74% 8.1 mph E13.0 kmh E 14.1 mph22.7 kmh 30.13 in1020.3 mb 0.00 in0.0 mm 0.00 in0.0 mm 0.00 in0.0 mm
09:47 AM 86.7°F30.4°C 77.4°F25.2°C 74% 8.1 mph E13.0 kmh E 12.1 mph19.5 kmh 30.13 in1020.3 mb 0.00 in0.0 mm 0.00 in0.0 mm 0.00 in0.0 mm
09:48 AM 86.7°F30.4°C 77.4°F25.2°C 74% 8.1 mph E13.0 kmh E 13.0 mph20.9 kmh 30.13 in1020.3 mb 0.00 in0.0 mm 0.00 in0.0 mm 0.00 in0.0 mm
09:49 AM 86.7°F30.4°C 77.0°F25.0°C 73% 8.1 mph ENE13.0 kmh ENE 15.0 mph24.1 kmh 30.13 in1020.3 mb 0.00 in0.0 mm 0.00 in0.0 mm 0.00 in0.0 mm
09:50 AM 86.9°F30.5°C 77.2°F25.1°C 73% 8.1 mph NE13.0 kmh NE 18.0 mph29.0 kmh 30.13 in1020.3 mb 0.00 in0.0 mm 0.00 in0.0 mm 0.00 in0.0 mm
09:51 AM 86.9°F30.5°C 77.2°F25.1°C 73% 8.1 mph NE13.0 kmh NE 18.0 mph29.0 kmh 30.13 in1020.3 mb 0.00 in0.0 mm 0.00 in0.0 mm 0.00 in0.0 mm
09:52 AM 86.9°F30.5°C 77.2°F25.1°C 73% 8.1 mph ENE13.0 kmh ENE 15.0 mph24.1 kmh 30.13 in1020.3 mb 0.00 in0.0 mm 0.00 in0.0 mm 0.00 in0.0 mm
09:53 AM 86.7°F30.4°C 77.0°F25.0°C 73% 8.9 mph E14.3 kmh E 17.0 mph27.4 kmh 30.13 in1020.3 mb 0.00 in0.0 mm 0.00 in0.0 mm 0.00 in0.0 mm
09:54 AM 86.7°F30.4°C 77.0°F25.0°C 73% 8.9 mph NE14.3 kmh NE 17.0 mph27.4 kmh 30.13 in1020.3 mb 0.00 in0.0 mm 0.00 in0.0 mm 0.00 in0.0 mm
09:55 AM 86.5°F30.3°C 76.8°F24.9°C 73% 8.9 mph ENE14.3 kmh ENE 14.1 mph22.7 kmh 30.13 in1020.3 mb 0.00 in0.0 mm 0.00 in0.0 mm 0.00 in0.0 mm
09:56 AM 86.5°F30.3°C 77.2°F25.1°C 74% 8.9 mph NE14.3 kmh NE 14.1 mph22.7 kmh 30.13 in1020.3 mb 0.00 in0.0 mm 0.00 in0.0 mm 0.00 in0.0 mm
09:57 AM 86.4°F30.2°C 76.6°F24.8°C 73% 8.9 mph NE14.3 kmh NE 20.0 mph32.2 kmh 30.13 in1020.3 mb 0.00 in0.0 mm 0.00 in0.0 mm 0.00 in0.0 mm
09:58 AM 86.2°F30.1°C 76.5°F24.7°C 73% 10.1 mph NE16.3 kmh NE 20.0 mph32.2 kmh 30.13 in1020.3 mb 0.00 in0.0 mm 0.00 in0.0 mm 0.00 in0.0 mm
09:59 AM 86.2°F30.1°C 76.5°F24.7°C 73% 10.1 mph NE16.3 kmh NE 17.9 mph28.8 kmh 30.13 in1020.3 mb 0.00 in0.0 mm 0.00 in0.0 mm 0.00 in0.0 mm
10:00 AM 86.2°F30.1°C 77.0°F25.0°C 74% 10.1 mph E16.3 kmh E 16.1 mph25.9 kmh 30.13 in1020.3 mb 0.00 in0.0 mm 0.00 in0.0 mm 0.00 in0.0 mm
10:01 AM 86.0°F30.0°C 76.8°F24.9°C 74% 10.1 mph ESE16.3 kmh ESE 17.0 mph27.4 kmh 30.13 in1020.3 mb 0.00 in0.0 mm 0.00 in0.0 mm 0.00 in0.0 mm
10:02 AM 86.2°F30.1°C 77.0°F25.0°C 74% 10.1 mph ESE16.3 kmh ESE 12.1 mph19.5 kmh 30.13 in1020.3 mb 0.00 in0.0 mm 0.00 in0.0 mm 0.00 in0.0 mm
10:03 AM 86.2°F30.1°C 77.4°F25.2°C 75% 10.1 mph E16.3 kmh E 16.1 mph25.9 kmh 30.13 in1020.3 mb 0.00 in0.0 mm 0.00 in0.0 mm 0.00 in0.0 mm
10:04 AM 86.2°F30.1°C 76.5°F24.7°C 73% 10.1 mph ENE16.3 kmh ENE 19.9 mph32.0 kmh 30.13 in1020.3 mb 0.00 in0.0 mm 0.00 in0.0 mm 0.00 in0.0 mm
10:05 AM 86.2°F30.1°C 76.5°F24.7°C 73% 10.1 mph ENE16.3 kmh ENE 13.0 mph20.9 kmh 30.13 in1020.3 mb 0.00 in0.0 mm 0.00 in0.0 mm 0.00 in0.0 mm
10:06 AM 86.2°F30.1°C 77.0°F25.0°C 74% 10.1 mph ENE16.3 kmh ENE 13.0 mph20.9 kmh 30.13 in1020.3 mb 0.00 in0.0 mm 0.00 in0.0 mm 0.00 in0.0 mm
10:07 AM 86.2°F30.1°C 77.0°F25.0°C 74% 10.1 mph NE16.3 kmh NE 14.1 mph22.7 kmh 30.13 in1020.3 mb 0.00 in0.0 mm 0.00 in0.0 mm 0.00 in0.0 mm
10:08 AM 86.4°F30.2°C 77.0°F25.0°C 74% 8.9 mph NE14.3 kmh NE 16.1 mph25.9 kmh 30.13 in1020.3 mb 0.00 in0.0 mm 0.00 in0.0 mm 0.00 in0.0 mm
10:09 AM 86.4°F30.2°C 77.0°F25.0°C 74% 8.9 mph NE14.3 kmh NE 15.0 mph24.1 kmh 30.13 in1020.3 mb 0.00 in0.0 mm 0.00 in0.0 mm 0.00 in0.0 mm
10:10 AM 86.4°F30.2°C 77.0°F25.0°C 74% 8.9 mph E14.3 kmh E 12.1 mph19.5 kmh 30.13 in1020.3 mb 0.00 in0.0 mm 0.00 in0.0 mm 0.00 in0.0 mm
10:11 AM 86.4°F30.2°C 77.0°F25.0°C 74% 8.1 mph E13.0 kmh E 12.1 mph19.5 kmh 30.13 in1020.3 mb 0.00 in0.0 mm 0.00 in0.0 mm 0.00 in0.0 mm
10:12 AM 86.4°F30.2°C 77.0°F25.0°C 74% 8.1 mph ENE13.0 kmh ENE 10.1 mph16.3 kmh 30.13 in1020.3 mb 0.00 in0.0 mm 0.00 in0.0 mm 0.00 in0.0 mm
10:13 AM 86.5°F30.3°C 77.2°F25.1°C 74% 8.1 mph E13.0 kmh E 20.0 mph32.2 kmh 30.13 in1020.3 mb 0.00 in0.0 mm 0.00 in0.0 mm 0.00 in0.0 mm
10:14 AM 86.7°F30.4°C 77.4°F25.2°C 74% 8.1 mph ENE13.0 kmh ENE 20.0 mph32.2 kmh 30.13 in1020.3 mb 0.00 in0.0 mm 0.00 in0.0 mm 0.00 in0.0 mm
10:15 AM 86.7°F30.4°C 76.1°F24.5°C 71% 8.1 mph ENE13.0 kmh ENE 20.0 mph32.2 kmh 30.13 in1020.3 mb 0.00 in0.0 mm 0.00 in0.0 mm 0.00 in0.0 mm
10:16 AM 86.7°F30.4°C 76.1°F24.5°C 71% 8.1 mph E13.0 kmh E 14.1 mph22.7 kmh 30.12 in1020.0 mb 0.00 in0.0 mm 0.00 in0.0 mm 0.00 in0.0 mm
10:17 AM 87.1°F30.6°C 76.5°F24.7°C 71% 8.1 mph NE13.0 kmh NE 13.0 mph20.9 kmh 30.13 in1020.3 mb 0.00 in0.0 mm 0.00 in0.0 mm 0.00 in0.0 mm
10:18 AM 87.1°F30.6°C 77.7°F25.4°C 74% 8.9 mph E14.3 kmh E 16.1 mph25.9 kmh 30.13 in1020.3 mb 0.00 in0.0 mm 0.00 in0.0 mm 0.00 in0.0 mm
10:19 AM 87.1°F30.6°C 77.7°F25.4°C 74% 8.9 mph E14.3 kmh E 17.0 mph27.4 kmh 30.13 in1020.3 mb 0.00 in0.0 mm 0.00 in0.0 mm 0.00 in0.0 mm
10:20 AM 87.3°F30.7°C 77.9°F25.5°C 74% 8.9 mph ENE14.3 kmh ENE 17.0 mph27.4 kmh 30.13 in1020.3 mb 0.00 in0.0 mm 0.00 in0.0 mm 0.00 in0.0 mm
10:21 AM 87.3°F30.7°C 77.5°F25.3°C 73% 8.9 mph ENE14.3 kmh ENE 19.0 mph30.6 kmh 30.12 in1020.0 mb 0.00 in0.0 mm 0.00 in0.0 mm 0.00 in0.0 mm
10:22 AM 87.3°F30.7°C 77.5°F25.3°C 73% 8.9 mph ENE14.3 kmh ENE 19.0 mph30.6 kmh 30.12 in1020.0 mb 0.00 in0.0 mm 0.00 in0.0 mm 0.00 in0.0 mm
10:23 AM 87.3°F30.7°C 77.9°F25.5°C 74% 8.9 mph ENE14.3 kmh ENE 15.0 mph24.1 kmh 30.12 in1020.0 mb 0.00 in0.0 mm 0.00 in0.0 mm 0.00 in0.0 mm
10:24 AM 87.3°F30.7°C 77.9°F25.5°C 74% 8.9 mph E14.3 kmh E 13.0 mph20.9 kmh 30.12 in1020.0 mb 0.00 in0.0 mm 0.00 in0.0 mm 0.00 in0.0 mm
10:25 AM 87.3°F30.7°C 77.9°F25.5°C 74% 8.9 mph N14.3 kmh N 15.0 mph24.1 kmh 30.12 in1020.0 mb 0.00 in0.0 mm 0.00 in0.0 mm 0.00 in0.0 mm
10:26 AM 87.3°F30.7°C 78.4°F25.8°C 75% 8.9 mph NE14.3 kmh NE 13.0 mph20.9 kmh 30.12 in1020.0 mb 0.00 in0.0 mm 0.00 in0.0 mm 0.00 in0.0 mm
10:27 AM 87.3°F30.7°C 77.9°F25.5°C 74% 8.9 mph ENE14.3 kmh ENE 13.0 mph20.9 kmh 30.12 in1020.0 mb 0.00 in0.0 mm 0.00 in0.0 mm 0.00 in0.0 mm
10:28 AM 87.4°F30.8°C 78.1°F25.6°C 74% 8.9 mph E14.3 kmh E 16.1 mph25.9 kmh 30.12 in1020.0 mb 0.00 in0.0 mm 0.00 in0.0 mm 0.00 in0.0 mm
10:29 AM 87.4°F30.8°C 78.1°F25.6°C 74% 8.9 mph E14.3 kmh E 15.0 mph24.1 kmh 30.12 in1020.0 mb 0.00 in0.0 mm 0.00 in0.0 mm 0.00 in0.0 mm
10:30 AM 87.4°F30.8°C 77.4°F25.2°C 72% 10.1 mph E16.3 kmh E 17.9 mph28.8 kmh 30.12 in1020.0 mb 0.00 in0.0 mm 0.00 in0.0 mm 0.00 in0.0 mm
10:31 AM 87.4°F30.8°C 77.7°F25.4°C 73% 10.1 mph E16.3 kmh E 19.0 mph30.6 kmh 30.12 in1020.0 mb 0.00 in0.0 mm 0.00 in0.0 mm 0.00 in0.0 mm
10:32 AM 87.4°F30.8°C 77.7°F25.4°C 73% 8.9 mph NE14.3 kmh NE 19.0 mph30.6 kmh 30.12 in1020.0 mb 0.00 in0.0 mm 0.00 in0.0 mm 0.00 in0.0 mm
10:33 AM 87.4°F30.8°C 77.7°F25.4°C 73% 8.9 mph NE14.3 kmh NE 19.0 mph30.6 kmh 30.12 in1020.0 mb 0.00 in0.0 mm 0.00 in0.0 mm 0.00 in0.0 mm
10:34 AM 87.3°F30.7°C 77.5°F25.3°C 73% 8.9 mph E14.3 kmh E 11.0 mph17.7 kmh 30.12 in1020.0 mb 0.00 in0.0 mm 0.00 in0.0 mm 0.00 in0.0 mm
10:35 AM 87.3°F30.7°C 77.5°F25.3°C 73% 8.9 mph ESE14.3 kmh ESE 15.0 mph24.1 kmh 30.12 in1020.0 mb 0.00 in0.0 mm 0.00 in0.0 mm 0.00 in0.0 mm
10:36 AM 87.3°F30.7°C 77.5°F25.3°C 73% 8.9 mph ENE14.3 kmh ENE 15.0 mph24.1 kmh 30.12 in1020.0 mb 0.00 in0.0 mm 0.00 in0.0 mm 0.00 in0.0 mm
10:37 AM 87.1°F30.6°C 77.4°F25.2°C 73% 8.9 mph NNE14.3 kmh NNE 15.0 mph24.1 kmh 30.12 in1020.0 mb 0.00 in0.0 mm 0.00 in0.0 mm 0.00 in0.0 mm
10:38 AM 87.1°F30.6°C 77.7°F25.4°C 74% 8.9 mph ENE14.3 kmh ENE 15.0 mph24.1 kmh 30.12 in1020.0 mb 0.00 in0.0 mm 0.00 in0.0 mm 0.00 in0.0 mm
10:39 AM 87.1°F30.6°C 77.7°F25.4°C 74% 8.1 mph ENE13.0 kmh ENE 15.0 mph24.1 kmh 30.12 in1020.0 mb 0.00 in0.0 mm 0.00 in0.0 mm 0.00 in0.0 mm
10:40 AM 87.1°F30.6°C 77.7°F25.4°C 74% 8.1 mph E13.0 kmh E 15.0 mph24.1 kmh 30.12 in1020.0 mb 0.00 in0.0 mm 0.00 in0.0 mm 0.00 in0.0 mm
10:41 AM 87.1°F30.6°C 77.7°F25.4°C 74% 8.1 mph SE13.0 kmh SE 15.0 mph24.1 kmh 30.12 in1020.0 mb 0.00 in0.0 mm 0.00 in0.0 mm 0.00 in0.0 mm
10:42 AM 87.1°F30.6°C 77.7°F25.4°C 74% 8.1 mph NE13.0 kmh NE 19.0 mph30.6 kmh 30.12 in1020.0 mb 0.00 in0.0 mm 0.00 in0.0 mm 0.00 in0.0 mm
10:43 AM 87.1°F30.6°C 77.7°F25.4°C 74% 8.1 mph ENE13.0 kmh ENE 19.0 mph30.6 kmh 30.12 in1020.0 mb 0.00 in0.0 mm 0.00 in0.0 mm 0.00 in0.0 mm
10:44 AM 87.1°F30.6°C 78.3°F25.7°C 75% 8.1 mph E13.0 kmh E 19.0 mph30.6 kmh 30.12 in1020.0 mb 0.00 in0.0 mm 0.00 in0.0 mm 0.00 in0.0 mm
10:45 AM 87.1°F30.6°C 77.4°F25.2°C 73% 8.9 mph E14.3 kmh E 19.0 mph30.6 kmh 30.12 in1020.0 mb 0.00 in0.0 mm 0.00 in0.0 mm 0.00 in0.0 mm
10:46 AM 87.3°F30.7°C 77.2°F25.1°C 72% 8.9 mph ENE14.3 kmh ENE 15.0 mph24.1 kmh 30.12 in1020.0 mb 0.00 in0.0 mm 0.00 in0.0 mm 0.00 in0.0 mm
10:47 AM 87.3°F30.7°C 77.2°F25.1°C 72% 8.9 mph E14.3 kmh E 17.0 mph27.4 kmh 30.12 in1020.0 mb 0.00 in0.0 mm 0.00 in0.0 mm 0.00 in0.0 mm
10:48 AM 87.3°F30.7°C 76.6°F24.8°C 71% 8.9 mph NNE14.3 kmh NNE 21.0 mph33.8 kmh 30.12 in1020.0 mb 0.00 in0.0 mm 0.00 in0.0 mm 0.00 in0.0 mm
10:49 AM 87.3°F30.7°C 77.2°F25.1°C 72% 8.9 mph ENE14.3 kmh ENE 19.9 mph32.0 kmh 30.12 in1020.0 mb 0.00 in0.0 mm 0.00 in0.0 mm 0.00 in0.0 mm
10:50 AM 87.4°F30.8°C 76.5°F24.7°C 70% 8.9 mph ESE14.3 kmh ESE 19.9 mph32.0 kmh 30.12 in1020.0 mb 0.00 in0.0 mm 0.00 in0.0 mm 0.00 in0.0 mm
10:51 AM 87.4°F30.8°C 76.5°F24.7°C 70% 10.1 mph E16.3 kmh E 13.0 mph20.9 kmh 30.12 in1020.0 mb 0.00 in0.0 mm 0.00 in0.0 mm 0.00 in0.0 mm
10:52 AM 87.6°F30.9°C 77.0°F25.0°C 71% 10.1 mph E16.3 kmh E 13.0 mph20.9 kmh 30.12 in1020.0 mb 0.00 in0.0 mm 0.00 in0.0 mm 0.00 in0.0 mm
10:53 AM 87.6°F30.9°C 77.0°F25.0°C 71% 10.1 mph ENE16.3 kmh ENE 13.0 mph20.9 kmh 30.12 in1020.0 mb 0.00 in0.0 mm 0.00 in0.0 mm 0.00 in0.0 mm
10:54 AM 87.8°F31.0°C 76.8°F24.9°C 70% 10.1 mph 16.3 kmh 14.1 mph22.7 kmh 30.12 in1020.0 mb 0.00 in0.0 mm 0.00 in0.0 mm 0.00 in0.0 mm
10:55 AM 87.8°F31.0°C 76.8°F24.9°C 70% 8.9 mph E14.3 kmh E 8.9 mph14.3 kmh 30.12 in1020.0 mb 0.00 in0.0 mm 0.00 in0.0 mm 0.00 in0.0 mm
10:56 AM 88.0°F31.1°C 77.0°F25.0°C 70% 8.9 mph NE14.3 kmh NE 17.0 mph27.4 kmh 30.12 in1020.0 mb 0.00 in0.0 mm 0.00 in0.0 mm 0.00 in0.0 mm
10:57 AM 88.0°F31.1°C 76.1°F24.5°C 68% 8.9 mph E14.3 kmh E 21.0 mph33.8 kmh 30.12 in1020.0 mb 0.00 in0.0 mm 0.00 in0.0 mm 0.00 in0.0 mm
10:58 AM 88.0°F31.1°C 76.1°F24.5°C 68% 8.9 mph ENE14.3 kmh ENE 21.0 mph33.8 kmh 30.12 in1020.0 mb 0.00 in0.0 mm 0.00 in0.0 mm 0.00 in0.0 mm
10:59 AM 88.0°F31.1°C 77.0°F25.0°C 70% 8.9 mph ENE14.3 kmh ENE 15.0 mph24.1 kmh 30.12 in1020.0 mb 0.00 in0.0 mm 0.00 in0.0 mm 0.00 in0.0 mm
11:00 AM 88.0°F31.1°C 75.6°F24.2°C 67% 8.1 mph E13.0 kmh E 15.0 mph24.1 kmh 30.11 in1019.6 mb 0.00 in0.0 mm 0.00 in0.0 mm 0.00 in0.0 mm
11:01 AM 88.0°F31.1°C 75.6°F24.2°C 67% 8.1 mph ESE13.0 kmh ESE 16.1 mph25.9 kmh 30.12 in1020.0 mb 0.00 in0.0 mm 0.00 in0.0 mm 0.00 in0.0 mm
11:02 AM 88.2°F31.2°C 76.3°F24.6°C 68% 8.1 mph ESE13.0 kmh ESE 13.0 mph20.9 kmh 30.12 in1020.0 mb 0.00 in0.0 mm 0.00 in0.0 mm 0.00 in0.0 mm
11:03 AM 88.2°F31.2°C 76.6°F24.8°C 69% 8.9 mph E14.3 kmh E 16.1 mph25.9 kmh 30.12 in1020.0 mb 0.00 in0.0 mm 0.00 in0.0 mm 0.00 in0.0 mm
11:04 AM 88.2°F31.2°C 76.3°F24.6°C 68% 8.1 mph E13.0 kmh E 16.1 mph25.9 kmh 30.12 in1020.0 mb 0.00 in0.0 mm 0.00 in0.0 mm 0.00 in0.0 mm
11:05 AM 88.3°F31.3°C 76.8°F24.9°C 69% 8.9 mph E14.3 kmh E 19.9 mph32.0 kmh 30.11 in1019.6 mb 0.00 in0.0 mm 0.00 in0.0 mm 0.00 in0.0 mm
11:06 AM 88.3°F31.3°C 76.8°F24.9°C 69% 8.9 mph ENE14.3 kmh ENE 12.1 mph19.5 kmh 30.11 in1019.6 mb 0.00 in0.0 mm 0.00 in0.0 mm 0.00 in0.0 mm
11:07 AM 88.3°F31.3°C 76.8°F24.9°C 69% 8.9 mph ENE14.3 kmh ENE 12.1 mph19.5 kmh 30.11 in1019.6 mb 0.00 in0.0 mm 0.00 in0.0 mm 0.00 in0.0 mm
11:08 AM 88.3°F31.3°C 76.8°F24.9°C 69% 8.9 mph E14.3 kmh E 15.0 mph24.1 kmh 30.12 in1020.0 mb 0.00 in0.0 mm 0.00 in0.0 mm 0.00 in0.0 mm
11:09 AM 88.3°F31.3°C 76.5°F24.7°C 68% 8.9 mph E14.3 kmh E 15.0 mph24.1 kmh 30.12 in1020.0 mb 0.00 in0.0 mm 0.00 in0.0 mm 0.00 in0.0 mm
11:10 AM 88.3°F31.3°C 76.5°F24.7°C 68% 8.9 mph ESE14.3 kmh ESE 13.0 mph20.9 kmh 30.11 in1019.6 mb 0.00 in0.0 mm 0.00 in0.0 mm 0.00 in0.0 mm
11:11 AM 88.2°F31.2°C 76.6°F24.8°C 69% 8.1 mph ENE13.0 kmh ENE 14.1 mph22.7 kmh 30.11 in1019.6 mb 0.00 in0.0 mm 0.00 in0.0 mm 0.00 in0.0 mm
11:12 AM 88.2°F31.2°C 76.6°F24.8°C 69% 8.1 mph ENE13.0 kmh ENE 17.9 mph28.8 kmh 30.11 in1019.6 mb 0.00 in0.0 mm 0.00 in0.0 mm 0.00 in0.0 mm
11:13 AM 88.0°F31.1°C 76.5°F24.7°C 69% 8.1 mph NE13.0 kmh NE 13.0 mph20.9 kmh 30.11 in1019.6 mb 0.00 in0.0 mm 0.00 in0.0 mm 0.00 in0.0 mm
11:14 AM 88.0°F31.1°C 77.0°F25.0°C 70% 8.1 mph NNE13.0 kmh NNE 20.0 mph32.2 kmh 30.11 in1019.6 mb 0.00 in0.0 mm 0.00 in0.0 mm 0.00 in0.0 mm
11:15 AM 88.0°F31.1°C 77.4°F25.2°C 71% 8.1 mph E13.0 kmh E 20.0 mph32.2 kmh 30.11 in1019.6 mb 0.00 in0.0 mm 0.00 in0.0 mm 0.00 in0.0 mm
11:16 AM 87.8°F31.0°C 77.2°F25.1°C 71% 8.1 mph ENE13.0 kmh ENE 20.0 mph32.2 kmh 30.11 in1019.6 mb 0.00 in0.0 mm 0.00 in0.0 mm 0.00 in0.0 mm
11:17 AM 87.6°F30.9°C 76.6°F24.8°C 70% 8.1 mph E13.0 kmh E 15.0 mph24.1 kmh 30.11 in1019.6 mb 0.00 in0.0 mm 0.00 in0.0 mm 0.00 in0.0 mm
11:18 AM 87.6°F30.9°C 77.0°F25.0°C 71% 8.9 mph NE14.3 kmh NE 16.1 mph25.9 kmh 30.11 in1019.6 mb 0.00 in0.0 mm 0.00 in0.0 mm 0.00 in0.0 mm
11:19 AM 87.6°F30.9°C 77.0°F25.0°C 71% 8.1 mph NE13.0 kmh NE 15.0 mph24.1 kmh 30.11 in1019.6 mb 0.00 in0.0 mm 0.00 in0.0 mm 0.00 in0.0 mm
11:20 AM 87.4°F30.8°C 75.9°F24.4°C 69% 8.9 mph NE14.3 kmh NE 12.1 mph19.5 kmh 30.11 in1019.6 mb 0.00 in0.0 mm 0.00 in0.0 mm 0.00 in0.0 mm
11:21 AM 87.4°F30.8°C 76.5°F24.7°C 70% 8.9 mph ENE14.3 kmh ENE 11.0 mph17.7 kmh 30.11 in1019.6 mb 0.00 in0.0 mm 0.00 in0.0 mm 0.00 in0.0 mm
11:22 AM 87.4°F30.8°C 76.8°F24.9°C 71% 8.1 mph E13.0 kmh E 8.9 mph14.3 kmh 30.11 in1019.6 mb 0.00 in0.0 mm 0.00 in0.0 mm 0.00 in0.0 mm
11:23 AM 87.4°F30.8°C 77.4°F25.2°C 72% 8.1 mph E13.0 kmh E 12.1 mph19.5 kmh 30.11 in1019.6 mb 0.00 in0.0 mm 0.00 in0.0 mm 0.00 in0.0 mm
11:24 AM 87.4°F30.8°C 77.7°F25.4°C 73% 8.1 mph NE13.0 kmh NE 10.1 mph16.3 kmh 30.11 in1019.6 mb 0.00 in0.0 mm 0.00 in0.0 mm 0.00 in0.0 mm
11:25 AM 87.6°F30.9°C 77.5°F25.3°C 72% 8.1 mph NE13.0 kmh NE 17.0 mph27.4 kmh 30.11 in1019.6 mb 0.00 in0.0 mm 0.00 in0.0 mm 0.00 in0.0 mm
11:26 AM 87.6°F30.9°C 77.5°F25.3°C 72% 8.1 mph NE13.0 kmh NE 19.0 mph30.6 kmh 30.11 in1019.6 mb 0.00 in0.0 mm 0.00 in0.0 mm 0.00 in0.0 mm
11:27 AM 87.8°F31.0°C 76.8°F24.9°C 70% 8.1 mph N13.0 kmh N 13.0 mph20.9 kmh 30.11 in1019.6 mb 0.00 in0.0 mm 0.00 in0.0 mm 0.00 in0.0 mm
11:28 AM 88.0°F31.1°C 77.0°F25.0°C 70% 8.1 mph NE13.0 kmh NE 16.1 mph25.9 kmh 30.11 in1019.6 mb 0.00 in0.0 mm 0.00 in0.0 mm 0.00 in0.0 mm
11:29 AM 88.0°F31.1°C 77.0°F25.0°C 70% 8.1 mph E13.0 kmh E 13.0 mph20.9 kmh 30.11 in1019.6 mb 0.00 in0.0 mm 0.00 in0.0 mm 0.00 in0.0 mm
11:30 AM 88.2°F31.2°C 77.5°F25.3°C 71% 8.1 mph NE13.0 kmh NE 12.1 mph19.5 kmh 30.11 in1019.6 mb 0.00 in0.0 mm 0.00 in0.0 mm 0.00 in0.0 mm
11:31 AM 88.3°F31.3°C 77.4°F25.2°C 70% 8.1 mph ENE13.0 kmh ENE 17.9 mph28.8 kmh 30.11 in1019.6 mb 0.00 in0.0 mm 0.00 in0.0 mm 0.00 in0.0 mm
11:32 AM 88.3°F31.3°C 77.4°F25.2°C 70% 8.1 mph NE13.0 kmh NE 17.9 mph28.8 kmh 30.10 in1019.3 mb 0.00 in0.0 mm 0.00 in0.0 mm 0.00 in0.0 mm
11:33 AM 88.3°F31.3°C 76.8°F24.9°C 69% 8.9 mph NE14.3 kmh NE 11.0 mph17.7 kmh 30.11 in1019.6 mb 0.00 in0.0 mm 0.00 in0.0 mm 0.00 in0.0 mm
11:34 AM 88.5°F31.4°C 77.0°F25.0°C 69% 8.9 mph E14.3 kmh E 17.0 mph27.4 kmh 30.11 in1019.6 mb 0.00 in0.0 mm 0.00 in0.0 mm 0.00 in0.0 mm
11:35 AM 88.5°F31.4°C 76.1°F24.5°C 67% 10.1 mph ENE16.3 kmh ENE 17.0 mph27.4 kmh 30.11 in1019.6 mb 0.00 in0.0 mm 0.00 in0.0 mm 0.00 in0.0 mm
11:36 AM 88.5°F31.4°C 77.0°F25.0°C 69% 8.9 mph ENE14.3 kmh ENE 19.0 mph30.6 kmh 30.11 in1019.6 mb 0.00 in0.0 mm 0.00 in0.0 mm 0.00 in0.0 mm
11:37 AM 88.5°F31.4°C 77.0°F25.0°C 69% 8.9 mph ESE14.3 kmh ESE 19.0 mph30.6 kmh 30.11 in1019.6 mb 0.00 in0.0 mm 0.00 in0.0 mm 0.00 in0.0 mm
11:38 AM 88.5°F31.4°C 76.6°F24.8°C 68% 8.9 mph ENE14.3 kmh ENE 17.0 mph27.4 kmh 30.11 in1019.6 mb 0.00 in0.0 mm 0.00 in0.0 mm 0.00 in0.0 mm
11:39 AM 88.7°F31.5°C 75.9°F24.4°C 66% 8.9 mph ENE14.3 kmh ENE 13.0 mph20.9 kmh 30.11 in1019.6 mb 0.00 in0.0 mm 0.00 in0.0 mm 0.00 in0.0 mm
11:40 AM 88.9°F31.6°C 76.5°F24.7°C 67% 8.9 mph E14.3 kmh E 15.0 mph24.1 kmh 30.11 in1019.6 mb 0.00 in0.0 mm 0.00 in0.0 mm 0.00 in0.0 mm
11:41 AM 88.9°F31.6°C 76.5°F24.7°C 67% 8.9 mph E14.3 kmh E 13.0 mph20.9 kmh 30.11 in1019.6 mb 0.00 in0.0 mm 0.00 in0.0 mm 0.00 in0.0 mm
11:42 AM 89.1°F31.7°C 76.6°F24.8°C 67% 8.9 mph ENE14.3 kmh ENE 17.0 mph27.4 kmh 30.11 in1019.6 mb 0.00 in0.0 mm 0.00 in0.0 mm 0.00 in0.0 mm
11:43 AM 89.1°F31.7°C 76.6°F24.8°C 67% 10.1 mph E16.3 kmh E 17.0 mph27.4 kmh 30.11 in1019.6 mb 0.00 in0.0 mm 0.00 in0.0 mm 0.00 in0.0 mm
11:44 AM 89.2°F31.8°C 76.5°F24.7°C 66% 8.9 mph NE14.3 kmh NE 14.1 mph22.7 kmh 30.11 in1019.6 mb 0.00 in0.0 mm 0.00 in0.0 mm 0.00 in0.0 mm
11:45 AM 89.2°F31.8°C 76.8°F24.9°C 67% 8.9 mph NE14.3 kmh NE 12.1 mph19.5 kmh 30.11 in1019.6 mb 0.00 in0.0 mm 0.00 in0.0 mm 0.00 in0.0 mm
11:46 AM 89.2°F31.8°C 76.8°F24.9°C 67% 8.9 mph NE14.3 kmh NE 13.0 mph20.9 kmh 30.11 in1019.6 mb 0.00 in0.0 mm 0.00 in0.0 mm 0.00 in0.0 mm
11:47 AM 89.4°F31.9°C 76.6°F24.8°C 66% 8.9 mph E14.3 kmh E 15.0 mph24.1 kmh 30.11 in1019.6 mb 0.00 in0.0 mm 0.00 in0.0 mm 0.00 in0.0 mm
11:48 AM 89.4°F31.9°C 76.6°F24.8°C 66% 8.9 mph ENE14.3 kmh ENE 13.0 mph20.9 kmh 30.11 in1019.6 mb 0.00 in0.0 mm 0.00 in0.0 mm 0.00 in0.0 mm
11:49 AM 89.4°F31.9°C 76.1°F24.5°C 65% 8.9 mph E14.3 kmh E 12.1 mph19.5 kmh 30.11 in1019.6 mb 0.00 in0.0 mm 0.00 in0.0 mm 0.00 in0.0 mm
11:50 AM 89.4°F31.9°C 77.5°F25.3°C 68% 8.9 mph ENE14.3 kmh ENE 13.0 mph20.9 kmh 30.11 in1019.6 mb 0.00 in0.0 mm 0.00 in0.0 mm 0.00 in0.0 mm
11:51 AM 89.6°F32.0°C 78.1°F25.6°C 69% 8.9 mph E14.3 kmh E 13.0 mph20.9 kmh 30.11 in1019.6 mb 0.00 in0.0 mm 0.00 in0.0 mm 0.00 in0.0 mm
11:52 AM 89.6°F32.0°C 76.3°F24.6°C 65% 8.9 mph ENE14.3 kmh ENE 17.0 mph27.4 kmh 30.11 in1019.6 mb 0.00 in0.0 mm 0.00 in0.0 mm 0.00 in0.0 mm
11:53 AM 89.4°F31.9°C 75.6°F24.2°C 64% 8.1 mph ENE13.0 kmh ENE 17.0 mph27.4 kmh 30.11 in1019.6 mb 0.00 in0.0 mm 0.00 in0.0 mm 0.00 in0.0 mm
11:54 AM 89.4°F31.9°C 75.2°F24.0°C 63% 8.9 mph NE14.3 kmh NE 14.1 mph22.7 kmh 30.11 in1019.6 mb 0.00 in0.0 mm 0.00 in0.0 mm 0.00 in0.0 mm
11:55 AM 89.4°F31.9°C 76.6°F24.8°C 66% 8.1 mph E13.0 kmh E 10.1 mph16.3 kmh 30.11 in1019.6 mb 0.00 in0.0 mm 0.00 in0.0 mm 0.00 in0.0 mm
11:56 AM 89.4°F31.9°C 76.6°F24.8°C 66% 8.9 mph ENE14.3 kmh ENE 16.1 mph25.9 kmh 30.11 in1019.6 mb 0.00 in0.0 mm 0.00 in0.0 mm 0.00 in0.0 mm
11:57 AM 89.4°F31.9°C 76.1°F24.5°C 65% 8.1 mph ESE13.0 kmh ESE 11.0 mph17.7 kmh 30.11 in1019.6 mb 0.00 in0.0 mm 0.00 in0.0 mm 0.00 in0.0 mm
11:58 AM 89.4°F31.9°C 77.0°F25.0°C 67% 8.1 mph E13.0 kmh E 15.0 mph24.1 kmh 30.11 in1019.6 mb 0.00 in0.0 mm 0.00 in0.0 mm 0.00 in0.0 mm
11:59 AM 89.4°F31.9°C 77.9°F25.5°C 69% 8.1 mph N13.0 kmh N 17.0 mph27.4 kmh 30.10 in1019.3 mb 0.00 in0.0 mm 0.00 in0.0 mm 0.00 in0.0 mm
12:00 PM 89.8°F32.1°C 77.4°F25.2°C 67% 8.9 mph SE14.3 kmh SE 14.1 mph22.7 kmh 30.11 in1019.6 mb 0.00 in0.0 mm 0.00 in0.0 mm 0.00 in0.0 mm
12:01 PM 89.8°F32.1°C 77.4°F25.2°C 67% 8.9 mph NE14.3 kmh NE 13.0 mph20.9 kmh 30.11 in1019.6 mb 0.00 in0.0 mm 0.00 in0.0 mm 0.00 in0.0 mm
12:02 PM 89.8°F32.1°C 77.7°F25.4°C 68% 8.1 mph E13.0 kmh E 13.0 mph20.9 kmh 30.10 in1019.3 mb 0.00 in0.0 mm 0.00 in0.0 mm 0.00 in0.0 mm
12:03 PM 89.8°F32.1°C 76.8°F24.9°C 66% 8.1 mph NE13.0 kmh NE 12.1 mph19.5 kmh 30.10 in1019.3 mb 0.00 in0.0 mm 0.00 in0.0 mm 0.00 in0.0 mm
12:04 PM 89.8°F32.1°C 76.8°F24.9°C 66% 8.1 mph E13.0 kmh E 16.1 mph25.9 kmh 30.11 in1019.6 mb 0.00 in0.0 mm 0.00 in0.0 mm 0.00 in0.0 mm
12:05 PM 90.0°F32.2°C 77.5°F25.3°C 67% 8.9 mph E14.3 kmh E 16.1 mph25.9 kmh 30.10 in1019.3 mb 0.00 in0.0 mm 0.00 in0.0 mm 0.00 in0.0 mm
12:06 PM 90.0°F32.2°C 76.6°F24.8°C 65% 8.9 mph E14.3 kmh E 12.1 mph19.5 kmh 30.10 in1019.3 mb 0.00 in0.0 mm 0.00 in0.0 mm 0.00 in0.0 mm
12:07 PM 90.1°F32.3°C 78.1°F25.6°C 68% 8.9 mph E14.3 kmh E 10.1 mph16.3 kmh 30.10 in1019.3 mb 0.00 in0.0 mm 0.00 in0.0 mm 0.00 in0.0 mm
12:08 PM 90.1°F32.3°C 78.1°F25.6°C 68% 8.1 mph NE13.0 kmh NE 17.0 mph27.4 kmh 30.10 in1019.3 mb 0.00 in0.0 mm 0.00 in0.0 mm 0.00 in0.0 mm
12:09 PM 90.3°F32.4°C 77.4°F25.2°C 66% 8.1 mph ESE13.0 kmh ESE 17.0 mph27.4 kmh 30.10 in1019.3 mb 0.00 in0.0 mm 0.00 in0.0 mm 0.00 in0.0 mm
12:10 PM 90.3°F32.4°C 76.5°F24.7°C 64% 8.1 mph NE13.0 kmh NE 11.0 mph17.7 kmh 30.10 in1019.3 mb 0.00 in0.0 mm 0.00 in0.0 mm 0.00 in0.0 mm
12:11 PM 90.5°F32.5°C 77.5°F25.3°C 66% 8.1 mph ENE13.0 kmh ENE 11.0 mph17.7 kmh 30.10 in1019.3 mb 0.00 in0.0 mm 0.00 in0.0 mm 0.00 in0.0 mm
12:12 PM 90.7°F32.6°C 77.7°F25.4°C 66% 8.1 mph E13.0 kmh E 14.1 mph22.7 kmh 30.10 in1019.3 mb 0.00 in0.0 mm 0.00 in0.0 mm 0.00 in0.0 mm
12:13 PM 90.7°F32.6°C 77.7°F25.4°C 66% 8.1 mph NE13.0 kmh NE 16.1 mph25.9 kmh 30.10 in1019.3 mb 0.00 in0.0 mm 0.00 in0.0 mm 0.00 in0.0 mm
12:14 PM 90.5°F32.5°C 77.2°F25.1°C 65% 8.1 mph E13.0 kmh E 14.1 mph22.7 kmh 30.10 in1019.3 mb 0.00 in0.0 mm 0.00 in0.0 mm 0.00 in0.0 mm
12:15 PM 90.3°F32.4°C 77.4°F25.2°C 66% 8.1 mph NE13.0 kmh NE 14.1 mph22.7 kmh 30.10 in1019.3 mb 0.00 in0.0 mm 0.00 in0.0 mm 0.00 in0.0 mm
12:16 PM 90.1°F32.3°C 76.8°F24.9°C 65% 6.9 mph ENE11.1 kmh ENE 17.0 mph27.4 kmh 30.10 in1019.3 mb 0.00 in0.0 mm 0.00 in0.0 mm 0.00 in0.0 mm
12:17 PM 90.1°F32.3°C 77.7°F25.4°C 67% 8.1 mph NE13.0 kmh NE 17.0 mph27.4 kmh 30.10 in1019.3 mb 0.00 in0.0 mm 0.00 in0.0 mm 0.00 in0.0 mm
12:18 PM 90.0°F32.2°C 77.0°F25.0°C 66% 8.1 mph E13.0 kmh E 14.1 mph22.7 kmh 30.10 in1019.3 mb 0.00 in0.0 mm 0.00 in0.0 mm 0.00 in0.0 mm
12:19 PM 90.0°F32.2°C 77.5°F25.3°C 67% 8.1 mph E13.0 kmh E 12.1 mph19.5 kmh 30.10 in1019.3 mb 0.00 in0.0 mm 0.00 in0.0 mm 0.00 in0.0 mm
12:20 PM 90.0°F32.2°C 77.9°F25.5°C 68% 8.1 mph E13.0 kmh E 6.9 mph11.1 kmh 30.10 in1019.3 mb 0.00 in0.0 mm 0.00 in0.0 mm 0.00 in0.0 mm
12:21 PM 90.0°F32.2°C 77.5°F25.3°C 67% 6.9 mph ENE11.1 kmh ENE 6.9 mph11.1 kmh 30.10 in1019.3 mb 0.00 in0.0 mm 0.00 in0.0 mm 0.00 in0.0 mm
12:22 PM 90.0°F32.2°C 77.5°F25.3°C 67% 6.9 mph NE11.1 kmh NE 16.1 mph25.9 kmh 30.10 in1019.3 mb 0.00 in0.0 mm 0.00 in0.0 mm 0.00 in0.0 mm
12:23 PM 89.8°F32.1°C 77.4°F25.2°C 67% 8.1 mph SE13.0 kmh SE 16.1 mph25.9 kmh 30.10 in1019.3 mb 0.00 in0.0 mm 0.00 in0.0 mm 0.00 in0.0 mm
12:24 PM 89.6°F32.0°C 77.2°F25.1°C 67% 6.9 mph E11.1 kmh E 10.1 mph16.3 kmh 30.10 in1019.3 mb 0.00 in0.0 mm 0.00 in0.0 mm 0.00 in0.0 mm
12:25 PM 89.4°F31.9°C 77.0°F25.0°C 67% 6.9 mph NE11.1 kmh NE 14.1 mph22.7 kmh 30.10 in1019.3 mb 0.00 in0.0 mm 0.00 in0.0 mm 0.00 in0.0 mm
12:26 PM 89.4°F31.9°C 77.5°F25.3°C 68% 6.9 mph NNE11.1 kmh NNE 17.0 mph27.4 kmh 30.10 in1019.3 mb 0.00 in0.0 mm 0.00 in0.0 mm 0.00 in0.0 mm
12:27 PM 89.4°F31.9°C 77.5°F25.3°C 68% 6.9 mph E11.1 kmh E 17.0 mph27.4 kmh 30.10 in1019.3 mb 0.00 in0.0 mm 0.00 in0.0 mm 0.00 in0.0 mm
12:28 PM 89.4°F31.9°C 78.3°F25.7°C 70% 6.9 mph ENE11.1 kmh ENE 11.0 mph17.7 kmh 30.10 in1019.3 mb 0.00 in0.0 mm 0.00 in0.0 mm 0.00 in0.0 mm
12:29 PM 89.4°F31.9°C 77.5°F25.3°C 68% 8.1 mph NE13.0 kmh NE 16.1 mph25.9 kmh 30.10 in1019.3 mb 0.00 in0.0 mm 0.00 in0.0 mm 0.00 in0.0 mm
12:30 PM 89.8°F32.1°C 77.4°F25.2°C 67% 8.1 mph NE13.0 kmh NE 13.0 mph20.9 kmh 30.10 in1019.3 mb 0.00 in0.0 mm 0.00 in0.0 mm 0.00 in0.0 mm
12:31 PM 89.8°F32.1°C 76.8°F24.9°C 66% 8.9 mph ENE14.3 kmh ENE 15.0 mph24.1 kmh 30.10 in1019.3 mb 0.00 in0.0 mm 0.00 in0.0 mm 0.00 in0.0 mm
12:32 PM 90.0°F32.2°C 78.4°F25.8°C 69% 8.9 mph NE14.3 kmh NE 14.1 mph22.7 kmh 30.10 in1019.3 mb 0.00 in0.0 mm 0.00 in0.0 mm 0.00 in0.0 mm
12:33 PM 90.1°F32.3°C 78.6°F25.9°C 69% 8.9 mph E14.3 kmh E 14.1 mph22.7 kmh 30.10 in1019.3 mb 0.00 in0.0 mm 0.00 in0.0 mm 0.00 in0.0 mm
12:34 PM 90.1°F32.3°C 78.1°F25.6°C 68% 8.9 mph NE14.3 kmh NE 15.0 mph24.1 kmh 30.10 in1019.3 mb 0.00 in0.0 mm 0.00 in0.0 mm 0.00 in0.0 mm
12:35 PM 90.1°F32.3°C 77.7°F25.4°C 67% 10.1 mph E16.3 kmh E 16.1 mph25.9 kmh 30.09 in1019.0 mb 0.00 in0.0 mm 0.00 in0.0 mm 0.00 in0.0 mm
12:36 PM 90.1°F32.3°C 77.2°F25.1°C 66% 8.9 mph E14.3 kmh E 12.1 mph19.5 kmh 30.09 in1019.0 mb 0.00 in0.0 mm 0.00 in0.0 mm 0.00 in0.0 mm
12:37 PM 90.1°F32.3°C 77.2°F25.1°C 66% 8.9 mph ENE14.3 kmh ENE 17.0 mph27.4 kmh 30.09 in1019.0 mb 0.00 in0.0 mm 0.00 in0.0 mm 0.00 in0.0 mm
12:38 PM 90.1°F32.3°C 77.7°F25.4°C 67% 8.9 mph E14.3 kmh E 17.0 mph27.4 kmh 30.09 in1019.0 mb 0.00 in0.0 mm 0.00 in0.0 mm 0.00 in0.0 mm
12:39 PM 90.1°F32.3°C 77.2°F25.1°C 66% 8.9 mph NNE14.3 kmh NNE 17.0 mph27.4 kmh 30.09 in1019.0 mb 0.00 in0.0 mm 0.00 in0.0 mm 0.00 in0.0 mm
12:40 PM 90.1°F32.3°C 77.7°F25.4°C 67% 8.9 mph E14.3 kmh E 11.0 mph17.7 kmh 30.09 in1019.0 mb 0.00 in0.0 mm 0.00 in0.0 mm 0.00 in0.0 mm
12:41 PM 90.1°F32.3°C 78.1°F25.6°C 68% 8.9 mph NE14.3 kmh NE 14.1 mph22.7 kmh 30.09 in1019.0 mb 0.00 in0.0 mm 0.00 in0.0 mm 0.00 in0.0 mm
12:42 PM 90.0°F32.2°C 76.6°F24.8°C 65% 8.9 mph NE14.3 kmh NE 14.1 mph22.7 kmh 30.09 in1019.0 mb 0.00 in0.0 mm 0.00 in0.0 mm 0.00 in0.0 mm
12:43 PM 90.0°F32.2°C 77.9°F25.5°C 68% 8.1 mph E13.0 kmh E 14.1 mph22.7 kmh 30.09 in1019.0 mb 0.00 in0.0 mm 0.00 in0.0 mm 0.00 in0.0 mm
12:44 PM 90.0°F32.2°C 78.4°F25.8°C 69% 8.1 mph NE13.0 kmh NE 15.0 mph24.1 kmh 30.09 in1019.0 mb 0.00 in0.0 mm 0.00 in0.0 mm 0.00 in0.0 mm
12:45 PM 90.0°F32.2°C 77.0°F25.0°C 66% 8.1 mph NE13.0 kmh NE 15.0 mph24.1 kmh 30.09 in1019.0 mb 0.00 in0.0 mm 0.00 in0.0 mm 0.00 in0.0 mm
12:46 PM 90.0°F32.2°C 77.5°F25.3°C 67% 8.1 mph NE13.0 kmh NE 13.0 mph20.9 kmh 30.09 in1019.0 mb 0.00 in0.0 mm 0.00 in0.0 mm 0.00 in0.0 mm
12:47 PM 90.0°F32.2°C 77.0°F25.0°C 66% 8.1 mph NE13.0 kmh NE 15.0 mph24.1 kmh 30.09 in1019.0 mb 0.00 in0.0 mm 0.00 in0.0 mm 0.00 in0.0 mm
12:48 PM 89.8°F32.1°C 76.5°F24.7°C 65% 8.1 mph E13.0 kmh E 17.0 mph27.4 kmh 30.09 in1019.0 mb 0.00 in0.0 mm 0.00 in0.0 mm 0.00 in0.0 mm
12:49 PM 89.8°F32.1°C 75.9°F24.4°C 64% 8.1 mph NE13.0 kmh NE 17.0 mph27.4 kmh 30.09 in1019.0 mb 0.00 in0.0 mm 0.00 in0.0 mm 0.00 in0.0 mm
12:50 PM 89.4°F31.9°C 75.6°F24.2°C 64% 8.9 mph ENE14.3 kmh ENE 15.0 mph24.1 kmh 30.09 in1019.0 mb 0.00 in0.0 mm 0.00 in0.0 mm 0.00 in0.0 mm
12:51 PM 89.4°F31.9°C 77.0°F25.0°C 67% 8.9 mph NE14.3 kmh NE 12.1 mph19.5 kmh 30.09 in1019.0 mb 0.00 in0.0 mm 0.00 in0.0 mm 0.00 in0.0 mm
12:52 PM 89.2°F31.8°C 76.8°F24.9°C 67% 8.9 mph NE14.3 kmh NE 15.0 mph24.1 kmh 30.09 in1019.0 mb 0.00 in0.0 mm 0.00 in0.0 mm 0.00 in0.0 mm
12:53 PM 89.2°F31.8°C 77.7°F25.4°C 69% 8.9 mph NE14.3 kmh NE 17.0 mph27.4 kmh 30.09 in1019.0 mb 0.00 in0.0 mm 0.00 in0.0 mm 0.00 in0.0 mm
12:54 PM 89.2°F31.8°C 76.8°F24.9°C 67% 8.9 mph E14.3 kmh E 20.0 mph32.2 kmh 30.09 in1019.0 mb 0.00 in0.0 mm 0.00 in0.0 mm 0.00 in0.0 mm
12:55 PM 89.2°F31.8°C 76.5°F24.7°C 66% 8.9 mph ENE14.3 kmh ENE 16.1 mph25.9 kmh 30.09 in1019.0 mb 0.00 in0.0 mm 0.00 in0.0 mm 0.00 in0.0 mm
12:56 PM 89.2°F31.8°C 75.4°F24.1°C 64% 10.1 mph ENE16.3 kmh ENE 16.1 mph25.9 kmh 30.09 in1019.0 mb 0.00 in0.0 mm 0.00 in0.0 mm 0.00 in0.0 mm
12:57 PM 89.2°F31.8°C 73.9°F23.3°C 61% 10.1 mph NE16.3 kmh NE 13.0 mph20.9 kmh 30.09 in1019.0 mb 0.00 in0.0 mm 0.00 in0.0 mm 0.00 in0.0 mm
12:58 PM 89.4°F31.9°C 75.6°F24.2°C 64% 10.1 mph ENE16.3 kmh ENE 16.1 mph25.9 kmh 30.09 in1019.0 mb 0.00 in0.0 mm 0.00 in0.0 mm 0.00 in0.0 mm
12:59 PM 89.4°F31.9°C 76.1°F24.5°C 65% 10.1 mph ENE16.3 kmh ENE 16.1 mph25.9 kmh 30.09 in1019.0 mb 0.00 in0.0 mm 0.00 in0.0 mm 0.00 in0.0 mm
01:00 PM 89.4°F31.9°C 75.6°F24.2°C 64% 10.1 mph ENE16.3 kmh ENE 13.0 mph20.9 kmh 30.09 in1019.0 mb 0.00 in0.0 mm 0.00 in0.0 mm 0.00 in0.0 mm
01:01 PM 89.6°F32.0°C 76.6°F24.8°C 66% 8.9 mph NE14.3 kmh NE 12.1 mph19.5 kmh 30.09 in1019.0 mb 0.00 in0.0 mm 0.00 in0.0 mm 0.00 in0.0 mm
01:02 PM 89.6°F32.0°C 76.6°F24.8°C 66% 8.9 mph ESE14.3 kmh ESE 8.9 mph14.3 kmh 30.08 in1018.6 mb 0.00 in0.0 mm 0.00 in0.0 mm 0.00 in0.0 mm
01:03 PM 89.8°F32.1°C 77.4°F25.2°C 67% 8.9 mph ENE14.3 kmh ENE 20.0 mph32.2 kmh 30.08 in1018.6 mb 0.00 in0.0 mm 0.00 in0.0 mm 0.00 in0.0 mm
01:04 PM 90.0°F32.2°C 77.5°F25.3°C 67% 8.1 mph NE13.0 kmh NE 20.0 mph32.2 kmh 30.08 in1018.6 mb 0.00 in0.0 mm 0.00 in0.0 mm 0.00 in0.0 mm
01:05 PM 90.1°F32.3°C 78.1°F25.6°C 68% 6.9 mph E11.1 kmh E 8.1 mph13.0 kmh 30.08 in1018.6 mb 0.00 in0.0 mm 0.00 in0.0 mm 0.00 in0.0 mm
01:06 PM 90.1°F32.3°C 77.7°F25.4°C 67% 6.0 mph ENE9.7 kmh ENE 12.1 mph19.5 kmh 30.09 in1019.0 mb 0.00 in0.0 mm 0.00 in0.0 mm 0.00 in0.0 mm
01:07 PM 90.5°F32.5°C 79.0°F26.1°C 69% 6.0 mph NNE9.7 kmh NNE 14.1 mph22.7 kmh 30.09 in1019.0 mb 0.00 in0.0 mm 0.00 in0.0 mm 0.00 in0.0 mm
01:08 PM 90.7°F32.6°C 77.7°F25.4°C 66% 6.0 mph NE9.7 kmh NE 21.0 mph33.8 kmh 30.09 in1019.0 mb 0.00 in0.0 mm 0.00 in0.0 mm 0.00 in0.0 mm
01:09 PM 90.7°F32.6°C 78.3°F25.7°C 67% 6.9 mph ENE11.1 kmh ENE 21.0 mph33.8 kmh 30.09 in1019.0 mb 0.00 in0.0 mm 0.00 in0.0 mm 0.00 in0.0 mm
01:10 PM 90.7°F32.6°C 76.8°F24.9°C 64% 6.9 mph ENE11.1 kmh ENE 15.0 mph24.1 kmh 30.09 in1019.0 mb 0.00 in0.0 mm 0.00 in0.0 mm 0.00 in0.0 mm
01:11 PM 90.7°F32.6°C 77.7°F25.4°C 66% 6.9 mph NE11.1 kmh NE 12.1 mph19.5 kmh 30.09 in1019.0 mb 0.00 in0.0 mm 0.00 in0.0 mm 0.00 in0.0 mm
01:12 PM 90.7°F32.6°C 77.7°F25.4°C 66% 6.9 mph NE11.1 kmh NE 11.0 mph17.7 kmh 30.09 in1019.0 mb 0.00 in0.0 mm 0.00 in0.0 mm 0.00 in0.0 mm
01:13 PM 90.3°F32.4°C 77.4°F25.2°C 66% 8.1 mph ENE13.0 kmh ENE 14.1 mph22.7 kmh 30.09 in1019.0 mb 0.00 in0.0 mm 0.00 in0.0 mm 0.00 in0.0 mm
01:14 PM 90.3°F32.4°C 77.4°F25.2°C 66% 8.1 mph NNW13.0 kmh NNW 13.0 mph20.9 kmh 30.09 in1019.0 mb 0.00 in0.0 mm 0.00 in0.0 mm 0.00 in0.0 mm
01:15 PM 90.1°F32.3°C 78.1°F25.6°C 68% 8.9 mph NE14.3 kmh NE 8.9 mph14.3 kmh 30.09 in1019.0 mb 0.00 in0.0 mm 0.00 in0.0 mm 0.00 in0.0 mm
01:16 PM 90.1°F32.3°C 77.2°F25.1°C 66% 8.9 mph NE14.3 kmh NE 10.1 mph16.3 kmh 30.09 in1019.0 mb 0.00 in0.0 mm 0.00 in0.0 mm 0.00 in0.0 mm
01:17 PM 90.0°F32.2°C 77.5°F25.3°C 67% 8.9 mph NE14.3 kmh NE 17.9 mph28.8 kmh 30.09 in1019.0 mb 0.00 in0.0 mm 0.00 in0.0 mm 0.00 in0.0 mm
01:18 PM 90.0°F32.2°C 75.7°F24.3°C 63% 8.9 mph ESE14.3 kmh ESE 17.9 mph28.8 kmh 30.09 in1019.0 mb 0.00 in0.0 mm 0.00 in0.0 mm 0.00 in0.0 mm
01:19 PM 90.0°F32.2°C 77.0°F25.0°C 66% 8.1 mph ENE13.0 kmh ENE 21.0 mph33.8 kmh 30.08 in1018.6 mb 0.00 in0.0 mm 0.00 in0.0 mm 0.00 in0.0 mm
01:20 PM 90.0°F32.2°C 76.1°F24.5°C 64% 8.1 mph E13.0 kmh E 13.0 mph20.9 kmh 30.08 in1018.6 mb 0.00 in0.0 mm 0.00 in0.0 mm 0.00 in0.0 mm
01:21 PM 90.0°F32.2°C 76.1°F24.5°C 64% 8.1 mph E13.0 kmh E 19.0 mph30.6 kmh 30.08 in1018.6 mb 0.00 in0.0 mm 0.00 in0.0 mm 0.00 in0.0 mm
01:22 PM 90.1°F32.3°C 76.3°F24.6°C 64% 8.1 mph ENE13.0 kmh ENE 17.9 mph28.8 kmh 30.08 in1018.6 mb 0.00 in0.0 mm 0.00 in0.0 mm 0.00 in0.0 mm
01:23 PM 90.1°F32.3°C 76.3°F24.6°C 64% 8.1 mph NE13.0 kmh NE 17.9 mph28.8 kmh 30.08 in1018.6 mb 0.00 in0.0 mm 0.00 in0.0 mm 0.00 in0.0 mm
01:24 PM 90.3°F32.4°C 75.9°F24.4°C 63% 6.9 mph ESE11.1 kmh ESE 12.1 mph19.5 kmh 30.08 in1018.6 mb 0.00 in0.0 mm 0.00 in0.0 mm 0.00 in0.0 mm
01:25 PM 90.3°F32.4°C 76.5°F24.7°C 64% 8.1 mph NE13.0 kmh NE 17.0 mph27.4 kmh 30.08 in1018.6 mb 0.00 in0.0 mm 0.00 in0.0 mm 0.00 in0.0 mm
01:26 PM 90.1°F32.3°C 75.4°F24.1°C 62% 8.9 mph NE14.3 kmh NE 17.9 mph28.8 kmh 30.08 in1018.6 mb 0.00 in0.0 mm 0.00 in0.0 mm 0.00 in0.0 mm
01:27 PM 90.0°F32.2°C 74.1°F23.4°C 60% 8.9 mph ENE14.3 kmh ENE 17.9 mph28.8 kmh 30.08 in1018.6 mb 0.00 in0.0 mm 0.00 in0.0 mm 0.00 in0.0 mm
01:28 PM 90.0°F32.2°C 75.7°F24.3°C 63% 8.9 mph ENE14.3 kmh ENE 12.1 mph19.5 kmh 30.08 in1018.6 mb 0.00 in0.0 mm 0.00 in0.0 mm 0.00 in0.0 mm
01:29 PM 90.1°F32.3°C 76.8°F24.9°C 65% 8.9 mph ENE14.3 kmh ENE 15.0 mph24.1 kmh 30.08 in1018.6 mb 0.00 in0.0 mm 0.00 in0.0 mm 0.00 in0.0 mm
01:30 PM 90.1°F32.3°C 76.3°F24.6°C 64% 8.9 mph NE14.3 kmh NE 21.0 mph33.8 kmh 30.08 in1018.6 mb 0.00 in0.0 mm 0.00 in0.0 mm 0.00 in0.0 mm
01:31 PM 90.0°F32.2°C 75.2°F24.0°C 62% 10.1 mph NE16.3 kmh NE 21.0 mph33.8 kmh 30.08 in1018.6 mb 0.00 in0.0 mm 0.00 in0.0 mm 0.00 in0.0 mm
01:32 PM 90.0°F32.2°C 75.2°F24.0°C 62% 10.1 mph ENE16.3 kmh ENE 17.0 mph27.4 kmh 30.07 in1018.3 mb 0.00 in0.0 mm 0.00 in0.0 mm 0.00 in0.0 mm
01:33 PM 90.0°F32.2°C 76.1°F24.5°C 64% 10.1 mph E16.3 kmh E 17.0 mph27.4 kmh 30.08 in1018.6 mb 0.00 in0.0 mm 0.00 in0.0 mm 0.00 in0.0 mm
01:34 PM 90.1°F32.3°C 76.8°F24.9°C 65% 11.0 mph NE17.7 kmh NE 15.0 mph24.1 kmh 30.08 in1018.6 mb 0.00 in0.0 mm 0.00 in0.0 mm 0.00 in0.0 mm
01:35 PM 90.1°F32.3°C 77.2°F25.1°C 66% 11.0 mph NE17.7 kmh NE 15.0 mph24.1 kmh 30.07 in1018.3 mb 0.00 in0.0 mm 0.00 in0.0 mm 0.00 in0.0 mm
01:36 PM 90.1°F32.3°C 77.7°F25.4°C 67% 11.0 mph E17.7 kmh E 14.1 mph22.7 kmh 30.07 in1018.3 mb 0.00 in0.0 mm 0.00 in0.0 mm 0.00 in0.0 mm
01:37 PM 90.3°F32.4°C 77.0°F25.0°C 65% 10.1 mph E16.3 kmh E 16.1 mph25.9 kmh 30.07 in1018.3 mb 0.00 in0.0 mm 0.00 in0.0 mm 0.00 in0.0 mm
01:38 PM 90.3°F32.4°C 76.5°F24.7°C 64% 10.1 mph ENE16.3 kmh ENE 14.1 mph22.7 kmh 30.07 in1018.3 mb 0.00 in0.0 mm 0.00 in0.0 mm 0.00 in0.0 mm
01:39 PM 90.3°F32.4°C 76.5°F24.7°C 64% 10.1 mph E16.3 kmh E 15.0 mph24.1 kmh 30.07 in1018.3 mb 0.00 in0.0 mm 0.00 in0.0 mm 0.00 in0.0 mm
01:40 PM 90.5°F32.5°C 76.6°F24.8°C 64% 11.0 mph NE17.7 kmh NE 16.1 mph25.9 kmh 30.07 in1018.3 mb 0.00 in0.0 mm 0.00 in0.0 mm 0.00 in0.0 mm
01:41 PM 90.7°F32.6°C 76.3°F24.6°C 63% 11.0 mph E17.7 kmh E 21.0 mph33.8 kmh 30.07 in1018.3 mb 0.00 in0.0 mm 0.00 in0.0 mm 0.00 in0.0 mm
01:42 PM 90.7°F32.6°C 76.3°F24.6°C 63% 10.1 mph E16.3 kmh E 13.0 mph20.9 kmh 30.07 in1018.3 mb 0.00 in0.0 mm 0.00 in0.0 mm 0.00 in0.0 mm
01:43 PM 90.9°F32.7°C 76.1°F24.5°C 62% 10.1 mph NE16.3 kmh NE 15.0 mph24.1 kmh 30.07 in1018.3 mb 0.00 in0.0 mm 0.00 in0.0 mm 0.00 in0.0 mm
01:44 PM 91.0°F32.8°C 78.1°F25.6°C 66% 10.1 mph E16.3 kmh E 11.0 mph17.7 kmh 30.07 in1018.3 mb 0.00 in0.0 mm 0.00 in0.0 mm 0.00 in0.0 mm
01:45 PM 91.0°F32.8°C 78.1°F25.6°C 66% 8.9 mph E14.3 kmh E 17.9 mph28.8 kmh 30.07 in1018.3 mb 0.00 in0.0 mm 0.00 in0.0 mm 0.00 in0.0 mm
01:46 PM 91.2°F32.9°C 76.3°F24.6°C 62% 10.1 mph NE16.3 kmh NE 17.9 mph28.8 kmh 30.07 in1018.3 mb 0.00 in0.0 mm 0.00 in0.0 mm 0.00 in0.0 mm
01:47 PM 91.2°F32.9°C 77.7°F25.4°C 65% 10.1 mph E16.3 kmh E 16.1 mph25.9 kmh 30.07 in1018.3 mb 0.00 in0.0 mm 0.00 in0.0 mm 0.00 in0.0 mm
01:48 PM 91.2°F32.9°C 76.8°F24.9°C 63% 10.1 mph ENE16.3 kmh ENE 17.0 mph27.4 kmh 30.07 in1018.3 mb 0.00 in0.0 mm 0.00 in0.0 mm 0.00 in0.0 mm
01:49 PM 91.2°F32.9°C 78.3°F25.7°C 66% 10.1 mph ENE16.3 kmh ENE 14.1 mph22.7 kmh 30.07 in1018.3 mb 0.00 in0.0 mm 0.00 in0.0 mm 0.00 in0.0 mm
01:50 PM 91.2°F32.9°C 75.9°F24.4°C 61% 10.1 mph NNE16.3 kmh NNE 16.1 mph25.9 kmh 30.07 in1018.3 mb 0.00 in0.0 mm 0.00 in0.0 mm 0.00 in0.0 mm
01:51 PM 91.0°F32.8°C 75.7°F24.3°C 61% 10.1 mph ENE16.3 kmh ENE 17.9 mph28.8 kmh 30.07 in1018.3 mb 0.00 in0.0 mm 0.00 in0.0 mm 0.00 in0.0 mm
01:52 PM 90.9°F32.7°C 76.1°F24.5°C 62% 10.1 mph E16.3 kmh E 17.9 mph28.8 kmh 30.07 in1018.3 mb 0.00 in0.0 mm 0.00 in0.0 mm 0.00 in0.0 mm
01:53 PM 90.7°F32.6°C 75.9°F24.4°C 62% 10.1 mph NE16.3 kmh NE 14.1 mph22.7 kmh 30.07 in1018.3 mb 0.00 in0.0 mm 0.00 in0.0 mm 0.00 in0.0 mm
01:54 PM 90.7°F32.6°C 76.3°F24.6°C 63% 10.1 mph E16.3 kmh E 10.1 mph16.3 kmh 30.07 in1018.3 mb 0.00 in0.0 mm 0.00 in0.0 mm 0.00 in0.0 mm
01:55 PM 90.7°F32.6°C 75.4°F24.1°C 61% 10.1 mph NE16.3 kmh NE 17.9 mph28.8 kmh 30.07 in1018.3 mb 0.00 in0.0 mm 0.00 in0.0 mm 0.00 in0.0 mm
01:56 PM 90.7°F32.6°C 75.4°F24.1°C 61% 10.1 mph NE16.3 kmh NE 15.0 mph24.1 kmh 30.07 in1018.3 mb 0.00 in0.0 mm 0.00 in0.0 mm 0.00 in0.0 mm
01:57 PM 90.7°F32.6°C 75.4°F24.1°C 61% 10.1 mph E16.3 kmh E 19.0 mph30.6 kmh 30.07 in1018.3 mb 0.00 in0.0 mm 0.00 in0.0 mm 0.00 in0.0 mm
01:58 PM 90.7°F32.6°C 75.9°F24.4°C 62% 10.1 mph NE16.3 kmh NE 19.0 mph30.6 kmh 30.07 in1018.3 mb 0.00 in0.0 mm 0.00 in0.0 mm 0.00 in0.0 mm
01:59 PM 90.7°F32.6°C 76.3°F24.6°C 63% 10.1 mph E16.3 kmh E 13.0 mph20.9 kmh 30.07 in1018.3 mb 0.00 in0.0 mm 0.00 in0.0 mm 0.00 in0.0 mm
02:00 PM 90.9°F32.7°C 76.5°F24.7°C 63% 10.1 mph NE16.3 kmh NE 12.1 mph19.5 kmh 30.06 in1017.9 mb 0.00 in0.0 mm 0.00 in0.0 mm 0.00 in0.0 mm
02:01 PM 90.9°F32.7°C 76.5°F24.7°C 63% 10.1 mph E16.3 kmh E 10.1 mph16.3 kmh 30.06 in1017.9 mb 0.00 in0.0 mm 0.00 in0.0 mm 0.00 in0.0 mm
02:02 PM 90.9°F32.7°C 76.5°F24.7°C 63% 8.9 mph E14.3 kmh E 12.1 mph19.5 kmh 30.07 in1018.3 mb 0.00 in0.0 mm 0.00 in0.0 mm 0.00 in0.0 mm
02:03 PM 90.7°F32.6°C 76.3°F24.6°C 63% 8.9 mph ENE14.3 kmh ENE 12.1 mph19.5 kmh 30.06 in1017.9 mb 0.00 in0.0 mm 0.00 in0.0 mm 0.00 in0.0 mm
02:04 PM 90.7°F32.6°C 76.8°F24.9°C 64% 8.9 mph ENE14.3 kmh ENE 17.0 mph27.4 kmh 30.07 in1018.3 mb 0.00 in0.0 mm 0.00 in0.0 mm 0.00 in0.0 mm
02:05 PM 90.7°F32.6°C 75.9°F24.4°C 62% 8.9 mph ENE14.3 kmh ENE 17.0 mph27.4 kmh 30.07 in1018.3 mb 0.00 in0.0 mm 0.00 in0.0 mm 0.00 in0.0 mm
02:06 PM 90.7°F32.6°C 76.3°F24.6°C 63% 8.9 mph NE14.3 kmh NE 15.0 mph24.1 kmh 30.07 in1018.3 mb 0.00 in0.0 mm 0.00 in0.0 mm 0.00 in0.0 mm
02:07 PM 90.9°F32.7°C 77.0°F25.0°C 64% 8.9 mph E14.3 kmh E 15.0 mph24.1 kmh 30.07 in1018.3 mb 0.00 in0.0 mm 0.00 in0.0 mm 0.00 in0.0 mm
02:08 PM 90.9°F32.7°C 76.1°F24.5°C 62% 8.1 mph E13.0 kmh E 19.0 mph30.6 kmh 30.07 in1018.3 mb 0.00 in0.0 mm 0.00 in0.0 mm 0.00 in0.0 mm
02:09 PM 90.9°F32.7°C 77.5°F25.3°C 65% 8.1 mph ESE13.0 kmh ESE 13.0 mph20.9 kmh 30.07 in1018.3 mb 0.00 in0.0 mm 0.00 in0.0 mm 0.00 in0.0 mm
02:10 PM 91.0°F32.8°C 78.1°F25.6°C 66% 8.1 mph NE13.0 kmh NE 14.1 mph22.7 kmh 30.07 in1018.3 mb 0.00 in0.0 mm 0.00 in0.0 mm 0.00 in0.0 mm
02:11 PM 91.2°F32.9°C 77.7°F25.4°C 65% 8.1 mph ENE13.0 kmh ENE 11.0 mph17.7 kmh 30.07 in1018.3 mb 0.00 in0.0 mm 0.00 in0.0 mm 0.00 in0.0 mm
02:12 PM 91.6°F33.1°C 78.1°F25.6°C 65% 8.1 mph ENE13.0 kmh ENE 14.1 mph22.7 kmh 30.07 in1018.3 mb 0.00 in0.0 mm 0.00 in0.0 mm 0.00 in0.0 mm
02:13 PM 91.6°F33.1°C 77.2°F25.1°C 63% 8.1 mph ENE13.0 kmh ENE 15.0 mph24.1 kmh 30.07 in1018.3 mb 0.00 in0.0 mm 0.00 in0.0 mm 0.00 in0.0 mm
02:14 PM 91.8°F33.2°C 77.4°F25.2°C 63% 8.1 mph ENE13.0 kmh ENE 12.1 mph19.5 kmh 30.07 in1018.3 mb 0.00 in0.0 mm 0.00 in0.0 mm 0.00 in0.0 mm
02:15 PM 91.9°F33.3°C 79.0°F26.1°C 66% 8.1 mph NE13.0 kmh NE 12.1 mph19.5 kmh 30.07 in1018.3 mb 0.00 in0.0 mm 0.00 in0.0 mm 0.00 in0.0 mm
02:16 PM 92.1°F33.4°C 78.6°F25.9°C 65% 8.1 mph NE13.0 kmh NE 13.0 mph20.9 kmh 30.07 in1018.3 mb 0.00 in0.0 mm 0.00 in0.0 mm 0.00 in0.0 mm
02:17 PM 92.3°F33.5°C 78.8°F26.0°C 65% 8.1 mph NE13.0 kmh NE 15.0 mph24.1 kmh 30.07 in1018.3 mb 0.00 in0.0 mm 0.00 in0.0 mm 0.00 in0.0 mm
02:18 PM 92.5°F33.6°C 77.5°F25.3°C 62% 8.1 mph NE13.0 kmh NE 14.1 mph22.7 kmh 30.06 in1017.9 mb 0.00 in0.0 mm 0.00 in0.0 mm 0.00 in0.0 mm
02:19 PM 92.5°F33.6°C 78.4°F25.8°C 64% 8.1 mph NE13.0 kmh NE 13.0 mph20.9 kmh 30.06 in1017.9 mb 0.00 in0.0 mm 0.00 in0.0 mm 0.00 in0.0 mm
02:20 PM 92.5°F33.6°C 78.4°F25.8°C 64% 8.1 mph ESE13.0 kmh ESE 11.0 mph17.7 kmh 30.06 in1017.9 mb 0.00 in0.0 mm 0.00 in0.0 mm 0.00 in0.0 mm
02:21 PM 92.5°F33.6°C 77.5°F25.3°C 62% 8.1 mph N13.0 kmh N 15.0 mph24.1 kmh 30.06 in1017.9 mb 0.00 in0.0 mm 0.00 in0.0 mm 0.00 in0.0 mm
02:22 PM 92.5°F33.6°C 77.0°F25.0°C 61% 8.1 mph NE13.0 kmh NE 16.1 mph25.9 kmh 30.06 in1017.9 mb 0.00 in0.0 mm 0.00 in0.0 mm 0.00 in0.0 mm
02:23 PM 92.1°F33.4°C 75.7°F24.3°C 59% 8.1 mph ENE13.0 kmh ENE 16.0 mph25.7 kmh 30.06 in1017.9 mb 0.00 in0.0 mm 0.00 in0.0 mm 0.00 in0.0 mm
02:24 PM 92.1°F33.4°C 76.6°F24.8°C 61% 8.1 mph E13.0 kmh E 12.1 mph19.5 kmh 30.06 in1017.9 mb 0.00 in0.0 mm 0.00 in0.0 mm 0.00 in0.0 mm
02:25 PM 92.1°F33.4°C 75.7°F24.3°C 59% 8.9 mph ENE14.3 kmh ENE 13.0 mph20.9 kmh 30.06 in1017.9 mb 0.00 in0.0 mm 0.00 in0.0 mm 0.00 in0.0 mm
02:26 PM 91.9°F33.3°C 75.6°F24.2°C 59% 8.9 mph NE14.3 kmh NE 14.1 mph22.7 kmh 30.06 in1017.9 mb 0.00 in0.0 mm 0.00 in0.0 mm 0.00 in0.0 mm
02:27 PM 91.9°F33.3°C 76.6°F24.8°C 61% 8.9 mph NE14.3 kmh NE 13.0 mph20.9 kmh 30.06 in1017.9 mb 0.00 in0.0 mm 0.00 in0.0 mm 0.00 in0.0 mm
02:28 PM 91.9°F33.3°C 76.6°F24.8°C 61% 8.9 mph NE14.3 kmh NE 20.0 mph32.2 kmh 30.06 in1017.9 mb 0.00 in0.0 mm 0.00 in0.0 mm 0.00 in0.0 mm
02:29 PM 91.8°F33.2°C 76.8°F24.9°C 62% 8.9 mph ENE14.3 kmh ENE 20.0 mph32.2 kmh 30.06 in1017.9 mb 0.00 in0.0 mm 0.00 in0.0 mm 0.00 in0.0 mm
02:30 PM 91.8°F33.2°C 76.5°F24.7°C 61% 8.9 mph NE14.3 kmh NE 14.1 mph22.7 kmh 30.06 in1017.9 mb 0.00 in0.0 mm 0.00 in0.0 mm 0.00 in0.0 mm
02:32 PM 91.8°F33.2°C 76.8°F24.9°C 62% 8.9 mph SE14.3 kmh SE 14.1 mph22.7 kmh 30.06 in1017.9 mb 0.00 in0.0 mm 0.00 in0.0 mm 0.00 in0.0 mm
02:33 PM 91.9°F33.3°C 76.6°F24.8°C 61% 8.9 mph SE14.3 kmh SE 8.9 mph14.3 kmh 30.05 in1017.6 mb 0.00 in0.0 mm 0.00 in0.0 mm 0.00 in0.0 mm
02:34 PM 91.9°F33.3°C 77.5°F25.3°C 63% 8.9 mph ENE14.3 kmh ENE 14.1 mph22.7 kmh 30.06 in1017.9 mb 0.00 in0.0 mm 0.00 in0.0 mm 0.00 in0.0 mm
02:35 PM 92.1°F33.4°C 78.6°F25.9°C 65% 8.9 mph E14.3 kmh E 14.1 mph22.7 kmh 30.06 in1017.9 mb 0.00 in0.0 mm 0.00 in0.0 mm 0.00 in0.0 mm
02:36 PM 92.1°F33.4°C 77.7°F25.4°C 63% 8.9 mph E14.3 kmh E 15.0 mph24.1 kmh 30.05 in1017.6 mb 0.00 in0.0 mm 0.00 in0.0 mm 0.00 in0.0 mm
02:37 PM 92.1°F33.4°C 77.2°F25.1°C 62% 8.9 mph E14.3 kmh E 15.0 mph24.1 kmh 30.05 in1017.6 mb 0.00 in0.0 mm 0.00 in0.0 mm 0.00 in0.0 mm
02:38 PM 92.1°F33.4°C 77.7°F25.4°C 63% 8.9 mph ESE14.3 kmh ESE 15.0 mph24.1 kmh 30.06 in1017.9 mb 0.00 in0.0 mm 0.00 in0.0 mm 0.00 in0.0 mm
02:39 PM 91.9°F33.3°C 78.4°F25.8°C 65% 8.9 mph ESE14.3 kmh ESE 14.1 mph22.7 kmh 30.05 in1017.6 mb 0.00 in0.0 mm 0.00 in0.0 mm 0.00 in0.0 mm
02:40 PM 91.9°F33.3°C 78.4°F25.8°C 65% 8.1 mph NE13.0 kmh NE 20.0 mph32.2 kmh 30.05 in1017.6 mb 0.00 in0.0 mm 0.00 in0.0 mm 0.00 in0.0 mm
02:41 PM 91.9°F33.3°C 79.0°F26.1°C 66% 8.1 mph E13.0 kmh E 17.0 mph27.4 kmh 30.05 in1017.6 mb 0.00 in0.0 mm 0.00 in0.0 mm 0.00 in0.0 mm
02:42 PM 91.9°F33.3°C 79.0°F26.1°C 66% 8.1 mph E13.0 kmh E 17.0 mph27.4 kmh 30.05 in1017.6 mb 0.00 in0.0 mm 0.00 in0.0 mm 0.00 in0.0 mm
02:43 PM 91.8°F33.2°C 78.3°F25.7°C 65% 8.1 mph E13.0 kmh E 16.1 mph25.9 kmh 30.05 in1017.6 mb 0.00 in0.0 mm 0.00 in0.0 mm 0.00 in0.0 mm
02:44 PM 91.6°F33.1°C 78.1°F25.6°C 65% 8.9 mph NE14.3 kmh NE 17.0 mph27.4 kmh 30.05 in1017.6 mb 0.00 in0.0 mm 0.00 in0.0 mm 0.00 in0.0 mm
02:45 PM 91.2°F32.9°C 78.3°F25.7°C 66% 8.9 mph ENE14.3 kmh ENE 10.1 mph16.3 kmh 30.05 in1017.6 mb 0.00 in0.0 mm 0.00 in0.0 mm 0.00 in0.0 mm
02:46 PM 90.9°F32.7°C 77.9°F25.5°C 66% 8.1 mph NE13.0 kmh NE 14.1 mph22.7 kmh 30.06 in1017.9 mb 0.00 in0.0 mm 0.00 in0.0 mm 0.00 in0.0 mm
02:47 PM 90.5°F32.5°C 77.5°F25.3°C 66% 8.1 mph ENE13.0 kmh ENE 17.0 mph27.4 kmh 30.06 in1017.9 mb 0.00 in0.0 mm 0.00 in0.0 mm 0.00 in0.0 mm
02:48 PM 90.1°F32.3°C 77.7°F25.4°C 67% 8.1 mph ENE13.0 kmh ENE 17.0 mph27.4 kmh 30.06 in1017.9 mb 0.00 in0.0 mm 0.00 in0.0 mm 0.00 in0.0 mm
02:49 PM 89.8°F32.1°C 77.4°F25.2°C 67% 8.1 mph ENE13.0 kmh ENE 16.1 mph25.9 kmh 30.06 in1017.9 mb 0.00 in0.0 mm 0.00 in0.0 mm 0.00 in0.0 mm
02:50 PM 89.4°F31.9°C 77.5°F25.3°C 68% 8.9 mph NE14.3 kmh NE 8.9 mph14.3 kmh 30.06 in1017.9 mb 0.00 in0.0 mm 0.00 in0.0 mm 0.00 in0.0 mm
02:51 PM 89.1°F31.7°C 77.2°F25.1°C 68% 8.9 mph NE14.3 kmh NE 12.1 mph19.5 kmh 30.05 in1017.6 mb 0.00 in0.0 mm 0.00 in0.0 mm 0.00 in0.0 mm
02:52 PM 88.7°F31.5°C 76.8°F24.9°C 68% 8.9 mph E14.3 kmh E 12.1 mph19.5 kmh 30.06 in1017.9 mb 0.00 in0.0 mm 0.00 in0.0 mm 0.00 in0.0 mm
02:53 PM 88.3°F31.3°C 76.5°F24.7°C 68% 8.9 mph NNE14.3 kmh NNE 16.1 mph25.9 kmh 30.05 in1017.6 mb 0.00 in0.0 mm 0.00 in0.0 mm 0.00 in0.0 mm
02:54 PM 88.2°F31.2°C 76.3°F24.6°C 68% 8.9 mph ENE14.3 kmh ENE 11.0 mph17.7 kmh 30.06 in1017.9 mb 0.00 in0.0 mm 0.00 in0.0 mm 0.00 in0.0 mm
02:55 PM 88.0°F31.1°C 76.5°F24.7°C 69% 8.9 mph NNE14.3 kmh NNE 11.0 mph17.7 kmh 30.06 in1017.9 mb 0.00 in0.0 mm 0.00 in0.0 mm 0.00 in0.0 mm
02:56 PM 87.8°F31.0°C 76.3°F24.6°C 69% 8.1 mph NE13.0 kmh NE 12.1 mph19.5 kmh 30.05 in1017.6 mb 0.00 in0.0 mm 0.00 in0.0 mm 0.00 in0.0 mm
02:57 PM 87.6°F30.9°C 76.6°F24.8°C 70% 8.1 mph E13.0 kmh E 17.0 mph27.4 kmh 30.06 in1017.9 mb 0.00 in0.0 mm 0.00 in0.0 mm 0.00 in0.0 mm
02:58 PM 87.4°F30.8°C 75.9°F24.4°C 69% 8.1 mph NNE13.0 kmh NNE 17.0 mph27.4 kmh 30.06 in1017.9 mb 0.00 in0.0 mm 0.00 in0.0 mm 0.00 in0.0 mm
02:59 PM 87.4°F30.8°C 75.9°F24.4°C 69% 6.9 mph E11.1 kmh E 13.0 mph20.9 kmh 30.05 in1017.6 mb 0.00 in0.0 mm 0.00 in0.0 mm 0.00 in0.0 mm
03:00 PM 87.6°F30.9°C 76.1°F24.5°C 69% 6.9 mph E11.1 kmh E 21.0 mph33.8 kmh 30.06 in1017.9 mb 0.00 in0.0 mm 0.00 in0.0 mm 0.00 in0.0 mm
03:01 PM 87.8°F31.0°C 74.5°F23.6°C 65% 8.1 mph E13.0 kmh E 21.0 mph33.8 kmh 30.05 in1017.6 mb 0.00 in0.0 mm 0.00 in0.0 mm 0.00 in0.0 mm
03:02 PM 88.2°F31.2°C 74.5°F23.6°C 64% 8.1 mph E13.0 kmh E 19.0 mph30.6 kmh 30.06 in1017.9 mb 0.00 in0.0 mm 0.00 in0.0 mm 0.00 in0.0 mm
03:03 PM 88.5°F31.4°C 75.2°F24.0°C 65% 8.9 mph NE14.3 kmh NE 16.1 mph25.9 kmh 30.06 in1017.9 mb 0.00 in0.0 mm 0.00 in0.0 mm 0.00 in0.0 mm
03:04 PM 88.9°F31.6°C 75.6°F24.2°C 65% 8.9 mph NE14.3 kmh NE 17.9 mph28.8 kmh 30.05 in1017.6 mb 0.00 in0.0 mm 0.00 in0.0 mm 0.00 in0.0 mm
03:05 PM 89.2°F31.8°C 76.5°F24.7°C 66% 8.9 mph ENE14.3 kmh ENE 15.0 mph24.1 kmh 30.05 in1017.6 mb 0.00 in0.0 mm 0.00 in0.0 mm 0.00 in0.0 mm
03:06 PM 89.4°F31.9°C 75.6°F24.2°C 64% 10.1 mph E16.3 kmh E 17.9 mph28.8 kmh 30.06 in1017.9 mb 0.00 in0.0 mm 0.00 in0.0 mm 0.00 in0.0 mm
03:07 PM 89.4°F31.9°C 76.1°F24.5°C 65% 10.1 mph NE16.3 kmh NE 19.9 mph32.0 kmh 30.05 in1017.6 mb 0.00 in0.0 mm 0.00 in0.0 mm 0.00 in0.0 mm
03:08 PM 89.8°F32.1°C 75.6°F24.2°C 63% 11.0 mph ENE17.7 kmh ENE 17.9 mph28.8 kmh 30.06 in1017.9 mb 0.00 in0.0 mm 0.00 in0.0 mm 0.00 in0.0 mm
03:09 PM 89.8°F32.1°C 76.5°F24.7°C 65% 11.0 mph NE17.7 kmh NE 14.1 mph22.7 kmh 30.05 in1017.6 mb 0.00 in0.0 mm 0.00 in0.0 mm 0.00 in0.0 mm
03:10 PM 90.0°F32.2°C 76.6°F24.8°C 65% 11.0 mph NE17.7 kmh NE 21.0 mph33.8 kmh 30.06 in1017.9 mb 0.00 in0.0 mm 0.00 in0.0 mm 0.00 in0.0 mm
03:11 PM 90.1°F32.3°C 77.2°F25.1°C 66% 11.0 mph E17.7 kmh E 21.0 mph33.8 kmh 30.06 in1017.9 mb 0.00 in0.0 mm 0.00 in0.0 mm 0.00 in0.0 mm
03:12 PM 90.3°F32.4°C 77.0°F25.0°C 65% 10.1 mph ENE16.3 kmh ENE 15.0 mph24.1 kmh 30.06 in1017.9 mb 0.00 in0.0 mm 0.00 in0.0 mm 0.00 in0.0 mm
03:13 PM 90.1°F32.3°C 75.9°F24.4°C 63% 10.1 mph NE16.3 kmh NE 21.0 mph33.8 kmh 30.06 in1017.9 mb 0.00 in0.0 mm 0.00 in0.0 mm 0.00 in0.0 mm
03:14 PM 90.1°F32.3°C 75.9°F24.4°C 63% 11.0 mph ENE17.7 kmh ENE 17.0 mph27.4 kmh 30.06 in1017.9 mb 0.00 in0.0 mm 0.00 in0.0 mm 0.00 in0.0 mm
03:15 PM 89.8°F32.1°C 75.9°F24.4°C 64% 11.0 mph E17.7 kmh E 17.0 mph27.4 kmh 30.06 in1017.9 mb 0.00 in0.0 mm 0.00 in0.0 mm 0.00 in0.0 mm
03:16 PM 89.6°F32.0°C 75.7°F24.3°C 64% 10.1 mph ENE16.3 kmh ENE 19.9 mph32.0 kmh 30.06 in1017.9 mb 0.00 in0.0 mm 0.00 in0.0 mm 0.00 in0.0 mm
03:17 PM 89.4°F31.9°C 75.2°F24.0°C 63% 10.1 mph E16.3 kmh E 19.9 mph32.0 kmh 30.06 in1017.9 mb 0.00 in0.0 mm 0.00 in0.0 mm 0.00 in0.0 mm
03:18 PM 89.4°F31.9°C 75.6°F24.2°C 64% 11.0 mph E17.7 kmh E 19.0 mph30.6 kmh 30.06 in1017.9 mb 0.00 in0.0 mm 0.00 in0.0 mm 0.00 in0.0 mm
03:19 PM 89.2°F31.8°C 75.4°F24.1°C 64% 11.0 mph NE17.7 kmh NE 17.9 mph28.8 kmh 30.06 in1017.9 mb 0.00 in0.0 mm 0.00 in0.0 mm 0.00 in0.0 mm
03:20 PM 89.2°F31.8°C 76.5°F24.7°C 66% 11.0 mph E17.7 kmh E 17.0 mph27.4 kmh 30.06 in1017.9 mb 0.00 in0.0 mm 0.00 in0.0 mm 0.00 in0.0 mm
03:21 PM 89.1°F31.7°C 76.3°F24.6°C 66% 11.0 mph NE17.7 kmh NE 17.9 mph28.8 kmh 30.06 in1017.9 mb 0.00 in0.0 mm 0.00 in0.0 mm 0.00 in0.0 mm
03:22 PM 89.1°F31.7°C 76.3°F24.6°C 66% 11.0 mph ENE17.7 kmh ENE 21.0 mph33.8 kmh 30.06 in1017.9 mb 0.00 in0.0 mm 0.00 in0.0 mm 0.00 in0.0 mm
03:23 PM 89.2°F31.8°C 76.5°F24.7°C 66% 11.0 mph E17.7 kmh E 21.0 mph33.8 kmh 30.06 in1017.9 mb 0.00 in0.0 mm 0.00 in0.0 mm 0.00 in0.0 mm
03:24 PM 89.2°F31.8°C 76.5°F24.7°C 66% 11.0 mph ENE17.7 kmh ENE 21.0 mph33.8 kmh 30.06 in1017.9 mb 0.00 in0.0 mm 0.00 in0.0 mm 0.00 in0.0 mm
03:25 PM 89.6°F32.0°C 77.2°F25.1°C 67% 11.0 mph E17.7 kmh E 15.0 mph24.1 kmh 30.06 in1017.9 mb 0.00 in0.0 mm 0.00 in0.0 mm 0.00 in0.0 mm
03:26 PM 89.8°F32.1°C 75.9°F24.4°C 64% 11.0 mph NE17.7 kmh NE 17.0 mph27.4 kmh 30.06 in1017.9 mb 0.00 in0.0 mm 0.00 in0.0 mm 0.00 in0.0 mm
03:27 PM 89.8°F32.1°C 76.5°F24.7°C 65% 11.0 mph E17.7 kmh E 12.1 mph19.5 kmh 30.06 in1017.9 mb 0.00 in0.0 mm 0.00 in0.0 mm 0.00 in0.0 mm
03:28 PM 89.8°F32.1°C 76.5°F24.7°C 65% 10.1 mph ENE16.3 kmh ENE 19.0 mph30.6 kmh 30.06 in1017.9 mb 0.00 in0.0 mm 0.00 in0.0 mm 0.00 in0.0 mm
03:29 PM 89.8°F32.1°C 76.5°F24.7°C 65% 10.1 mph NE16.3 kmh NE 19.0 mph30.6 kmh 30.06 in1017.9 mb 0.00 in0.0 mm 0.00 in0.0 mm 0.00 in0.0 mm
03:30 PM 90.0°F32.2°C 77.5°F25.3°C 67% 10.1 mph ENE16.3 kmh ENE 17.0 mph27.4 kmh 30.06 in1017.9 mb 0.00 in0.0 mm 0.00 in0.0 mm 0.00 in0.0 mm
03:31 PM 90.0°F32.2°C 77.0°F25.0°C 66% 11.0 mph ENE17.7 kmh ENE 13.0 mph20.9 kmh 30.06 in1017.9 mb 0.00 in0.0 mm 0.00 in0.0 mm 0.00 in0.0 mm
03:32 PM 90.1°F32.3°C 77.2°F25.1°C 66% 10.1 mph NE16.3 kmh NE 14.1 mph22.7 kmh 30.06 in1017.9 mb 0.00 in0.0 mm 0.00 in0.0 mm 0.00 in0.0 mm
03:33 PM 90.1°F32.3°C 77.2°F25.1°C 66% 10.1 mph NE16.3 kmh NE 17.9 mph28.8 kmh 30.06 in1017.9 mb 0.00 in0.0 mm 0.00 in0.0 mm 0.00 in0.0 mm
03:34 PM 90.1°F32.3°C 77.2°F25.1°C 66% 10.1 mph NE16.3 kmh NE 17.9 mph28.8 kmh 30.06 in1017.9 mb 0.00 in0.0 mm 0.00 in0.0 mm 0.00 in0.0 mm
03:35 PM 90.1°F32.3°C 77.7°F25.4°C 67% 10.1 mph NE16.3 kmh NE 15.0 mph24.1 kmh 30.06 in1017.9 mb 0.00 in0.0 mm 0.00 in0.0 mm 0.00 in0.0 mm
03:36 PM 90.1°F32.3°C 77.7°F25.4°C 67% 10.1 mph NE16.3 kmh NE 13.0 mph20.9 kmh 30.05 in1017.6 mb 0.00 in0.0 mm 0.00 in0.0 mm 0.00 in0.0 mm
03:37 PM 90.3°F32.4°C 78.3°F25.7°C 68% 8.9 mph ENE14.3 kmh ENE 19.0 mph30.6 kmh 30.05 in1017.6 mb 0.00 in0.0 mm 0.00 in0.0 mm 0.00 in0.0 mm
03:38 PM 90.5°F32.5°C 78.4°F25.8°C 68% 8.9 mph ENE14.3 kmh ENE 19.0 mph30.6 kmh 30.05 in1017.6 mb 0.00 in0.0 mm 0.00 in0.0 mm 0.00 in0.0 mm
03:39 PM 90.3°F32.4°C 77.0°F25.0°C 65% 8.9 mph NE14.3 kmh NE 19.0 mph30.6 kmh 30.05 in1017.6 mb 0.00 in0.0 mm 0.00 in0.0 mm 0.00 in0.0 mm
03:40 PM 90.5°F32.5°C 77.2°F25.1°C 65% 8.9 mph NE14.3 kmh NE 13.0 mph20.9 kmh 30.05 in1017.6 mb 0.00 in0.0 mm 0.00 in0.0 mm 0.00 in0.0 mm
03:41 PM 90.5°F32.5°C 77.2°F25.1°C 65% 8.9 mph NE14.3 kmh NE 19.0 mph30.6 kmh 30.05 in1017.6 mb 0.00 in0.0 mm 0.00 in0.0 mm 0.00 in0.0 mm
03:42 PM 90.3°F32.4°C 76.5°F24.7°C 64% 10.1 mph ENE16.3 kmh ENE 22.0 mph35.4 kmh 30.05 in1017.6 mb 0.00 in0.0 mm 0.00 in0.0 mm 0.00 in0.0 mm
03:43 PM 90.1°F32.3°C 75.9°F24.4°C 63% 10.1 mph E16.3 kmh E 22.0 mph35.4 kmh 30.05 in1017.6 mb 0.00 in0.0 mm 0.00 in0.0 mm 0.00 in0.0 mm
03:44 PM 90.1°F32.3°C 76.3°F24.6°C 64% 10.1 mph E16.3 kmh E 13.0 mph20.9 kmh 30.05 in1017.6 mb 0.00 in0.0 mm 0.00 in0.0 mm 0.00 in0.0 mm
03:45 PM 90.1°F32.3°C 77.2°F25.1°C 66% 10.1 mph ESE16.3 kmh ESE 14.1 mph22.7 kmh 30.05 in1017.6 mb 0.00 in0.0 mm 0.00 in0.0 mm 0.00 in0.0 mm
03:46 PM 90.3°F32.4°C 76.5°F24.7°C 64% 10.1 mph NE16.3 kmh NE 14.1 mph22.7 kmh 30.05 in1017.6 mb 0.00 in0.0 mm 0.00 in0.0 mm 0.00 in0.0 mm
03:47 PM 90.3°F32.4°C 76.5°F24.7°C 64% 10.1 mph NE16.3 kmh NE 14.1 mph22.7 kmh 30.05 in1017.6 mb 0.00 in0.0 mm 0.00 in0.0 mm 0.00 in0.0 mm
03:48 PM 90.1°F32.3°C 77.2°F25.1°C 66% 10.1 mph NE16.3 kmh NE 15.0 mph24.1 kmh 30.05 in1017.6 mb 0.00 in0.0 mm 0.00 in0.0 mm 0.00 in0.0 mm
03:49 PM 90.1°F32.3°C 77.2°F25.1°C 66% 10.1 mph NE16.3 kmh NE 17.0 mph27.4 kmh 30.05 in1017.6 mb 0.00 in0.0 mm 0.00 in0.0 mm 0.00 in0.0 mm
03:50 PM 90.1°F32.3°C 77.2°F25.1°C 66% 11.0 mph NE17.7 kmh NE 17.9 mph28.8 kmh 30.05 in1017.6 mb 0.00 in0.0 mm 0.00 in0.0 mm 0.00 in0.0 mm
03:51 PM 90.1°F32.3°C 76.8°F24.9°C 65% 11.0 mph E17.7 kmh E 17.9 mph28.8 kmh 30.05 in1017.6 mb 0.00 in0.0 mm 0.00 in0.0 mm 0.00 in0.0 mm
03:52 PM 90.1°F32.3°C 77.2°F25.1°C 66% 10.1 mph ENE16.3 kmh ENE 22.0 mph35.4 kmh 30.05 in1017.6 mb 0.00 in0.0 mm 0.00 in0.0 mm 0.00 in0.0 mm
03:53 PM 90.3°F32.4°C 77.0°F25.0°C 65% 10.1 mph NE16.3 kmh NE 22.0 mph35.4 kmh 30.05 in1017.6 mb 0.00 in0.0 mm 0.00 in0.0 mm 0.00 in0.0 mm
03:54 PM 90.5°F32.5°C 77.2°F25.1°C 65% 8.9 mph ENE14.3 kmh ENE 15.0 mph24.1 kmh 30.05 in1017.6 mb 0.00 in0.0 mm 0.00 in0.0 mm 0.00 in0.0 mm
03:55 PM 90.7°F32.6°C 77.4°F25.2°C 65% 8.9 mph NE14.3 kmh NE 10.1 mph16.3 kmh 30.04 in1017.3 mb 0.00 in0.0 mm 0.00 in0.0 mm 0.00 in0.0 mm
03:56 PM 90.7°F32.6°C 77.7°F25.4°C 66% 8.9 mph NE14.3 kmh NE 14.1 mph22.7 kmh 30.05 in1017.6 mb 0.00 in0.0 mm 0.00 in0.0 mm 0.00 in0.0 mm
03:57 PM 90.7°F32.6°C 74.8°F23.8°C 60% 10.1 mph E16.3 kmh E 17.9 mph28.8 kmh 30.05 in1017.6 mb 0.00 in0.0 mm 0.00 in0.0 mm 0.00 in0.0 mm
03:58 PM 90.7°F32.6°C 75.9°F24.4°C 62% 10.1 mph ENE16.3 kmh ENE 21.0 mph33.8 kmh 30.05 in1017.6 mb 0.00 in0.0 mm 0.00 in0.0 mm 0.00 in0.0 mm
03:59 PM 90.5°F32.5°C 76.1°F24.5°C 63% 10.1 mph NNE16.3 kmh NNE 17.0 mph27.4 kmh 30.04 in1017.3 mb 0.00 in0.0 mm 0.00 in0.0 mm 0.00 in0.0 mm
04:00 PM 90.5°F32.5°C 76.6°F24.8°C 64% 10.1 mph E16.3 kmh E 16.1 mph25.9 kmh 30.04 in1017.3 mb 0.00 in0.0 mm 0.00 in0.0 mm 0.00 in0.0 mm
04:01 PM 90.3°F32.4°C 76.5°F24.7°C 64% 10.1 mph NE16.3 kmh NE 17.0 mph27.4 kmh 30.04 in1017.3 mb 0.00 in0.0 mm 0.00 in0.0 mm 0.00 in0.0 mm
04:02 PM 90.3°F32.4°C 77.0°F25.0°C 65% 10.1 mph ENE16.3 kmh ENE 17.0 mph27.4 kmh 30.04 in1017.3 mb 0.00 in0.0 mm 0.00 in0.0 mm 0.00 in0.0 mm
04:03 PM 90.3°F32.4°C 77.0°F25.0°C 65% 10.1 mph NE16.3 kmh NE 12.1 mph19.5 kmh 30.04 in1017.3 mb 0.00 in0.0 mm 0.00 in0.0 mm 0.00 in0.0 mm
04:04 PM 90.3°F32.4°C 77.0°F25.0°C 65% 11.0 mph NE17.7 kmh NE 17.0 mph27.4 kmh 30.04 in1017.3 mb 0.00 in0.0 mm 0.00 in0.0 mm 0.00 in0.0 mm
04:05 PM 90.3°F32.4°C 77.0°F25.0°C 65% 11.0 mph ENE17.7 kmh ENE 17.9 mph28.8 kmh 30.04 in1017.3 mb 0.00 in0.0 mm 0.00 in0.0 mm 0.00 in0.0 mm
04:06 PM 90.3°F32.4°C 77.0°F25.0°C 65% 11.0 mph E17.7 kmh E 15.0 mph24.1 kmh 30.04 in1017.3 mb 0.00 in0.0 mm 0.00 in0.0 mm 0.00 in0.0 mm
04:07 PM 90.3°F32.4°C 77.0°F25.0°C 65% 11.0 mph ENE17.7 kmh ENE 21.0 mph33.8 kmh 30.04 in1017.3 mb 0.00 in0.0 mm 0.00 in0.0 mm 0.00 in0.0 mm
04:08 PM 90.3°F32.4°C 77.0°F25.0°C 65% 10.1 mph NNE16.3 kmh NNE 21.0 mph33.8 kmh 30.04 in1017.3 mb 0.00 in0.0 mm 0.00 in0.0 mm 0.00 in0.0 mm
04:09 PM 90.3°F32.4°C 77.4°F25.2°C 66% 10.1 mph ESE16.3 kmh ESE 21.0 mph33.8 kmh 30.04 in1017.3 mb 0.00 in0.0 mm 0.00 in0.0 mm 0.00 in0.0 mm
04:10 PM 90.3°F32.4°C 77.4°F25.2°C 66% 10.1 mph E16.3 kmh E 14.1 mph22.7 kmh 30.04 in1017.3 mb 0.00 in0.0 mm 0.00 in0.0 mm 0.00 in0.0 mm
04:11 PM 90.1°F32.3°C 77.7°F25.4°C 67% 10.1 mph ENE16.3 kmh ENE 14.1 mph22.7 kmh 30.04 in1017.3 mb 0.00 in0.0 mm 0.00 in0.0 mm 0.00 in0.0 mm
04:12 PM 90.0°F32.2°C 77.5°F25.3°C 67% 10.1 mph E16.3 kmh E 13.0 mph20.9 kmh 30.04 in1017.3 mb 0.00 in0.0 mm 0.00 in0.0 mm 0.00 in0.0 mm
04:13 PM 89.8°F32.1°C 77.4°F25.2°C 67% 10.1 mph ENE16.3 kmh ENE 13.0 mph20.9 kmh 30.04 in1017.3 mb 0.00 in0.0 mm 0.00 in0.0 mm 0.00 in0.0 mm
04:14 PM 89.6°F32.0°C 77.2°F25.1°C 67% 8.9 mph ENE14.3 kmh ENE 14.1 mph22.7 kmh 30.04 in1017.3 mb 0.00 in0.0 mm 0.00 in0.0 mm 0.00 in0.0 mm
04:15 PM 89.4°F31.9°C 77.0°F25.0°C 67% 8.9 mph E14.3 kmh E 13.0 mph20.9 kmh 30.04 in1017.3 mb 0.00 in0.0 mm 0.00 in0.0 mm 0.00 in0.0 mm
04:16 PM 89.2°F31.8°C 76.8°F24.9°C 67% 8.9 mph E14.3 kmh E 15.0 mph24.1 kmh 30.04 in1017.3 mb 0.00 in0.0 mm 0.00 in0.0 mm 0.00 in0.0 mm
04:17 PM 89.1°F31.7°C 76.6°F24.8°C 67% 8.1 mph ENE13.0 kmh ENE 12.1 mph19.5 kmh 30.04 in1017.3 mb 0.00 in0.0 mm 0.00 in0.0 mm 0.00 in0.0 mm
04:18 PM 89.1°F31.7°C 77.5°F25.3°C 69% 8.1 mph NE13.0 kmh NE 17.0 mph27.4 kmh 30.04 in1017.3 mb 0.00 in0.0 mm 0.00 in0.0 mm 0.00 in0.0 mm
04:19 PM 89.1°F31.7°C 77.5°F25.3°C 69% 8.1 mph NE13.0 kmh NE 17.0 mph27.4 kmh 30.04 in1017.3 mb 0.00 in0.0 mm 0.00 in0.0 mm 0.00 in0.0 mm
04:20 PM 89.1°F31.7°C 77.5°F25.3°C 69% 8.1 mph E13.0 kmh E 12.1 mph19.5 kmh 30.04 in1017.3 mb 0.00 in0.0 mm 0.00 in0.0 mm 0.00 in0.0 mm
04:21 PM 89.1°F31.7°C 77.2°F25.1°C 68% 8.1 mph NE13.0 kmh NE 14.1 mph22.7 kmh 30.04 in1017.3 mb 0.00 in0.0 mm 0.00 in0.0 mm 0.00 in0.0 mm
04:22 PM 89.1°F31.7°C 77.2°F25.1°C 68% 8.1 mph NNE13.0 kmh NNE 14.1 mph22.7 kmh 30.03 in1016.9 mb 0.00 in0.0 mm 0.00 in0.0 mm 0.00 in0.0 mm
04:23 PM 89.1°F31.7°C 76.6°F24.8°C 67% 8.1 mph NE13.0 kmh NE 16.1 mph25.9 kmh 30.04 in1017.3 mb 0.00 in0.0 mm 0.00 in0.0 mm 0.00 in0.0 mm
04:24 PM 89.1°F31.7°C 77.2°F25.1°C 68% 8.9 mph NE14.3 kmh NE 19.0 mph30.6 kmh 30.03 in1016.9 mb 0.00 in0.0 mm 0.00 in0.0 mm 0.00 in0.0 mm
04:25 PM 89.1°F31.7°C 77.2°F25.1°C 68% 8.9 mph ENE14.3 kmh ENE 13.0 mph20.9 kmh 30.04 in1017.3 mb 0.00 in0.0 mm 0.00 in0.0 mm 0.00 in0.0 mm
04:26 PM 89.1°F31.7°C 77.2°F25.1°C 68% 8.9 mph E14.3 kmh E 17.9 mph28.8 kmh 30.04 in1017.3 mb 0.00 in0.0 mm 0.00 in0.0 mm 0.00 in0.0 mm
04:27 PM 89.1°F31.7°C 77.2°F25.1°C 68% 8.9 mph E14.3 kmh E 14.1 mph22.7 kmh 30.03 in1016.9 mb 0.00 in0.0 mm 0.00 in0.0 mm 0.00 in0.0 mm
04:28 PM 89.1°F31.7°C 77.2°F25.1°C 68% 10.1 mph NE16.3 kmh NE 13.0 mph20.9 kmh 30.03 in1016.9 mb 0.00 in0.0 mm 0.00 in0.0 mm 0.00 in0.0 mm
04:29 PM 89.2°F31.8°C 77.4°F25.2°C 68% 10.1 mph ENE16.3 kmh ENE 13.0 mph20.9 kmh 30.03 in1016.9 mb 0.00 in0.0 mm 0.00 in0.0 mm 0.00 in0.0 mm
04:30 PM 89.2°F31.8°C 76.8°F24.9°C 67% 10.1 mph ENE16.3 kmh ENE 17.9 mph28.8 kmh 30.03 in1016.9 mb 0.00 in0.0 mm 0.00 in0.0 mm 0.00 in0.0 mm
04:31 PM 89.1°F31.7°C 77.2°F25.1°C 68% 10.1 mph ESE16.3 kmh ESE 15.0 mph24.1 kmh 30.03 in1016.9 mb 0.00 in0.0 mm 0.00 in0.0 mm 0.00 in0.0 mm
04:32 PM 89.1°F31.7°C 77.2°F25.1°C 68% 10.1 mph NE16.3 kmh NE 17.0 mph27.4 kmh 30.04 in1017.3 mb 0.00 in0.0 mm 0.00 in0.0 mm 0.00 in0.0 mm
04:33 PM 88.9°F31.6°C 77.0°F25.0°C 68% 10.1 mph E16.3 kmh E 17.9 mph28.8 kmh 30.04 in1017.3 mb 0.00 in0.0 mm 0.00 in0.0 mm 0.00 in0.0 mm
04:34 PM 88.7°F31.5°C 76.8°F24.9°C 68% 10.1 mph ENE16.3 kmh ENE 19.0 mph30.6 kmh 30.03 in1016.9 mb 0.00 in0.0 mm 0.00 in0.0 mm 0.00 in0.0 mm
04:35 PM 88.5°F31.4°C 76.1°F24.5°C 67% 10.1 mph E16.3 kmh E 19.0 mph30.6 kmh 30.04 in1017.3 mb 0.00 in0.0 mm 0.00 in0.0 mm 0.00 in0.0 mm
04:36 PM 88.2°F31.2°C 76.3°F24.6°C 68% 10.1 mph E16.3 kmh E 16.1 mph25.9 kmh 30.04 in1017.3 mb 0.00 in0.0 mm 0.00 in0.0 mm 0.00 in0.0 mm
04:37 PM 88.0°F31.1°C 76.1°F24.5°C 68% 10.1 mph NE16.3 kmh NE 17.0 mph27.4 kmh 30.04 in1017.3 mb 0.00 in0.0 mm 0.00 in0.0 mm 0.00 in0.0 mm
04:38 PM 87.8°F31.0°C 76.3°F24.6°C 69% 10.1 mph E16.3 kmh E 20.0 mph32.2 kmh 30.04 in1017.3 mb 0.00 in0.0 mm 0.00 in0.0 mm 0.00 in0.0 mm
04:39 PM 87.6°F30.9°C 75.7°F24.3°C 68% 10.1 mph NE16.3 kmh NE 20.0 mph32.2 kmh 30.04 in1017.3 mb 0.00 in0.0 mm 0.00 in0.0 mm 0.00 in0.0 mm
04:40 PM 87.4°F30.8°C 75.9°F24.4°C 69% 10.1 mph E16.3 kmh E 14.1 mph22.7 kmh 30.04 in1017.3 mb 0.00 in0.0 mm 0.00 in0.0 mm 0.00 in0.0 mm
04:41 PM 87.3°F30.7°C 76.3°F24.6°C 70% 10.1 mph E16.3 kmh E 15.0 mph24.1 kmh 30.04 in1017.3 mb 0.00 in0.0 mm 0.00 in0.0 mm 0.00 in0.0 mm
04:42 PM 87.3°F30.7°C 76.3°F24.6°C 70% 10.1 mph NE16.3 kmh NE 15.0 mph24.1 kmh 30.04 in1017.3 mb 0.00 in0.0 mm 0.00 in0.0 mm 0.00 in0.0 mm
04:43 PM 87.1°F30.6°C 76.1°F24.5°C 70% 10.1 mph E16.3 kmh E 12.1 mph19.5 kmh 30.04 in1017.3 mb 0.00 in0.0 mm 0.00 in0.0 mm 0.00 in0.0 mm
04:44 PM 87.1°F30.6°C 76.1°F24.5°C 70% 8.9 mph NE14.3 kmh NE 14.1 mph22.7 kmh 30.04 in1017.3 mb 0.00 in0.0 mm 0.00 in0.0 mm 0.00 in0.0 mm
04:45 PM 87.1°F30.6°C 76.5°F24.7°C 71% 8.9 mph NE14.3 kmh NE 17.0 mph27.4 kmh 30.04 in1017.3 mb 0.00 in0.0 mm 0.00 in0.0 mm 0.00 in0.0 mm
04:46 PM 86.7°F30.4°C 76.1°F24.5°C 71% 8.9 mph NE14.3 kmh NE 15.0 mph24.1 kmh 30.03 in1016.9 mb 0.00 in0.0 mm 0.00 in0.0 mm 0.00 in0.0 mm
04:47 PM 86.7°F30.4°C 76.1°F24.5°C 71% 8.9 mph NE14.3 kmh NE 8.9 mph14.3 kmh 30.04 in1017.3 mb 0.00 in0.0 mm 0.00 in0.0 mm 0.00 in0.0 mm
04:48 PM 86.7°F30.4°C 76.6°F24.8°C 72% 8.9 mph E14.3 kmh E 20.0 mph32.2 kmh 30.04 in1017.3 mb 0.00 in0.0 mm 0.00 in0.0 mm 0.00 in0.0 mm
04:49 PM 86.9°F30.5°C 75.9°F24.4°C 70% 8.1 mph NNE13.0 kmh NNE 14.1 mph22.7 kmh 30.04 in1017.3 mb 0.00 in0.0 mm 0.00 in0.0 mm 0.00 in0.0 mm
04:50 PM 87.1°F30.6°C 76.1°F24.5°C 70% 8.1 mph NE13.0 kmh NE 11.0 mph17.7 kmh 30.04 in1017.3 mb 0.00 in0.0 mm 0.00 in0.0 mm 0.00 in0.0 mm
04:51 PM 87.3°F30.7°C 75.4°F24.1°C 68% 8.1 mph SE13.0 kmh SE 14.1 mph22.7 kmh 30.04 in1017.3 mb 0.00 in0.0 mm 0.00 in0.0 mm 0.00 in0.0 mm
04:52 PM 87.4°F30.8°C 75.9°F24.4°C 69% 8.1 mph ESE13.0 kmh ESE 13.0 mph20.9 kmh 30.04 in1017.3 mb 0.00 in0.0 mm 0.00 in0.0 mm 0.00 in0.0 mm
04:53 PM 87.6°F30.9°C 75.7°F24.3°C 68% 8.1 mph NE13.0 kmh NE 13.0 mph20.9 kmh 30.04 in1017.3 mb 0.00 in0.0 mm 0.00 in0.0 mm 0.00 in0.0 mm
04:54 PM 87.6°F30.9°C 75.7°F24.3°C 68% 8.1 mph E13.0 kmh E 13.0 mph20.9 kmh 30.04 in1017.3 mb 0.00 in0.0 mm 0.00 in0.0 mm 0.00 in0.0 mm
04:55 PM 87.8°F31.0°C 75.9°F24.4°C 68% 8.1 mph NE13.0 kmh NE 13.0 mph20.9 kmh 30.03 in1016.9 mb 0.00 in0.0 mm 0.00 in0.0 mm 0.00 in0.0 mm
04:56 PM 87.8°F31.0°C 75.9°F24.4°C 68% 6.9 mph E11.1 kmh E 11.0 mph17.7 kmh 30.04 in1017.3 mb 0.00 in0.0 mm 0.00 in0.0 mm 0.00 in0.0 mm
04:58 PM 87.8°F31.0°C 75.4°F24.1°C 67% 6.9 mph ENE11.1 kmh ENE 11.0 mph17.7 kmh 30.04 in1017.3 mb 0.00 in0.0 mm 0.00 in0.0 mm 0.00 in0.0 mm
04:59 PM 87.8°F31.0°C 75.4°F24.1°C 67% 6.9 mph NE11.1 kmh NE 11.0 mph17.7 kmh 30.03 in1016.9 mb 0.00 in0.0 mm 0.00 in0.0 mm 0.00 in0.0 mm
05:00 PM 87.8°F31.0°C 75.4°F24.1°C 67% 6.9 mph E11.1 kmh E 11.0 mph17.7 kmh 30.03 in1016.9 mb 0.00 in0.0 mm 0.00 in0.0 mm 0.00 in0.0 mm
05:01 PM 87.6°F30.9°C 75.4°F24.1°C 67% 6.9 mph NE11.1 kmh NE 17.0 mph27.4 kmh 30.03 in1016.9 mb 0.00 in0.0 mm 0.00 in0.0 mm 0.00 in0.0 mm
05:02 PM 87.6°F30.9°C 75.4°F24.1°C 67% 6.9 mph E11.1 kmh E 17.0 mph27.4 kmh 30.03 in1016.9 mb 0.00 in0.0 mm 0.00 in0.0 mm 0.00 in0.0 mm
05:03 PM 87.6°F30.9°C 75.4°F24.1°C 67% 8.1 mph ENE13.0 kmh ENE 16.1 mph25.9 kmh 30.03 in1016.9 mb 0.00 in0.0 mm 0.00 in0.0 mm 0.00 in0.0 mm
05:04 PM 87.6°F30.9°C 75.4°F24.1°C 67% 8.1 mph ESE13.0 kmh ESE 16.1 mph25.9 kmh 30.03 in1016.9 mb 0.00 in0.0 mm 0.00 in0.0 mm 0.00 in0.0 mm
05:05 PM 87.6°F30.9°C 75.4°F24.1°C 67% 8.1 mph ENE13.0 kmh ENE 17.0 mph27.4 kmh 30.03 in1016.9 mb 0.00 in0.0 mm 0.00 in0.0 mm 0.00 in0.0 mm
05:06 PM 87.6°F30.9°C 74.8°F23.8°C 66% 8.1 mph ENE13.0 kmh ENE 16.1 mph25.9 kmh 30.03 in1016.9 mb 0.00 in0.0 mm 0.00 in0.0 mm 0.00 in0.0 mm
05:07 PM 87.6°F30.9°C 74.8°F23.8°C 66% 8.9 mph E14.3 kmh E 15.0 mph24.1 kmh 30.03 in1016.9 mb 0.00 in0.0 mm 0.00 in0.0 mm 0.00 in0.0 mm
05:08 PM 87.6°F30.9°C 74.3°F23.5°C 65% 8.9 mph ENE14.3 kmh ENE 18.0 mph29.0 kmh 30.03 in1016.9 mb 0.00 in0.0 mm 0.00 in0.0 mm 0.00 in0.0 mm
05:09 PM 87.6°F30.9°C 74.8°F23.8°C 66% 10.1 mph E16.3 kmh E 18.0 mph29.0 kmh 30.03 in1016.9 mb 0.00 in0.0 mm 0.00 in0.0 mm 0.00 in0.0 mm
05:10 PM 87.8°F31.0°C 74.5°F23.6°C 65% 10.1 mph E16.3 kmh E 17.0 mph27.4 kmh 30.03 in1016.9 mb 0.00 in0.0 mm 0.00 in0.0 mm 0.00 in0.0 mm
05:11 PM 87.8°F31.0°C 74.1°F23.4°C 64% 10.1 mph NE16.3 kmh NE 17.9 mph28.8 kmh 30.04 in1017.3 mb 0.00 in0.0 mm 0.00 in0.0 mm 0.00 in0.0 mm
05:12 PM 87.6°F30.9°C 74.3°F23.5°C 65% 11.0 mph ENE17.7 kmh ENE 13.0 mph20.9 kmh 30.03 in1016.9 mb 0.00 in0.0 mm 0.00 in0.0 mm 0.00 in0.0 mm
05:13 PM 87.6°F30.9°C 73.9°F23.3°C 64% 10.1 mph E16.3 kmh E 16.1 mph25.9 kmh 30.03 in1016.9 mb 0.00 in0.0 mm 0.00 in0.0 mm 0.00 in0.0 mm
05:14 PM 87.6°F30.9°C 73.9°F23.3°C 64% 10.1 mph E16.3 kmh E 16.1 mph25.9 kmh 30.03 in1016.9 mb 0.00 in0.0 mm 0.00 in0.0 mm 0.00 in0.0 mm
05:15 PM 87.6°F30.9°C 73.9°F23.3°C 64% 10.1 mph NE16.3 kmh NE 14.1 mph22.7 kmh 30.03 in1016.9 mb 0.00 in0.0 mm 0.00 in0.0 mm 0.00 in0.0 mm
05:16 PM 87.6°F30.9°C 74.3°F23.5°C 65% 10.1 mph NE16.3 kmh NE 16.1 mph25.9 kmh 30.04 in1017.3 mb 0.00 in0.0 mm 0.00 in0.0 mm 0.00 in0.0 mm
05:17 PM 87.6°F30.9°C 74.3°F23.5°C 65% 10.1 mph NE16.3 kmh NE 13.0 mph20.9 kmh 30.04 in1017.3 mb 0.00 in0.0 mm 0.00 in0.0 mm 0.00 in0.0 mm
05:18 PM 87.6°F30.9°C 74.8°F23.8°C 66% 10.1 mph NE16.3 kmh NE 13.0 mph20.9 kmh 30.03 in1016.9 mb 0.00 in0.0 mm 0.00 in0.0 mm 0.00 in0.0 mm
05:19 PM 87.4°F30.8°C 74.7°F23.7°C 66% 10.1 mph NE16.3 kmh NE 15.0 mph24.1 kmh 30.04 in1017.3 mb 0.00 in0.0 mm 0.00 in0.0 mm 0.00 in0.0 mm
05:20 PM 87.4°F30.8°C 74.7°F23.7°C 66% 10.1 mph NNE16.3 kmh NNE 17.0 mph27.4 kmh 30.04 in1017.3 mb 0.00 in0.0 mm 0.00 in0.0 mm 0.00 in0.0 mm
05:21 PM 87.4°F30.8°C 74.7°F23.7°C 66% 10.1 mph NE16.3 kmh NE 18.0 mph29.0 kmh 30.04 in1017.3 mb 0.00 in0.0 mm 0.00 in0.0 mm 0.00 in0.0 mm
05:22 PM 87.3°F30.7°C 74.5°F23.6°C 66% 10.1 mph NE16.3 kmh NE 18.0 mph29.0 kmh 30.04 in1017.3 mb 0.00 in0.0 mm 0.00 in0.0 mm 0.00 in0.0 mm
05:23 PM 87.3°F30.7°C 74.5°F23.6°C 66% 10.1 mph E16.3 kmh E 17.9 mph28.8 kmh 30.04 in1017.3 mb 0.00 in0.0 mm 0.00 in0.0 mm 0.00 in0.0 mm
05:24 PM 87.3°F30.7°C 74.5°F23.6°C 66% 10.1 mph E16.3 kmh E 17.9 mph28.8 kmh 30.04 in1017.3 mb 0.00 in0.0 mm 0.00 in0.0 mm 0.00 in0.0 mm
05:25 PM 87.3°F30.7°C 74.5°F23.6°C 66% 10.1 mph NE16.3 kmh NE 12.1 mph19.5 kmh 30.04 in1017.3 mb 0.00 in0.0 mm 0.00 in0.0 mm 0.00 in0.0 mm
05:26 PM 87.3°F30.7°C 74.5°F23.6°C 66% 10.1 mph E16.3 kmh E 14.1 mph22.7 kmh 30.04 in1017.3 mb 0.00 in0.0 mm 0.00 in0.0 mm 0.00 in0.0 mm
05:27 PM 87.3°F30.7°C 74.5°F23.6°C 66% 10.1 mph NE16.3 kmh NE 14.1 mph22.7 kmh 30.04 in1017.3 mb 0.00 in0.0 mm 0.00 in0.0 mm 0.00 in0.0 mm
05:28 PM 87.3°F30.7°C 74.1°F23.4°C 65% 10.1 mph E16.3 kmh E 17.9 mph28.8 kmh 30.03 in1016.9 mb 0.00 in0.0 mm 0.00 in0.0 mm 0.00 in0.0 mm
05:29 PM 87.3°F30.7°C 74.5°F23.6°C 66% 10.1 mph NE16.3 kmh NE 17.9 mph28.8 kmh 30.03 in1016.9 mb 0.00 in0.0 mm 0.00 in0.0 mm 0.00 in0.0 mm
05:30 PM 87.3°F30.7°C 74.5°F23.6°C 66% 10.1 mph NE16.3 kmh NE 13.0 mph20.9 kmh 30.03 in1016.9 mb 0.00 in0.0 mm 0.00 in0.0 mm 0.00 in0.0 mm
05:31 PM 87.3°F30.7°C 74.5°F23.6°C 66% 10.1 mph SE16.3 kmh SE 14.1 mph22.7 kmh 30.03 in1016.9 mb 0.00 in0.0 mm 0.00 in0.0 mm 0.00 in0.0 mm
05:32 PM 87.3°F30.7°C 74.5°F23.6°C 66% 8.9 mph ENE14.3 kmh ENE 10.1 mph16.3 kmh 30.03 in1016.9 mb 0.00 in0.0 mm 0.00 in0.0 mm 0.00 in0.0 mm
05:33 PM 87.4°F30.8°C 74.3°F23.5°C 65% 8.9 mph ESE14.3 kmh ESE 8.9 mph14.3 kmh 30.03 in1016.9 mb 0.00 in0.0 mm 0.00 in0.0 mm 0.00 in0.0 mm
05:34 PM 87.4°F30.8°C 74.7°F23.7°C 66% 8.1 mph ENE13.0 kmh ENE 8.9 mph14.3 kmh 30.03 in1016.9 mb 0.00 in0.0 mm 0.00 in0.0 mm 0.00 in0.0 mm
05:35 PM 87.4°F30.8°C 74.7°F23.7°C 66% 8.1 mph E13.0 kmh E 13.0 mph20.9 kmh 30.03 in1016.9 mb 0.00 in0.0 mm 0.00 in0.0 mm 0.00 in0.0 mm
05:36 PM 87.6°F30.9°C 74.3°F23.5°C 65% 8.1 mph NE13.0 kmh NE 12.1 mph19.5 kmh 30.03 in1016.9 mb 0.00 in0.0 mm 0.00 in0.0 mm 0.00 in0.0 mm
05:37 PM 87.4°F30.8°C 74.3°F23.5°C 65% 8.1 mph NE13.0 kmh NE 18.0 mph29.0 kmh 30.03 in1016.9 mb 0.00 in0.0 mm 0.00 in0.0 mm 0.00 in0.0 mm
05:38 PM 87.6°F30.9°C 74.8°F23.8°C 66% 8.1 mph E13.0 kmh E 18.0 mph29.0 kmh 30.03 in1016.9 mb 0.00 in0.0 mm 0.00 in0.0 mm 0.00 in0.0 mm
05:39 PM 87.6°F30.9°C 74.8°F23.8°C 66% 8.1 mph ENE13.0 kmh ENE 18.0 mph29.0 kmh 30.03 in1016.9 mb 0.00 in0.0 mm 0.00 in0.0 mm 0.00 in0.0 mm
05:40 PM 87.6°F30.9°C 74.8°F23.8°C 66% 8.1 mph SE13.0 kmh SE 14.1 mph22.7 kmh 30.03 in1016.9 mb 0.00 in0.0 mm 0.00 in0.0 mm 0.00 in0.0 mm
05:41 PM 87.6°F30.9°C 75.4°F24.1°C 67% 6.9 mph NE11.1 kmh NE 17.0 mph27.4 kmh 30.03 in1016.9 mb 0.00 in0.0 mm 0.00 in0.0 mm 0.00 in0.0 mm
05:42 PM 87.6°F30.9°C 74.8°F23.8°C 66% 8.1 mph NE13.0 kmh NE 17.9 mph28.8 kmh 30.03 in1016.9 mb 0.00 in0.0 mm 0.00 in0.0 mm 0.00 in0.0 mm
05:43 PM 87.4°F30.8°C 74.7°F23.7°C 66% 8.9 mph ENE14.3 kmh ENE 17.0 mph27.4 kmh 30.03 in1016.9 mb 0.00 in0.0 mm 0.00 in0.0 mm 0.00 in0.0 mm
05:44 PM 87.4°F30.8°C 75.2°F24.0°C 67% 8.9 mph E14.3 kmh E 17.0 mph27.4 kmh 30.03 in1016.9 mb 0.00 in0.0 mm 0.00 in0.0 mm 0.00 in0.0 mm
05:45 PM 87.3°F30.7°C 75.0°F23.9°C 67% 8.9 mph NE14.3 kmh NE 13.0 mph20.9 kmh 30.03 in1016.9 mb 0.00 in0.0 mm 0.00 in0.0 mm 0.00 in0.0 mm
05:46 PM 87.3°F30.7°C 75.0°F23.9°C 67% 8.9 mph E14.3 kmh E 14.1 mph22.7 kmh 30.03 in1016.9 mb 0.00 in0.0 mm 0.00 in0.0 mm 0.00 in0.0 mm
05:47 PM 87.1°F30.6°C 74.3°F23.5°C 66% 8.9 mph E14.3 kmh E 16.1 mph25.9 kmh 30.03 in1016.9 mb 0.00 in0.0 mm 0.00 in0.0 mm 0.00 in0.0 mm
05:48 PM 87.1°F30.6°C 74.3°F23.5°C 66% 8.9 mph ENE14.3 kmh ENE 14.1 mph22.7 kmh 30.03 in1016.9 mb 0.00 in0.0 mm 0.00 in0.0 mm 0.00 in0.0 mm
05:49 PM 87.1°F30.6°C 74.8°F23.8°C 67% 8.9 mph NE14.3 kmh NE 8.9 mph14.3 kmh 30.03 in1016.9 mb 0.00 in0.0 mm 0.00 in0.0 mm 0.00 in0.0 mm
05:50 PM 87.1°F30.6°C 74.8°F23.8°C 67% 8.9 mph NE14.3 kmh NE 8.9 mph14.3 kmh 30.03 in1016.9 mb 0.00 in0.0 mm 0.00 in0.0 mm 0.00 in0.0 mm
05:51 PM 86.9°F30.5°C 74.7°F23.7°C 67% 8.9 mph E14.3 kmh E 18.0 mph29.0 kmh 30.03 in1016.9 mb 0.00 in0.0 mm 0.00 in0.0 mm 0.00 in0.0 mm
05:52 PM 86.7°F30.4°C 73.9°F23.3°C 66% 8.9 mph NE14.3 kmh NE 15.0 mph24.1 kmh 30.03 in1016.9 mb 0.00 in0.0 mm 0.00 in0.0 mm 0.00 in0.0 mm
05:53 PM 86.7°F30.4°C 73.9°F23.3°C 66% 8.9 mph ENE14.3 kmh ENE 14.1 mph22.7 kmh 30.03 in1016.9 mb 0.00 in0.0 mm 0.00 in0.0 mm 0.00 in0.0 mm
05:54 PM 86.5°F30.3°C 74.3°F23.5°C 67% 8.1 mph E13.0 kmh E 16.1 mph25.9 kmh 30.03 in1016.9 mb 0.00 in0.0 mm 0.00 in0.0 mm 0.00 in0.0 mm
05:55 PM 86.4°F30.2°C 74.1°F23.4°C 67% 8.9 mph E14.3 kmh E 16.1 mph25.9 kmh 30.03 in1016.9 mb 0.00 in0.0 mm 0.00 in0.0 mm 0.00 in0.0 mm
05:56 PM 86.4°F30.2°C 74.1°F23.4°C 67% 8.9 mph NE14.3 kmh NE 14.1 mph22.7 kmh 30.03 in1016.9 mb 0.00 in0.0 mm 0.00 in0.0 mm 0.00 in0.0 mm
05:57 PM 86.2°F30.1°C 73.9°F23.3°C 67% 8.1 mph NE13.0 kmh NE 10.1 mph16.3 kmh 30.03 in1016.9 mb 0.00 in0.0 mm 0.00 in0.0 mm 0.00 in0.0 mm
05:58 PM 86.2°F30.1°C 74.3°F23.5°C 68% 8.1 mph NE13.0 kmh NE 10.1 mph16.3 kmh 30.03 in1016.9 mb 0.00 in0.0 mm 0.00 in0.0 mm 0.00 in0.0 mm
05:59 PM 86.2°F30.1°C 74.3°F23.5°C 68% 8.1 mph ESE13.0 kmh ESE 10.1 mph16.3 kmh 30.03 in1016.9 mb 0.00 in0.0 mm 0.00 in0.0 mm 0.00 in0.0 mm
06:00 PM 86.2°F30.1°C 74.3°F23.5°C 68% 8.1 mph NE13.0 kmh NE 11.0 mph17.7 kmh 30.03 in1016.9 mb 0.00 in0.0 mm 0.00 in0.0 mm 0.00 in0.0 mm
06:01 PM 86.0°F30.0°C 74.1°F23.4°C 68% 8.1 mph E13.0 kmh E 18.0 mph29.0 kmh 30.03 in1016.9 mb 0.00 in0.0 mm 0.00 in0.0 mm 0.00 in0.0 mm
06:02 PM 85.8°F29.9°C 73.9°F23.3°C 68% 8.1 mph NE13.0 kmh NE 18.0 mph29.0 kmh 30.02 in1016.6 mb 0.00 in0.0 mm 0.00 in0.0 mm 0.00 in0.0 mm
06:03 PM 86.0°F30.0°C 74.1°F23.4°C 68% 6.9 mph E11.1 kmh E 11.0 mph17.7 kmh 30.03 in1016.9 mb 0.00 in0.0 mm 0.00 in0.0 mm 0.00 in0.0 mm
06:04 PM 85.8°F29.9°C 74.5°F23.6°C 69% 6.9 mph NE11.1 kmh NE 12.1 mph19.5 kmh 30.03 in1016.9 mb 0.00 in0.0 mm 0.00 in0.0 mm 0.00 in0.0 mm
06:05 PM 85.8°F29.9°C 74.5°F23.6°C 69% 6.9 mph NE11.1 kmh NE 14.1 mph22.7 kmh 30.03 in1016.9 mb 0.00 in0.0 mm 0.00 in0.0 mm 0.00 in0.0 mm
06:06 PM 85.6°F29.8°C 74.3°F23.5°C 69% 6.9 mph NE11.1 kmh NE 16.1 mph25.9 kmh 30.03 in1016.9 mb 0.00 in0.0 mm 0.00 in0.0 mm 0.00 in0.0 mm
06:07 PM 85.6°F29.8°C 74.3°F23.5°C 69% 8.1 mph E13.0 kmh E 16.1 mph25.9 kmh 30.03 in1016.9 mb 0.00 in0.0 mm 0.00 in0.0 mm 0.00 in0.0 mm
06:08 PM 85.6°F29.8°C 74.3°F23.5°C 69% 6.9 mph E11.1 kmh E 15.0 mph24.1 kmh 30.02 in1016.6 mb 0.00 in0.0 mm 0.00 in0.0 mm 0.00 in0.0 mm
06:09 PM 85.5°F29.7°C 74.5°F23.6°C 70% 8.1 mph ENE13.0 kmh ENE 14.1 mph22.7 kmh 30.02 in1016.6 mb 0.00 in0.0 mm 0.00 in0.0 mm 0.00 in0.0 mm
06:10 PM 85.3°F29.6°C 74.3°F23.5°C 70% 8.1 mph E13.0 kmh E 12.1 mph19.5 kmh 30.02 in1016.6 mb 0.00 in0.0 mm 0.00 in0.0 mm 0.00 in0.0 mm
06:11 PM 85.3°F29.6°C 74.3°F23.5°C 70% 8.1 mph NE13.0 kmh NE 12.1 mph19.5 kmh 30.03 in1016.9 mb 0.00 in0.0 mm 0.00 in0.0 mm 0.00 in0.0 mm
06:12 PM 85.1°F29.5°C 74.7°F23.7°C 71% 8.1 mph NE13.0 kmh NE 11.0 mph17.7 kmh 30.03 in1016.9 mb 0.00 in0.0 mm 0.00 in0.0 mm 0.00 in0.0 mm
06:13 PM 85.1°F29.5°C 74.7°F23.7°C 71% 8.1 mph E13.0 kmh E 11.0 mph17.7 kmh 30.03 in1016.9 mb 0.00 in0.0 mm 0.00 in0.0 mm 0.00 in0.0 mm
06:14 PM 84.9°F29.4°C 74.5°F23.6°C 71% 8.1 mph ENE13.0 kmh ENE 8.1 mph13.0 kmh 30.02 in1016.6 mb 0.00 in0.0 mm 0.00 in0.0 mm 0.00 in0.0 mm
06:15 PM 84.9°F29.4°C 74.5°F23.6°C 71% 6.9 mph E11.1 kmh E 11.0 mph17.7 kmh 30.02 in1016.6 mb 0.00 in0.0 mm 0.00 in0.0 mm 0.00 in0.0 mm
06:16 PM 84.9°F29.4°C 74.8°F23.8°C 72% 6.9 mph ENE11.1 kmh ENE 16.0 mph25.7 kmh 30.02 in1016.6 mb 0.00 in0.0 mm 0.00 in0.0 mm 0.00 in0.0 mm
06:17 PM 84.7°F29.3°C 74.3°F23.5°C 71% 6.9 mph E11.1 kmh E 16.0 mph25.7 kmh 30.02 in1016.6 mb 0.00 in0.0 mm 0.00 in0.0 mm 0.00 in0.0 mm
06:18 PM 84.7°F29.3°C 74.3°F23.5°C 71% 6.9 mph E11.1 kmh E 8.9 mph14.3 kmh 30.03 in1016.9 mb 0.00 in0.0 mm 0.00 in0.0 mm 0.00 in0.0 mm
06:19 PM 84.6°F29.2°C 74.1°F23.4°C 71% 6.0 mph E9.7 kmh E 10.1 mph16.3 kmh 30.02 in1016.6 mb 0.00 in0.0 mm 0.00 in0.0 mm 0.00 in0.0 mm
06:20 PM 84.6°F29.2°C 74.5°F23.6°C 72% 6.0 mph E9.7 kmh E 8.1 mph13.0 kmh 30.02 in1016.6 mb 0.00 in0.0 mm 0.00 in0.0 mm 0.00 in0.0 mm
06:21 PM 84.6°F29.2°C 74.5°F23.6°C 72% 6.0 mph NE9.7 kmh NE 13.0 mph20.9 kmh 30.03 in1016.9 mb 0.00 in0.0 mm 0.00 in0.0 mm 0.00 in0.0 mm
06:22 PM 84.6°F29.2°C 74.5°F23.6°C 72% 6.0 mph NE9.7 kmh NE 13.0 mph20.9 kmh 30.03 in1016.9 mb 0.00 in0.0 mm 0.00 in0.0 mm 0.00 in0.0 mm
06:23 PM 84.4°F29.1°C 74.3°F23.5°C 72% 6.0 mph ENE9.7 kmh ENE 10.1 mph16.3 kmh 30.03 in1016.9 mb 0.00 in0.0 mm 0.00 in0.0 mm 0.00 in0.0 mm
06:24 PM 84.4°F29.1°C 74.3°F23.5°C 72% 6.0 mph E9.7 kmh E 13.0 mph20.9 kmh 30.03 in1016.9 mb 0.00 in0.0 mm 0.00 in0.0 mm 0.00 in0.0 mm
06:25 PM 84.2°F29.0°C 74.1°F23.4°C 72% 6.0 mph NNE9.7 kmh NNE 13.0 mph20.9 kmh 30.03 in1016.9 mb 0.00 in0.0 mm 0.00 in0.0 mm 0.00 in0.0 mm
06:26 PM 84.2°F29.0°C 74.1°F23.4°C 72% 6.0 mph NNW9.7 kmh NNW 10.1 mph16.3 kmh 30.03 in1016.9 mb 0.00 in0.0 mm 0.00 in0.0 mm 0.00 in0.0 mm
06:27 PM 84.0°F28.9°C 73.6°F23.1°C 71% 6.0 mph E9.7 kmh E 11.0 mph17.7 kmh 30.03 in1016.9 mb 0.00 in0.0 mm 0.00 in0.0 mm 0.00 in0.0 mm
06:28 PM 83.8°F28.8°C 73.4°F23.0°C 71% 6.0 mph ENE9.7 kmh ENE 11.0 mph17.7 kmh 30.03 in1016.9 mb 0.00 in0.0 mm 0.00 in0.0 mm 0.00 in0.0 mm
06:29 PM 83.8°F28.8°C 73.4°F23.0°C 71% 6.0 mph NE9.7 kmh NE 11.0 mph17.7 kmh 30.03 in1016.9 mb 0.00 in0.0 mm 0.00 in0.0 mm 0.00 in0.0 mm
06:30 PM 83.8°F28.8°C 73.4°F23.0°C 71% 6.0 mph NE9.7 kmh NE 11.0 mph17.7 kmh 30.03 in1016.9 mb 0.00 in0.0 mm 0.00 in0.0 mm 0.00 in0.0 mm
06:31 PM 83.8°F28.8°C 73.4°F23.0°C 71% 6.0 mph ENE9.7 kmh ENE 13.0 mph20.9 kmh 30.03 in1016.9 mb 0.00 in0.0 mm 0.00 in0.0 mm 0.00 in0.0 mm
06:32 PM 83.8°F28.8°C 73.8°F23.2°C 72% 6.0 mph ENE9.7 kmh ENE 13.0 mph20.9 kmh 30.03 in1016.9 mb 0.00 in0.0 mm 0.00 in0.0 mm 0.00 in0.0 mm
06:33 PM 83.8°F28.8°C 73.8°F23.2°C 72% 6.0 mph E9.7 kmh E 13.0 mph20.9 kmh 30.03 in1016.9 mb 0.00 in0.0 mm 0.00 in0.0 mm 0.00 in0.0 mm
06:34 PM 83.7°F28.7°C 73.6°F23.1°C 72% 6.0 mph ENE9.7 kmh ENE 11.0 mph17.7 kmh 30.03 in1016.9 mb 0.00 in0.0 mm 0.00 in0.0 mm 0.00 in0.0 mm
06:35 PM 83.7°F28.7°C 74.1°F23.4°C 73% 6.0 mph E9.7 kmh E 14.1 mph22.7 kmh 30.03 in1016.9 mb 0.00 in0.0 mm 0.00 in0.0 mm 0.00 in0.0 mm
06:36 PM 83.7°F28.7°C 74.1°F23.4°C 73% 6.0 mph ENE9.7 kmh ENE 12.1 mph19.5 kmh 30.03 in1016.9 mb 0.00 in0.0 mm 0.00 in0.0 mm 0.00 in0.0 mm
06:37 PM 83.7°F28.7°C 74.1°F23.4°C 73% 6.0 mph E9.7 kmh E 13.0 mph20.9 kmh 30.03 in1016.9 mb 0.00 in0.0 mm 0.00 in0.0 mm 0.00 in0.0 mm
06:38 PM 83.7°F28.7°C 74.1°F23.4°C 73% 6.9 mph E11.1 kmh E 15.0 mph24.1 kmh 30.03 in1016.9 mb 0.00 in0.0 mm 0.00 in0.0 mm 0.00 in0.0 mm
06:39 PM 83.5°F28.6°C 73.9°F23.3°C 73% 6.9 mph ENE11.1 kmh ENE 12.1 mph19.5 kmh 30.02 in1016.6 mb 0.00 in0.0 mm 0.00 in0.0 mm 0.00 in0.0 mm
06:40 PM 83.5°F28.6°C 73.9°F23.3°C 73% 6.9 mph NE11.1 kmh NE 8.1 mph13.0 kmh 30.03 in1016.9 mb 0.00 in0.0 mm 0.00 in0.0 mm 0.00 in0.0 mm
06:41 PM 83.5°F28.6°C 73.9°F23.3°C 73% 6.9 mph ENE11.1 kmh ENE 15.0 mph24.1 kmh 30.03 in1016.9 mb 0.00 in0.0 mm 0.00 in0.0 mm 0.00 in0.0 mm
06:42 PM 83.5°F28.6°C 73.9°F23.3°C 73% 6.9 mph ESE11.1 kmh ESE 15.0 mph24.1 kmh 30.03 in1016.9 mb 0.00 in0.0 mm 0.00 in0.0 mm 0.00 in0.0 mm
06:43 PM 83.5°F28.6°C 73.9°F23.3°C 73% 6.9 mph E11.1 kmh E 10.1 mph16.3 kmh 30.03 in1016.9 mb 0.00 in0.0 mm 0.00 in0.0 mm 0.00 in0.0 mm
06:44 PM 83.5°F28.6°C 73.9°F23.3°C 73% 6.9 mph NE11.1 kmh NE 13.0 mph20.9 kmh 30.03 in1016.9 mb 0.00 in0.0 mm 0.00 in0.0 mm 0.00 in0.0 mm
06:45 PM 83.3°F28.5°C 73.8°F23.2°C 73% 6.9 mph NE11.1 kmh NE 13.0 mph20.9 kmh 30.03 in1016.9 mb 0.00 in0.0 mm 0.00 in0.0 mm 0.00 in0.0 mm
06:46 PM 83.5°F28.6°C 74.3°F23.5°C 74% 8.1 mph ENE13.0 kmh ENE 10.1 mph16.3 kmh 30.03 in1016.9 mb 0.00 in0.0 mm 0.00 in0.0 mm 0.00 in0.0 mm
06:47 PM 83.5°F28.6°C 74.3°F23.5°C 74% 6.9 mph NE11.1 kmh NE 6.0 mph9.7 kmh 30.03 in1016.9 mb 0.00 in0.0 mm 0.00 in0.0 mm 0.00 in0.0 mm
06:48 PM 83.3°F28.5°C 74.1°F23.4°C 74% 6.0 mph ENE9.7 kmh ENE 6.0 mph9.7 kmh 30.03 in1016.9 mb 0.00 in0.0 mm 0.00 in0.0 mm 0.00 in0.0 mm
06:49 PM 83.3°F28.5°C 74.1°F23.4°C 74% 6.0 mph E9.7 kmh E 4.9 mph7.9 kmh 30.03 in1016.9 mb 0.00 in0.0 mm 0.00 in0.0 mm 0.00 in0.0 mm
06:50 PM 83.3°F28.5°C 74.1°F23.4°C 74% 6.0 mph NE9.7 kmh NE 2.9 mph4.7 kmh 30.03 in1016.9 mb 0.00 in0.0 mm 0.00 in0.0 mm 0.00 in0.0 mm
06:51 PM 83.3°F28.5°C 74.1°F23.4°C 74% 4.9 mph E7.9 kmh E 15.0 mph24.1 kmh 30.03 in1016.9 mb 0.00 in0.0 mm 0.00 in0.0 mm 0.00 in0.0 mm
06:52 PM 83.3°F28.5°C 74.5°F23.6°C 75% 4.9 mph E7.9 kmh E 15.0 mph24.1 kmh 30.03 in1016.9 mb 0.00 in0.0 mm 0.00 in0.0 mm 0.00 in0.0 mm
06:53 PM 83.1°F28.4°C 73.9°F23.3°C 74% 4.9 mph E7.9 kmh E 14.1 mph22.7 kmh 30.03 in1016.9 mb 0.00 in0.0 mm 0.00 in0.0 mm 0.00 in0.0 mm
06:54 PM 83.1°F28.4°C 73.6°F23.1°C 73% 4.9 mph NE7.9 kmh NE 12.1 mph19.5 kmh 30.03 in1016.9 mb 0.00 in0.0 mm 0.00 in0.0 mm 0.00 in0.0 mm
06:55 PM 83.1°F28.4°C 73.6°F23.1°C 73% 4.9 mph ENE7.9 kmh ENE 10.1 mph16.3 kmh 30.03 in1016.9 mb 0.00 in0.0 mm 0.00 in0.0 mm 0.00 in0.0 mm
06:56 PM 83.1°F28.4°C 73.2°F22.9°C 72% 4.9 mph E7.9 kmh E 8.9 mph14.3 kmh 30.03 in1016.9 mb 0.00 in0.0 mm 0.00 in0.0 mm 0.00 in0.0 mm
06:57 PM 83.1°F28.4°C 73.6°F23.1°C 73% 4.9 mph NE7.9 kmh NE 10.1 mph16.3 kmh 30.03 in1016.9 mb 0.00 in0.0 mm 0.00 in0.0 mm 0.00 in0.0 mm
06:58 PM 83.1°F28.4°C 73.2°F22.9°C 72% 4.9 mph NE7.9 kmh NE 10.1 mph16.3 kmh 30.03 in1016.9 mb 0.00 in0.0 mm 0.00 in0.0 mm 0.00 in0.0 mm
06:59 PM 83.1°F28.4°C 73.6°F23.1°C 73% 4.9 mph E7.9 kmh E 10.1 mph16.3 kmh 30.03 in1016.9 mb 0.00 in0.0 mm 0.00 in0.0 mm 0.00 in0.0 mm
07:00 PM 83.1°F28.4°C 73.6°F23.1°C 73% 4.9 mph ENE7.9 kmh ENE 10.1 mph16.3 kmh 30.03 in1016.9 mb 0.00 in0.0 mm 0.00 in0.0 mm 0.00 in0.0 mm
07:01 PM 83.1°F28.4°C 73.6°F23.1°C 73% 6.0 mph NE9.7 kmh NE 8.9 mph14.3 kmh 30.03 in1016.9 mb 0.00 in0.0 mm 0.00 in0.0 mm 0.00 in0.0 mm
07:02 PM 82.9°F28.3°C 73.4°F23.0°C 73% 6.0 mph E9.7 kmh E 12.1 mph19.5 kmh 30.03 in1016.9 mb 0.00 in0.0 mm 0.00 in0.0 mm 0.00 in0.0 mm
07:03 PM 82.9°F28.3°C 73.4°F23.0°C 73% 6.0 mph NE9.7 kmh NE 14.0 mph22.5 kmh 30.03 in1016.9 mb 0.00 in0.0 mm 0.00 in0.0 mm 0.00 in0.0 mm
07:04 PM 82.9°F28.3°C 73.4°F23.0°C 73% 6.0 mph ENE9.7 kmh ENE 8.9 mph14.3 kmh 30.03 in1016.9 mb 0.00 in0.0 mm 0.00 in0.0 mm 0.00 in0.0 mm
07:05 PM 82.9°F28.3°C 73.4°F23.0°C 73% 4.9 mph ENE7.9 kmh ENE 12.1 mph19.5 kmh 30.03 in1016.9 mb 0.00 in0.0 mm 0.00 in0.0 mm 0.00 in0.0 mm
07:06 PM 82.9°F28.3°C 73.4°F23.0°C 73% 6.0 mph ENE9.7 kmh ENE 10.1 mph16.3 kmh 30.03 in1016.9 mb 0.00 in0.0 mm 0.00 in0.0 mm 0.00 in0.0 mm
07:07 PM 82.9°F28.3°C 73.4°F23.0°C 73% 6.0 mph E9.7 kmh E 8.9 mph14.3 kmh 30.03 in1016.9 mb 0.00 in0.0 mm 0.00 in0.0 mm 0.00 in0.0 mm
07:08 PM 82.9°F28.3°C 73.4°F23.0°C 73% 6.0 mph E9.7 kmh E 4.9 mph7.9 kmh 30.03 in1016.9 mb 0.00 in0.0 mm 0.00 in0.0 mm 0.00 in0.0 mm
07:09 PM 82.9°F28.3°C 73.4°F23.0°C 73% 4.9 mph E7.9 kmh E 8.1 mph13.0 kmh 30.03 in1016.9 mb 0.00 in0.0 mm 0.00 in0.0 mm 0.00 in0.0 mm
07:10 PM 82.9°F28.3°C 73.4°F23.0°C 73% 4.9 mph ENE7.9 kmh ENE 8.1 mph13.0 kmh 30.03 in1016.9 mb 0.00 in0.0 mm 0.00 in0.0 mm 0.00 in0.0 mm
07:11 PM 82.8°F28.2°C 73.2°F22.9°C 73% 4.9 mph E7.9 kmh E 10.1 mph16.3 kmh 30.03 in1016.9 mb 0.00 in0.0 mm 0.00 in0.0 mm 0.00 in0.0 mm
07:12 PM 82.8°F28.2°C 73.2°F22.9°C 73% 4.9 mph ENE7.9 kmh ENE 12.1 mph19.5 kmh 30.03 in1016.9 mb 0.00 in0.0 mm 0.00 in0.0 mm 0.00 in0.0 mm
07:13 PM 82.8°F28.2°C 72.9°F22.7°C 72% 4.9 mph E7.9 kmh E 14.1 mph22.7 kmh 30.03 in1016.9 mb 0.00 in0.0 mm 0.00 in0.0 mm 0.00 in0.0 mm
07:14 PM 82.8°F28.2°C 72.9°F22.7°C 72% 4.9 mph ENE7.9 kmh ENE 14.0 mph22.5 kmh 30.03 in1016.9 mb 0.00 in0.0 mm 0.00 in0.0 mm 0.00 in0.0 mm
07:15 PM 82.8°F28.2°C 72.9°F22.7°C 72% 4.9 mph NE7.9 kmh NE 8.9 mph14.3 kmh 30.03 in1016.9 mb 0.00 in0.0 mm 0.00 in0.0 mm 0.00 in0.0 mm
07:16 PM 82.8°F28.2°C 72.9°F22.7°C 72% 4.9 mph NE7.9 kmh NE 8.1 mph13.0 kmh 30.03 in1016.9 mb 0.00 in0.0 mm 0.00 in0.0 mm 0.00 in0.0 mm
07:17 PM 82.8°F28.2°C 72.9°F22.7°C 72% 4.9 mph ENE7.9 kmh ENE 11.0 mph17.7 kmh 30.03 in1016.9 mb 0.00 in0.0 mm 0.00 in0.0 mm 0.00 in0.0 mm
07:18 PM 82.8°F28.2°C 72.3°F22.4°C 71% 6.0 mph ENE9.7 kmh ENE 16.1 mph25.9 kmh 30.03 in1016.9 mb 0.00 in0.0 mm 0.00 in0.0 mm 0.00 in0.0 mm
07:19 PM 82.8°F28.2°C 72.3°F22.4°C 71% 6.0 mph NE9.7 kmh NE 16.0 mph25.7 kmh 30.03 in1016.9 mb 0.00 in0.0 mm 0.00 in0.0 mm 0.00 in0.0 mm
07:20 PM 82.8°F28.2°C 72.3°F22.4°C 71% 6.9 mph NE11.1 kmh NE 14.1 mph22.7 kmh 30.03 in1016.9 mb 0.00 in0.0 mm 0.00 in0.0 mm 0.00 in0.0 mm
07:21 PM 82.8°F28.2°C 72.3°F22.4°C 71% 6.9 mph NE11.1 kmh NE 14.1 mph22.7 kmh 30.03 in1016.9 mb 0.00 in0.0 mm 0.00 in0.0 mm 0.00 in0.0 mm
07:22 PM 82.8°F28.2°C 72.3°F22.4°C 71% 6.9 mph NE11.1 kmh NE 12.1 mph19.5 kmh 30.03 in1016.9 mb 0.00 in0.0 mm 0.00 in0.0 mm 0.00 in0.0 mm
07:23 PM 82.8°F28.2°C 72.3°F22.4°C 71% 6.9 mph E11.1 kmh E 13.0 mph20.9 kmh 30.03 in1016.9 mb 0.00 in0.0 mm 0.00 in0.0 mm 0.00 in0.0 mm
07:24 PM 82.8°F28.2°C 72.3°F22.4°C 71% 6.9 mph ENE11.1 kmh ENE 12.1 mph19.5 kmh 30.03 in1016.9 mb 0.00 in0.0 mm 0.00 in0.0 mm 0.00 in0.0 mm
07:25 PM 82.8°F28.2°C 72.3°F22.4°C 71% 6.9 mph ENE11.1 kmh ENE 11.0 mph17.7 kmh 30.03 in1016.9 mb 0.00 in0.0 mm 0.00 in0.0 mm 0.00 in0.0 mm
07:26 PM 82.8°F28.2°C 72.3°F22.4°C 71% 6.9 mph NE11.1 kmh NE 15.0 mph24.1 kmh 30.03 in1016.9 mb 0.00 in0.0 mm 0.00 in0.0 mm 0.00 in0.0 mm
07:27 PM 82.8°F28.2°C 72.3°F22.4°C 71% 8.1 mph NE13.0 kmh NE 12.1 mph19.5 kmh 30.03 in1016.9 mb 0.00 in0.0 mm 0.00 in0.0 mm 0.00 in0.0 mm
07:28 PM 82.8°F28.2°C 72.3°F22.4°C 71% 8.1 mph E13.0 kmh E 15.0 mph24.1 kmh 30.03 in1016.9 mb 0.00 in0.0 mm 0.00 in0.0 mm 0.00 in0.0 mm
07:29 PM 82.8°F28.2°C 72.3°F22.4°C 71% 8.1 mph NE13.0 kmh NE 12.1 mph19.5 kmh 30.03 in1016.9 mb 0.00 in0.0 mm 0.00 in0.0 mm 0.00 in0.0 mm
07:30 PM 82.8°F28.2°C 72.3°F22.4°C 71% 6.9 mph E11.1 kmh E 12.1 mph19.5 kmh 30.03 in1016.9 mb 0.00 in0.0 mm 0.00 in0.0 mm 0.00 in0.0 mm
07:31 PM 82.8°F28.2°C 72.9°F22.7°C 72% 6.9 mph E11.1 kmh E 11.0 mph17.7 kmh 30.03 in1016.9 mb 0.00 in0.0 mm 0.00 in0.0 mm 0.00 in0.0 mm
07:32 PM 82.9°F28.3°C 73.0°F22.8°C 72% 6.9 mph ENE11.1 kmh ENE 6.9 mph11.1 kmh 30.03 in1016.9 mb 0.00 in0.0 mm 0.00 in0.0 mm 0.00 in0.0 mm
07:33 PM 82.8°F28.2°C 72.9°F22.7°C 72% 6.9 mph E11.1 kmh E 8.1 mph13.0 kmh 30.03 in1016.9 mb 0.00 in0.0 mm 0.00 in0.0 mm 0.00 in0.0 mm
07:34 PM 82.8°F28.2°C 72.9°F22.7°C 72% 6.9 mph E11.1 kmh E 8.1 mph13.0 kmh 30.03 in1016.9 mb 0.00 in0.0 mm 0.00 in0.0 mm 0.00 in0.0 mm
07:35 PM 82.8°F28.2°C 72.9°F22.7°C 72% 6.0 mph E9.7 kmh E 10.1 mph16.3 kmh 30.03 in1016.9 mb 0.00 in0.0 mm 0.00 in0.0 mm 0.00 in0.0 mm
07:36 PM 82.8°F28.2°C 72.9°F22.7°C 72% 6.0 mph E9.7 kmh E 10.1 mph16.3 kmh 30.03 in1016.9 mb 0.00 in0.0 mm 0.00 in0.0 mm 0.00 in0.0 mm
07:37 PM 82.8°F28.2°C 72.9°F22.7°C 72% 6.0 mph E9.7 kmh E 10.1 mph16.3 kmh 30.03 in